Time,TemperatureF,DewpointF,PressureIn,WindDirection,WindDirectionDegrees,WindSpeedMPH,WindSpeedGustMPH,Humidity,HourlyPrecipIn,Conditions,Clouds,dailyrainin,SoftwareType,DateUTC
2013-03-04 00:00:00,61.7,35.6,29.66,WSW,248,0.0,4.6,38,0.00,,,0.00,WUHU216HW,2013-03-04 05:00:00,
2013-03-04 00:06:00,61.5,35.5,29.66,SSW,203,4.6,4.6,38,0.00,,,0.00,WUHU216HW,2013-03-04 05:06:00,
2013-03-04 00:07:00,61.3,36.0,29.66,WSW,248,0.0,4.6,39,0.00,,,0.00,WUHU216HW,2013-03-04 05:07:00,
2013-03-04 00:08:00,61.3,36.0,29.66,WSW,248,0.0,4.6,39,0.00,,,0.00,WUHU216HW,2013-03-04 05:08:00,
2013-03-04 00:09:00,61.3,36.0,29.66,SSW,203,4.4,4.6,39,0.00,,,0.00,WUHU216HW,2013-03-04 05:09:00,
2013-03-04 00:10:00,61.3,36.0,29.65,WSW,248,0.0,4.6,39,0.00,,,0.00,WUHU216HW,2013-03-04 05:10:00,
2013-03-04 00:11:00,61.3,36.0,29.65,WSW,248,0.0,4.6,39,0.00,,,0.00,WUHU216HW,2013-03-04 05:11:00,
2013-03-04 00:12:00,31.4,19.2,29.68,West,270,0.0,0.0,60,0.00,,,0.00,WUHU216HW,2013-03-04 05:12:00,
2013-03-04 00:13:00,61.3,36.0,29.65,SW,225,0.0,4.6,39,0.00,,,0.00,WUHU216HW,2013-03-04 05:13:00,
2013-03-04 00:14:00,61.3,36.0,29.65,SW,225,0.0,4.6,39,0.00,,,0.00,WUHU216HW,2013-03-04 05:14:00,
2013-03-04 00:15:00,61.3,36.0,29.65,SW,225,0.0,4.6,39,0.00,,,0.00,WUHU216HW,2013-03-04 05:15:00,
2013-03-04 00:16:00,61.3,36.0,29.65,SW,225,0.0,4.4,39,0.00,,,0.00,WUHU216HW,2013-03-04 05:16:00,
2013-03-04 00:17:00,31.4,19.2,29.69,West,270,0.0,0.0,60,0.00,,,0.00,WUHU216HW,2013-03-04 05:17:00,
2013-03-04 00:18:00,61.3,36.0,29.65,WSW,248,0.0,4.4,39,0.00,,,0.00,WUHU216HW,2013-03-04 05:18:00,
2013-03-04 00:19:00,61.3,36.0,29.65,WSW,248,0.0,4.4,39,0.00,,,0.00,WUHU216HW,2013-03-04 05:19:00,
2013-03-04 00:21:00,61.3,36.0,29.65,WSW,248,0.0,0.0,39,0.00,,,0.00,WUHU216HW,2013-03-04 05:21:00,
2013-03-04 00:22:00,31.2,19.0,29.69,West,270,0.0,0.0,60,0.00,,,0.00,WUHU216HW,2013-03-04 05:22:00,
2013-03-04 00:23:00,61.3,36.0,29.65,WSW,248,0.0,0.0,38,0.00,,,0.00,WUHU216HW,2013-03-04 05:23:00,
2013-03-04 00:25:00,61.3,36.0,29.65,WSW,248,0.0,0.0,39,0.00,,,0.00,WUHU216HW,2013-03-04 05:25:00,
2013-03-04 00:26:00,61.1,35.2,29.65,ESE,113,0.0,0.0,38,0.00,,,0.00,WUHU216HW,2013-03-04 05:26:00,
2013-03-04 00:27:00,31.2,19.0,29.69,West,270,0.0,0.0,60,0.00,,,0.00,WUHU216HW,2013-03-04 05:27:00,
2013-03-04 00:28:00,60.9,35.7,29.65,ESE,113,0.0,0.0,39,0.00,,,0.00,WUHU216HW,2013-03-04 05:28:00,
2013-03-04 00:29:00,60.9,35.7,29.65,ESE,113,0.0,0.0,39,0.00,,,0.00,WUHU216HW,2013-03-04 05:29:00,
2013-03-04 00:30:00,60.8,34.8,29.65,ESE,113,0.0,0.0,38,0.00,,,0.00,WUHU216HW,2013-03-04 05:30:00,
2013-03-04 00:31:00,60.8,34.8,29.65,ESE,113,0.0,0.0,38,0.00,,,0.00,WUHU216HW,2013-03-04 05:31:00,
2013-03-04 00:32:00,31.2,19.0,29.69,West,270,0.0,0.0,60,0.00,,,0.00,WUHU216HW,2013-03-04 05:32:00,
2013-03-04 00:33:00,60.8,34.8,29.65,WSW,248,0.0,0.0,39,0.00,,,0.00,WUHU216HW,2013-03-04 05:33:00,
2013-03-04 00:34:00,60.8,34.8,29.65,NNW,338,0.0,0.0,39,0.00,,,0.00,WUHU216HW,2013-03-04 05:34:00,
2013-03-04 00:35:00,60.8,34.8,29.65,NNW,338,0.0,0.0,39,0.00,,,0.00,WUHU216HW,2013-03-04 05:35:00,
2013-03-04 00:36:00,60.8,34.8,29.65,NNW,338,0.0,0.0,39,0.00,,,0.00,WUHU216HW,2013-03-04 05:36:00,
2013-03-04 00:37:00,31.2,19.0,29.69,West,270,0.0,0.0,61,0.00,,,0.00,WUHU216HW,2013-03-04 05:37:00,
2013-03-04 00:38:00,60.6,35.4,29.64,WSW,248,0.0,0.0,39,0.00,,,0.00,WUHU216HW,2013-03-04 05:38:00,
2013-03-04 00:39:00,60.6,35.4,29.65,SE,135,0.0,0.0,40,0.00,,,0.00,WUHU216HW,2013-03-04 05:39:00,
2013-03-04 00:40:00,60.6,35.4,29.65,SE,135,0.0,0.0,40,0.00,,,0.00,WUHU216HW,2013-03-04 05:40:00,
2013-03-04 00:41:00,60.6,35.4,29.65,WSW,248,0.0,0.0,39,0.00,,,0.00,WUHU216HW,2013-03-04 05:41:00,
2013-03-04 00:42:00,31.1,19.2,29.69,West,270,0.0,0.0,61,0.00,,,0.00,WUHU216HW,2013-03-04 05:42:00,
2013-03-04 00:43:00,60.6,35.4,29.64,West,270,0.0,0.0,39,0.00,,,0.00,WUHU216HW,2013-03-04 05:43:00,
2013-03-04 00:44:00,60.6,35.4,29.64,West,270,0.0,0.0,39,0.00,,,0.00,WUHU216HW,2013-03-04 05:44:00,
2013-03-04 00:45:00,60.4,35.9,29.64,WSW,248,0.0,0.0,40,0.00,,,0.00,WUHU216HW,2013-03-04 05:45:00,
2013-03-04 00:46:00,60.4,35.9,29.64,WSW,248,0.0,0.0,40,0.00,,,0.00,WUHU216HW,2013-03-04 05:46:00,
2013-03-04 00:47:00,30.9,19.0,29.69,West,270,0.0,0.0,62,0.00,,,0.00,WUHU216HW,2013-03-04 05:47:00,
2013-03-04 00:48:00,60.4,35.9,29.64,West,270,0.0,0.0,39,0.00,,,0.00,WUHU216HW,2013-03-04 05:48:00,
2013-03-04 00:49:00,60.4,35.9,29.64,West,270,0.0,0.0,39,0.00,,,0.00,WUHU216HW,2013-03-04 05:49:00,
2013-03-04 00:50:00,60.4,35.9,29.64,SE,135,0.0,0.0,40,0.00,,,0.00,WUHU216HW,2013-03-04 05:50:00,
2013-03-04 00:51:00,60.4,35.9,29.64,SE,135,0.0,0.0,40,0.00,,,0.00,WUHU216HW,2013-03-04 05:51:00,
2013-03-04 00:52:00,30.7,19.2,29.69,West,270,0.0,0.0,62,0.00,,,0.00,WUHU216HW,2013-03-04 05:52:00,
2013-03-04 00:53:00,60.2,35.8,29.64,SE,135,0.0,0.0,40,0.00,,,0.00,WUHU216HW,2013-03-04 05:53:00,
2013-03-04 00:54:00,60.2,35.8,29.64,WSW,248,0.0,0.0,40,0.00,,,0.00,WUHU216HW,2013-03-04 05:54:00,
2013-03-04 00:55:00,60.2,35.8,29.64,WSW,248,0.0,0.0,40,0.00,,,0.00,WUHU216HW,2013-03-04 05:55:00,
2013-03-04 00:56:00,60.2,35.8,29.64,SSE,158,0.0,0.0,40,0.00,,,0.00,WUHU216HW,2013-03-04 05:56:00,
2013-03-04 00:57:00,30.7,19.2,29.69,West,270,0.0,0.0,62,0.00,,,0.00,WUHU216HW,2013-03-04 05:57:00,
2013-03-04 00:58:00,60.0,35.6,29.64,West,270,0.0,0.0,40,0.00,,,0.00,WUHU216HW,2013-03-04 05:58:00,
2013-03-04 00:59:00,60.0,35.6,29.64,West,270,0.0,0.0,40,0.00,,,0.00,WUHU216HW,2013-03-04 05:59:00,
2013-03-04 01:00:00,60.0,35.6,29.64,West,270,0.0,0.0,40,0.00,,,0.00,WUHU216HW,2013-03-04 06:00:00,
2013-03-04 01:01:00,60.0,35.6,29.64,WNW,293,0.0,0.0,40,0.00,,,0.00,WUHU216HW,2013-03-04 06:01:00,
2013-03-04 01:02:00,30.5,18.6,29.69,West,270,0.0,0.0,61,0.00,,,0.00,WUHU216HW,2013-03-04 06:02:00,
2013-03-04 01:03:00,60.0,35.6,29.63,ESE,113,0.0,0.0,41,0.00,,,0.00,WUHU216HW,2013-03-04 06:03:00,
2013-03-04 01:04:00,60.0,35.6,29.64,ESE,113,0.0,0.0,41,0.00,,,0.00,WUHU216HW,2013-03-04 06:04:00,
2013-03-04 01:06:00,59.9,36.0,29.64,SE,135,0.0,0.0,41,0.00,,,0.00,WUHU216HW,2013-03-04 06:06:00,
2013-03-04 01:07:00,30.5,18.6,29.69,West,270,0.0,0.0,61,0.00,,,0.00,WUHU216HW,2013-03-04 06:07:00,
2013-03-04 01:08:00,59.9,36.0,29.64,SE,135,0.0,0.0,41,0.00,,,0.00,WUHU216HW,2013-03-04 06:08:00,
2013-03-04 01:09:00,59.9,36.0,29.64,West,270,0.0,0.0,41,0.00,,,0.00,WUHU216HW,2013-03-04 06:09:00,
2013-03-04 01:10:00,59.9,36.0,29.64,West,270,0.0,0.0,41,0.00,,,0.00,WUHU216HW,2013-03-04 06:10:00,
2013-03-04 01:11:00,59.9,36.0,29.64,West,270,0.0,0.0,42,0.00,,,0.00,WUHU216HW,2013-03-04 06:11:00,
2013-03-04 01:12:00,30.5,18.6,29.69,West,270,0.0,0.0,62,0.00,,,0.00,WUHU216HW,2013-03-04 06:12:00,
2013-03-04 01:13:00,59.9,36.0,29.64,WNW,293,0.0,0.0,42,0.00,,,0.00,WUHU216HW,2013-03-04 06:13:00,
2013-03-04 01:16:00,59.7,35.9,29.64,West,270,0.0,0.0,41,0.00,,,0.00,WUHU216HW,2013-03-04 06:16:00,
2013-03-04 01:17:00,30.3,18.8,29.69,West,270,0.0,0.0,62,0.00,,,0.00,WUHU216HW,2013-03-04 06:17:00,
2013-03-04 01:19:00,59.7,35.9,29.64,WSW,248,0.0,0.0,41,0.00,,,0.00,WUHU216HW,2013-03-04 06:19:00,
2013-03-04 01:20:00,59.9,36.6,29.64,WSW,248,0.0,0.0,42,0.00,,,0.00,WUHU216HW,2013-03-04 06:20:00,
2013-03-04 01:21:00,59.9,36.6,29.64,WSW,248,0.0,0.0,42,0.00,,,0.00,WUHU216HW,2013-03-04 06:21:00,
2013-03-04 01:22:00,30.3,18.8,29.69,West,270,0.0,0.0,62,0.00,,,0.00,WUHU216HW,2013-03-04 06:22:00,
2013-03-04 01:23:00,59.7,35.9,29.64,SSE,158,0.0,0.0,41,0.00,,,0.00,WUHU216HW,2013-03-04 06:23:00,
2013-03-04 01:24:00,59.7,35.9,29.64,SSE,158,0.0,0.0,42,0.00,,,0.00,WUHU216HW,2013-03-04 06:24:00,
2013-03-04 01:25:00,59.7,35.9,29.64,SSE,158,0.0,0.0,42,0.00,,,0.00,WUHU216HW,2013-03-04 06:25:00,
2013-03-04 01:26:00,59.9,36.0,29.64,SW,225,0.0,0.0,41,0.00,,,0.00,WUHU216HW,2013-03-04 06:26:00,
2013-03-04 01:27:00,30.0,18.8,29.69,West,270,0.0,0.0,63,0.00,,,0.00,WUHU216HW,2013-03-04 06:27:00,
2013-03-04 01:28:00,59.9,36.0,29.64,SW,225,0.0,0.0,41,0.00,,,0.00,WUHU216HW,2013-03-04 06:28:00,
2013-03-04 01:29:00,59.9,36.0,29.64,SE,135,0.0,0.0,41,0.00,,,0.00,WUHU216HW,2013-03-04 06:29:00,
2013-03-04 01:30:00,59.9,36.0,29.64,SE,135,0.0,0.0,41,0.00,,,0.00,WUHU216HW,2013-03-04 06:30:00,
2013-03-04 01:31:00,59.9,36.0,29.63,SE,135,0.0,0.0,42,0.00,,,0.00,WUHU216HW,2013-03-04 06:31:00,
2013-03-04 01:32:00,30.0,18.8,29.69,West,270,0.0,0.0,63,0.00,,,0.00,WUHU216HW,2013-03-04 06:32:00,
2013-03-04 01:33:00,59.9,36.0,29.63,SSE,158,0.0,0.0,42,0.00,,,0.00,WUHU216HW,2013-03-04 06:33:00,
2013-03-04 01:34:00,59.9,36.0,29.64,SSE,158,0.0,0.0,42,0.00,,,0.00,WUHU216HW,2013-03-04 06:34:00,
2013-03-04 01:35:00,59.9,36.0,29.63,South,180,0.0,0.0,41,0.00,,,0.00,WUHU216HW,2013-03-04 06:35:00,
2013-03-04 01:36:00,59.9,36.0,29.63,South,180,0.0,0.0,41,0.00,,,0.00,WUHU216HW,2013-03-04 06:36:00,
2013-03-04 01:37:00,30.0,18.8,29.69,West,270,0.0,0.0,63,0.00,,,0.00,WUHU216HW,2013-03-04 06:37:00,
2013-03-04 01:38:00,59.9,36.0,29.63,WSW,248,0.0,0.0,41,0.00,,,0.00,WUHU216HW,2013-03-04 06:38:00,
2013-03-04 01:39:00,59.9,36.0,29.63,WSW,248,4.2,4.2,41,0.00,,,0.00,WUHU216HW,2013-03-04 06:39:00,
2013-03-04 01:40:00,59.9,36.0,29.63,WSW,248,4.2,4.2,41,0.00,,,0.00,WUHU216HW,2013-03-04 06:40:00,
2013-03-04 01:41:00,59.9,36.6,29.63,West,270,0.0,4.2,42,0.00,,,0.00,WUHU216HW,2013-03-04 06:41:00,
2013-03-04 01:42:00,30.0,18.8,29.70,West,270,0.0,0.0,64,0.00,,,0.00,WUHU216HW,2013-03-04 06:42:00,
2013-03-04 01:43:00,60.0,36.8,29.63,SSE,158,2.9,4.2,42,0.00,,,0.00,WUHU216HW,2013-03-04 06:43:00,
2013-03-04 01:44:00,60.0,36.8,29.63,SSE,158,2.9,4.2,42,0.00,,,0.00,WUHU216HW,2013-03-04 06:44:00,
2013-03-04 01:45:00,60.0,36.8,29.63,SSE,158,2.9,4.2,42,0.00,,,0.00,WUHU216HW,2013-03-04 06:45:00,
2013-03-04 01:46:00,60.0,36.8,29.64,ESE,113,0.2,4.2,42,0.00,,,0.00,WUHU216HW,2013-03-04 06:46:00,
2013-03-04 01:47:00,60.0,36.8,29.64,ESE,113,0.2,4.2,42,0.00,,,0.00,WUHU216HW,2013-03-04 06:47:00,
2013-03-04 01:48:00,30.0,18.8,29.70,West,270,0.0,0.0,63,0.00,,,0.00,WUHU216HW,2013-03-04 06:48:00,
2013-03-04 01:49:00,60.0,36.8,29.64,WSW,248,0.0,4.2,42,0.00,,,0.00,WUHU216HW,2013-03-04 06:49:00,
2013-03-04 01:50:00,60.0,36.8,29.64,WSW,248,0.0,4.2,42,0.00,,,0.00,WUHU216HW,2013-03-04 06:50:00,
2013-03-04 01:51:00,60.0,36.8,29.64,WSW,248,0.0,2.9,42,0.00,,,0.00,WUHU216HW,2013-03-04 06:51:00,
2013-03-04 01:52:00,60.0,36.8,29.64,WNW,293,0.0,2.9,43,0.00,,,0.00,WUHU216HW,2013-03-04 06:52:00,
2013-03-04 01:53:00,29.8,18.7,29.69,West,270,0.0,0.0,64,0.00,,,0.00,WUHU216HW,2013-03-04 06:53:00,
2013-03-04 01:54:00,60.0,36.8,29.64,West,270,0.0,2.9,42,0.00,,,0.00,WUHU216HW,2013-03-04 06:54:00,
2013-03-04 01:55:00,60.0,36.8,29.63,West,270,0.0,2.9,42,0.00,,,0.00,WUHU216HW,2013-03-04 06:55:00,
2013-03-04 01:56:00,60.0,36.8,29.63,West,270,0.0,0.2,42,0.00,,,0.00,WUHU216HW,2013-03-04 06:56:00,
2013-03-04 01:57:00,60.2,36.9,29.63,WSW,248,0.0,0.2,42,0.00,,,0.00,WUHU216HW,2013-03-04 06:57:00,
2013-03-04 01:58:00,29.8,18.7,29.70,West,270,0.0,0.0,65,0.00,,,0.00,WUHU216HW,2013-03-04 06:58:00,
2013-03-04 01:59:00,60.0,36.8,29.63,SW,225,0.0,0.0,42,0.00,,,0.00,WUHU216HW,2013-03-04 06:59:00,
2013-03-04 02:00:00,60.0,36.8,29.63,SW,225,0.0,0.0,42,0.00,,,0.00,WUHU216HW,2013-03-04 07:00:00,
2013-03-04 02:01:00,60.2,36.9,29.63,WSW,248,0.0,0.0,42,0.00,,,0.00,WUHU216HW,2013-03-04 07:01:00,
2013-03-04 02:03:00,29.8,18.7,29.70,West,270,0.0,0.0,64,0.00,,,0.00,WUHU216HW,2013-03-04 07:03:00,
2013-03-04 02:04:00,60.0,36.8,29.63,South,180,0.0,0.0,42,0.00,,,0.00,WUHU216HW,2013-03-04 07:04:00,
2013-03-04 02:05:00,60.0,36.8,29.63,SW,225,0.0,0.0,42,0.00,,,0.00,WUHU216HW,2013-03-04 07:05:00,
2013-03-04 02:06:00,60.0,36.8,29.63,SW,225,0.0,0.0,42,0.00,,,0.00,WUHU216HW,2013-03-04 07:06:00,
2013-03-04 02:07:00,60.0,36.8,29.63,WSW,248,0.0,0.0,42,0.00,,,0.00,WUHU216HW,2013-03-04 07:07:00,
2013-03-04 02:08:00,29.4,19.1,29.70,West,270,0.0,0.0,65,0.00,,,0.00,WUHU216HW,2013-03-04 07:08:00,
2013-03-04 02:09:00,60.0,36.8,29.63,WNW,293,0.0,0.0,43,0.00,,,0.00,WUHU216HW,2013-03-04 07:09:00,
2013-03-04 02:10:00,60.0,36.8,29.62,WNW,293,0.0,0.0,43,0.00,,,0.00,WUHU216HW,2013-03-04 07:10:00,
2013-03-04 02:11:00,59.9,37.2,29.63,WSW,248,0.0,0.0,43,0.00,,,0.00,WUHU216HW,2013-03-04 07:11:00,
2013-03-04 02:12:00,59.9,37.2,29.63,WSW,248,0.0,0.0,43,0.00,,,0.00,WUHU216HW,2013-03-04 07:12:00,
2013-03-04 02:13:00,29.4,19.1,29.70,West,270,0.0,0.0,65,0.00,,,0.00,WUHU216HW,2013-03-04 07:13:00,
2013-03-04 02:14:00,59.9,37.2,29.63,West,270,0.0,0.0,43,0.00,,,0.00,WUHU216HW,2013-03-04 07:14:00,
2013-03-04 02:15:00,59.9,37.2,29.63,West,270,0.0,0.0,43,0.00,,,0.00,WUHU216HW,2013-03-04 07:15:00,
2013-03-04 02:16:00,59.7,37.0,29.63,WSW,248,0.0,0.0,43,0.00,,,0.00,WUHU216HW,2013-03-04 07:16:00,
2013-03-04 02:17:00,59.7,37.0,29.63,WSW,248,0.0,0.0,43,0.00,,,0.00,WUHU216HW,2013-03-04 07:17:00,
2013-03-04 02:18:00,29.3,19.3,29.70,West,270,0.0,0.0,66,0.00,,,0.00,WUHU216HW,2013-03-04 07:18:00,
2013-03-04 02:19:00,59.7,37.0,29.62,West,270,0.0,0.0,43,0.00,,,0.00,WUHU216HW,2013-03-04 07:19:00,
2013-03-04 02:20:00,59.5,36.9,29.62,WSW,248,0.0,0.0,43,0.00,,,0.00,WUHU216HW,2013-03-04 07:20:00,
2013-03-04 02:21:00,59.5,36.9,29.63,WSW,248,0.0,0.0,43,0.00,,,0.00,WUHU216HW,2013-03-04 07:21:00,
2013-03-04 02:22:00,59.3,36.7,29.62,SW,225,0.0,0.0,43,0.00,,,0.00,WUHU216HW,2013-03-04 07:22:00,
2013-03-04 02:23:00,29.3,19.3,29.70,West,270,0.0,0.0,66,0.00,,,0.00,WUHU216HW,2013-03-04 07:23:00,
2013-03-04 02:24:00,59.3,36.7,29.63,SSW,203,0.0,0.0,43,0.00,,,0.00,WUHU216HW,2013-03-04 07:24:00,
2013-03-04 02:25:00,59.3,36.7,29.63,SSW,203,0.0,0.0,43,0.00,,,0.00,WUHU216HW,2013-03-04 07:25:00,
2013-03-04 02:26:00,59.1,36.5,29.63,SE,135,0.0,0.0,43,0.00,,,0.00,WUHU216HW,2013-03-04 07:26:00,
2013-03-04 02:27:00,59.1,36.5,29.63,SE,135,0.0,0.0,43,0.00,,,0.00,WUHU216HW,2013-03-04 07:27:00,
2013-03-04 02:28:00,29.1,19.1,29.70,West,270,0.0,0.0,66,0.00,,,0.00,WUHU216HW,2013-03-04 07:28:00,
2013-03-04 02:29:00,59.1,36.5,29.63,SE,135,0.0,0.0,43,0.00,,,0.00,WUHU216HW,2013-03-04 07:29:00,
2013-03-04 02:30:00,59.1,36.5,29.62,SE,135,0.0,0.0,43,0.00,,,0.00,WUHU216HW,2013-03-04 07:30:00,
2013-03-04 02:31:00,59.0,36.4,29.62,WSW,248,0.0,0.0,43,0.00,,,0.00,WUHU216HW,2013-03-04 07:31:00,
2013-03-04 02:32:00,59.0,36.4,29.62,WSW,248,0.0,0.0,43,0.00,,,0.00,WUHU216HW,2013-03-04 07:32:00,
2013-03-04 02:33:00,29.1,19.1,29.70,West,270,0.0,0.0,66,0.00,,,0.00,WUHU216HW,2013-03-04 07:33:00,
2013-03-04 02:34:00,59.0,36.4,29.63,NW,315,0.0,0.0,44,0.00,,,0.00,WUHU216HW,2013-03-04 07:34:00,
2013-03-04 02:35:00,59.0,36.4,29.63,WSW,248,0.0,0.0,44,0.00,,,0.00,WUHU216HW,2013-03-04 07:35:00,
2013-03-04 02:36:00,59.0,36.4,29.63,WSW,248,0.0,0.0,44,0.00,,,0.00,WUHU216HW,2013-03-04 07:36:00,
2013-03-04 02:37:00,59.0,36.4,29.63,SW,225,0.0,0.0,44,0.00,,,0.00,WUHU216HW,2013-03-04 07:37:00,
2013-03-04 02:38:00,29.1,19.1,29.71,West,270,0.0,0.0,66,0.00,,,0.00,WUHU216HW,2013-03-04 07:38:00,
2013-03-04 02:39:00,59.0,36.4,29.63,NE,45,0.0,0.0,44,0.00,,,0.00,WUHU216HW,2013-03-04 07:39:00,
2013-03-04 02:40:00,59.0,36.4,29.63,NE,45,0.0,0.0,44,0.00,,,0.00,WUHU216HW,2013-03-04 07:40:00,
2013-03-04 02:41:00,58.8,36.8,29.63,NE,45,0.0,0.0,44,0.00,,,0.00,WUHU216HW,2013-03-04 07:41:00,
2013-03-04 02:42:00,58.8,36.8,29.63,NE,45,0.0,0.0,44,0.00,,,0.00,WUHU216HW,2013-03-04 07:42:00,
2013-03-04 02:43:00,29.1,19.1,29.71,West,270,0.0,0.0,65,0.00,,,0.00,WUHU216HW,2013-03-04 07:43:00,
2013-03-04 02:44:00,58.6,36.6,29.63,ESE,113,0.0,0.0,44,0.00,,,0.00,WUHU216HW,2013-03-04 07:44:00,
2013-03-04 02:45:00,58.6,36.6,29.63,ESE,113,0.0,0.0,44,0.00,,,0.00,WUHU216HW,2013-03-04 07:45:00,
2013-03-04 02:46:00,58.6,36.6,29.63,WNW,293,0.0,0.0,44,0.00,,,0.00,WUHU216HW,2013-03-04 07:46:00,
2013-03-04 02:47:00,58.6,36.6,29.63,WNW,293,0.0,0.0,44,0.00,,,0.00,WUHU216HW,2013-03-04 07:47:00,
2013-03-04 02:48:00,29.1,19.1,29.70,West,270,0.0,0.0,65,0.00,,,0.00,WUHU216HW,2013-03-04 07:48:00,
2013-03-04 02:49:00,58.6,36.6,29.63,WNW,293,0.0,0.0,44,0.00,,,0.00,WUHU216HW,2013-03-04 07:49:00,
2013-03-04 02:50:00,58.4,36.5,29.63,WNW,293,0.0,0.0,44,0.00,,,0.00,WUHU216HW,2013-03-04 07:50:00,
2013-03-04 02:51:00,58.4,36.5,29.63,WNW,293,0.0,0.0,44,0.00,,,0.00,WUHU216HW,2013-03-04 07:51:00,
2013-03-04 02:52:00,58.2,36.3,29.63,WNW,293,0.0,0.0,44,0.00,,,0.00,WUHU216HW,2013-03-04 07:52:00,
2013-03-04 02:53:00,28.9,18.6,29.71,West,270,0.0,0.0,65,0.00,,,0.00,WUHU216HW,2013-03-04 07:53:00,
2013-03-04 02:54:00,58.2,36.3,29.63,WSW,248,0.0,0.0,44,0.00,,,0.00,WUHU216HW,2013-03-04 07:54:00,
2013-03-04 02:55:00,58.2,36.3,29.63,WSW,248,0.0,0.0,44,0.00,,,0.00,WUHU216HW,2013-03-04 07:55:00,
2013-03-04 02:56:00,58.2,36.3,29.63,WSW,248,0.0,0.0,44,0.00,,,0.00,WUHU216HW,2013-03-04 07:56:00,
2013-03-04 02:57:00,58.2,36.3,29.63,WSW,248,0.0,0.0,44,0.00,,,0.00,WUHU216HW,2013-03-04 07:57:00,
2013-03-04 02:58:00,58.2,36.3,29.63,WSW,248,0.0,0.0,44,0.00,,,0.00,WUHU216HW,2013-03-04 07:58:00,
2013-03-04 02:59:00,28.9,18.6,29.71,West,270,0.0,0.0,65,0.00,,,0.00,WUHU216HW,2013-03-04 07:59:00,
2013-03-04 03:00:00,58.1,36.7,29.63,WSW,248,0.0,0.0,45,0.00,,,0.00,WUHU216HW,2013-03-04 08:00:00,
2013-03-04 03:01:00,57.9,36.6,29.63,SW,225,0.0,0.0,45,0.00,,,0.00,WUHU216HW,2013-03-04 08:01:00,
2013-03-04 03:02:00,57.9,36.6,29.63,SW,225,0.0,0.0,45,0.00,,,0.00,WUHU216HW,2013-03-04 08:02:00,
2013-03-04 03:03:00,57.9,36.6,29.63,South,180,0.0,0.0,45,0.00,,,0.00,WUHU216HW,2013-03-04 08:03:00,
2013-03-04 03:04:00,28.9,18.6,29.70,West,270,0.0,0.0,65,0.00,,,0.00,WUHU216HW,2013-03-04 08:04:00,
2013-03-04 03:05:00,57.7,36.4,29.63,South,180,0.0,0.0,45,0.00,,,0.00,WUHU216HW,2013-03-04 08:05:00,
2013-03-04 03:06:00,57.7,36.4,29.63,South,180,0.0,0.0,45,0.00,,,0.00,WUHU216HW,2013-03-04 08:06:00,
2013-03-04 03:07:00,57.7,36.4,29.63,South,180,0.0,0.0,45,0.00,,,0.00,WUHU216HW,2013-03-04 08:07:00,
2013-03-04 03:08:00,57.7,36.4,29.63,South,180,0.0,0.0,45,0.00,,,0.00,WUHU216HW,2013-03-04 08:08:00,
2013-03-04 03:09:00,28.9,18.6,29.71,West,270,0.0,0.0,65,0.00,,,0.00,WUHU216HW,2013-03-04 08:09:00,
2013-03-04 03:10:00,57.7,36.4,29.62,South,180,0.0,0.0,45,0.00,,,0.00,WUHU216HW,2013-03-04 08:10:00,
2013-03-04 03:11:00,57.7,36.4,29.63,South,180,0.0,0.0,45,0.00,,,0.00,WUHU216HW,2013-03-04 08:11:00,
2013-03-04 03:12:00,57.5,36.2,29.63,South,180,0.0,0.0,45,0.00,,,0.00,WUHU216HW,2013-03-04 08:12:00,
2013-03-04 03:13:00,57.5,36.2,29.63,South,180,0.0,0.0,45,0.00,,,0.00,WUHU216HW,2013-03-04 08:13:00,
2013-03-04 03:14:00,28.7,18.4,29.72,West,270,0.0,0.0,65,0.00,,,0.00,WUHU216HW,2013-03-04 08:14:00,
2013-03-04 03:15:00,57.3,36.1,29.63,SE,135,2.0,2.0,45,0.00,,,0.00,WUHU216HW,2013-03-04 08:15:00,
2013-03-04 03:16:00,57.3,36.1,29.63,SSE,158,0.0,2.0,45,0.00,,,0.00,WUHU216HW,2013-03-04 08:16:00,
2013-03-04 03:17:00,57.3,36.1,29.63,SSE,158,0.0,2.0,45,0.00,,,0.00,WUHU216HW,2013-03-04 08:17:00,
2013-03-04 03:18:00,57.3,36.1,29.63,SE,135,0.0,2.0,45,0.00,,,0.00,WUHU216HW,2013-03-04 08:18:00,
2013-03-04 03:19:00,28.7,18.4,29.72,West,270,0.0,0.0,65,0.00,,,0.00,WUHU216HW,2013-03-04 08:19:00,
2013-03-04 03:21:00,57.2,36.5,29.63,SE,135,0.0,2.0,46,0.00,,,0.00,WUHU216HW,2013-03-04 08:21:00,
2013-03-04 03:22:00,57.0,36.3,29.63,SE,135,0.0,2.0,46,0.00,,,0.00,WUHU216HW,2013-03-04 08:22:00,
2013-03-04 03:23:00,57.0,36.3,29.63,SE,135,0.0,2.0,46,0.00,,,0.00,WUHU216HW,2013-03-04 08:23:00,
2013-03-04 03:24:00,28.7,18.4,29.72,West,270,0.0,0.0,64,0.00,,,0.00,WUHU216HW,2013-03-04 08:24:00,
2013-03-04 03:25:00,57.0,36.3,29.63,SE,135,0.0,2.0,46,0.00,,,0.00,WUHU216HW,2013-03-04 08:25:00,
2013-03-04 03:26:00,56.8,36.1,29.63,SE,135,0.0,0.0,46,0.00,,,0.00,WUHU216HW,2013-03-04 08:26:00,
2013-03-04 03:27:00,56.8,36.1,29.63,SE,135,0.0,0.0,46,0.00,,,0.00,WUHU216HW,2013-03-04 08:27:00,
2013-03-04 03:28:00,56.8,36.1,29.63,SE,135,0.0,0.0,46,0.00,,,0.00,WUHU216HW,2013-03-04 08:28:00,
2013-03-04 03:29:00,28.7,18.4,29.72,West,270,0.0,0.0,64,0.00,,,0.00,WUHU216HW,2013-03-04 08:29:00,
2013-03-04 03:30:00,56.8,36.1,29.63,SE,135,0.0,0.0,46,0.00,,,0.00,WUHU216HW,2013-03-04 08:30:00,
2013-03-04 03:31:00,56.8,36.1,29.63,SSE,158,0.0,0.0,46,0.00,,,0.00,WUHU216HW,2013-03-04 08:31:00,
2013-03-04 03:32:00,56.8,36.1,29.63,SSE,158,0.0,0.0,46,0.00,,,0.00,WUHU216HW,2013-03-04 08:32:00,
2013-03-04 03:33:00,56.8,36.1,29.63,SSE,158,0.0,0.0,46,0.00,,,0.00,WUHU216HW,2013-03-04 08:33:00,
2013-03-04 03:34:00,28.7,18.4,29.72,West,270,0.0,0.0,65,0.00,,,0.00,WUHU216HW,2013-03-04 08:34:00,
2013-03-04 03:35:00,56.6,36.0,29.63,SSE,158,0.0,0.0,46,0.00,,,0.00,WUHU216HW,2013-03-04 08:35:00,
2013-03-04 03:36:00,56.6,36.0,29.63,SSE,158,0.0,0.0,46,0.00,,,0.00,WUHU216HW,2013-03-04 08:36:00,
2013-03-04 03:37:00,56.4,35.8,29.63,SSE,158,0.0,0.0,46,0.00,,,0.00,WUHU216HW,2013-03-04 08:37:00,
2013-03-04 03:38:00,56.4,35.8,29.63,SSE,158,0.0,0.0,46,0.00,,,0.00,WUHU216HW,2013-03-04 08:38:00,
2013-03-04 03:39:00,28.5,17.9,29.72,West,270,0.0,0.0,64,0.00,,,0.00,WUHU216HW,2013-03-04 08:39:00,
2013-03-04 03:40:00,56.4,35.8,29.63,SSE,158,0.0,0.0,46,0.00,,,0.00,WUHU216HW,2013-03-04 08:40:00,
2013-03-04 03:41:00,56.4,35.8,29.63,SSE,158,0.0,0.0,46,0.00,,,0.00,WUHU216HW,2013-03-04 08:41:00,
2013-03-04 03:42:00,56.4,35.8,29.63,WSW,248,0.0,0.0,46,0.00,,,0.00,WUHU216HW,2013-03-04 08:42:00,
2013-03-04 03:43:00,56.4,35.8,29.63,WSW,248,0.0,0.0,46,0.00,,,0.00,WUHU216HW,2013-03-04 08:43:00,
2013-03-04 03:44:00,28.5,17.9,29.72,West,270,0.0,0.0,64,0.00,,,0.00,WUHU216HW,2013-03-04 08:44:00,
2013-03-04 03:45:00,56.4,35.8,29.63,WSW,248,0.0,0.0,46,0.00,,,0.00,WUHU216HW,2013-03-04 08:45:00,
2013-03-04 03:46:00,56.3,35.6,29.63,SW,225,0.0,0.0,46,0.00,,,0.00,WUHU216HW,2013-03-04 08:46:00,
2013-03-04 03:47:00,56.3,35.6,29.63,SW,225,0.0,0.0,46,0.00,,,0.00,WUHU216HW,2013-03-04 08:47:00,
2013-03-04 03:48:00,56.1,36.0,29.63,SW,225,0.0,0.0,47,0.00,,,0.00,WUHU216HW,2013-03-04 08:48:00,
2013-03-04 03:49:00,28.5,17.9,29.72,West,270,0.0,0.0,63,0.00,,,0.00,WUHU216HW,2013-03-04 08:49:00,
2013-03-04 03:50:00,56.1,36.0,29.63,SW,225,0.0,0.0,47,0.00,,,0.00,WUHU216HW,2013-03-04 08:50:00,
2013-03-04 03:51:00,56.1,36.0,29.63,SW,225,0.0,0.0,47,0.00,,,0.00,WUHU216HW,2013-03-04 08:51:00,
2013-03-04 03:52:00,56.1,36.0,29.63,SW,225,0.0,0.0,47,0.00,,,0.00,WUHU216HW,2013-03-04 08:52:00,
2013-03-04 03:53:00,56.1,36.0,29.63,SW,225,0.0,0.0,47,0.00,,,0.00,WUHU216HW,2013-03-04 08:53:00,
2013-03-04 03:54:00,56.1,36.0,29.63,SW,225,0.0,0.0,47,0.00,,,0.00,WUHU216HW,2013-03-04 08:54:00,
2013-03-04 03:55:00,28.5,17.9,29.72,West,270,0.0,0.0,63,0.00,,,0.00,WUHU216HW,2013-03-04 08:55:00,
2013-03-04 03:56:00,56.1,36.0,29.63,SW,225,0.0,0.0,47,0.00,,,0.00,WUHU216HW,2013-03-04 08:56:00,
2013-03-04 03:57:00,56.1,36.0,29.63,SW,225,0.0,0.0,47,0.00,,,0.00,WUHU216HW,2013-03-04 08:57:00,
2013-03-04 03:58:00,56.1,36.0,29.62,SW,225,0.0,0.0,47,0.00,,,0.00,WUHU216HW,2013-03-04 08:58:00,
2013-03-04 03:59:00,56.1,36.0,29.63,SSW,203,0.0,0.0,47,0.00,,,0.00,WUHU216HW,2013-03-04 08:59:00,
2013-03-04 04:00:00,28.5,17.9,29.72,West,270,0.0,0.0,63,0.00,,,0.00,WUHU216HW,2013-03-04 09:00:00,
2013-03-04 04:01:00,56.1,36.0,29.63,SSW,203,0.0,0.0,47,0.00,,,0.00,WUHU216HW,2013-03-04 09:01:00,
2013-03-04 04:02:00,56.1,36.0,29.63,SSW,203,0.0,0.0,47,0.00,,,0.00,WUHU216HW,2013-03-04 09:02:00,
2013-03-04 04:03:00,56.1,36.0,29.63,SSW,203,0.0,0.0,47,0.00,,,0.00,WUHU216HW,2013-03-04 09:03:00,
2013-03-04 04:04:00,56.1,36.0,29.63,SSW,203,0.0,0.0,47,0.00,,,0.00,WUHU216HW,2013-03-04 09:04:00,
2013-03-04 04:05:00,28.5,17.9,29.72,West,270,0.0,0.0,63,0.00,,,0.00,WUHU216HW,2013-03-04 09:05:00,
2013-03-04 04:06:00,56.1,36.0,29.63,SSW,203,0.0,0.0,47,0.00,,,0.00,WUHU216HW,2013-03-04 09:06:00,
2013-03-04 04:07:00,56.1,36.0,29.63,West,270,0.0,0.0,47,0.00,,,0.00,WUHU216HW,2013-03-04 09:07:00,
2013-03-04 04:08:00,56.1,36.0,29.63,West,270,0.0,0.0,47,0.00,,,0.00,WUHU216HW,2013-03-04 09:08:00,
2013-03-04 04:09:00,56.1,36.0,29.63,South,180,0.0,0.0,47,0.00,,,0.00,WUHU216HW,2013-03-04 09:09:00,
2013-03-04 04:10:00,28.4,17.4,29.72,West,270,0.0,0.0,63,0.00,,,0.00,WUHU216HW,2013-03-04 09:10:00,
2013-03-04 04:11:00,56.1,36.0,29.63,South,180,0.0,0.0,47,0.00,,,0.00,WUHU216HW,2013-03-04 09:11:00,
2013-03-04 04:12:00,56.1,36.0,29.63,South,180,0.0,0.0,47,0.00,,,0.00,WUHU216HW,2013-03-04 09:12:00,
2013-03-04 04:13:00,56.1,36.0,29.63,SSE,158,0.0,0.0,47,0.00,,,0.00,WUHU216HW,2013-03-04 09:13:00,
2013-03-04 04:14:00,56.1,36.0,29.63,SSE,158,0.0,0.0,47,0.00,,,0.00,WUHU216HW,2013-03-04 09:14:00,
2013-03-04 04:15:00,28.4,17.4,29.72,West,270,0.0,0.0,64,0.00,,,0.00,WUHU216HW,2013-03-04 09:15:00,
2013-03-04 04:16:00,56.1,36.0,29.63,SSE,158,0.0,0.0,47,0.00,,,0.00,WUHU216HW,2013-03-04 09:16:00,
2013-03-04 04:17:00,56.1,36.0,29.63,SSE,158,0.0,0.0,47,0.00,,,0.00,WUHU216HW,2013-03-04 09:17:00,
2013-03-04 04:18:00,55.9,35.8,29.63,SSE,158,0.0,0.0,47,0.00,,,0.00,WUHU216HW,2013-03-04 09:18:00,
2013-03-04 04:19:00,55.9,35.8,29.63,SSE,158,0.0,0.0,47,0.00,,,0.00,WUHU216HW,2013-03-04 09:19:00,
2013-03-04 04:20:00,28.4,17.4,29.72,West,270,0.0,0.0,64,0.00,,,0.00,WUHU216HW,2013-03-04 09:20:00,
2013-03-04 04:21:00,55.9,35.8,29.63,SE,135,0.0,0.0,47,0.00,,,0.00,WUHU216HW,2013-03-04 09:21:00,
2013-03-04 04:23:00,55.9,35.8,29.63,South,180,0.0,0.0,47,0.00,,,0.00,WUHU216HW,2013-03-04 09:23:00,
2013-03-04 04:24:00,55.9,35.8,29.63,South,180,0.0,0.0,47,0.00,,,0.00,WUHU216HW,2013-03-04 09:24:00,
2013-03-04 04:25:00,28.2,17.6,29.72,West,270,0.0,0.0,63,0.00,,,0.00,WUHU216HW,2013-03-04 09:25:00,
2013-03-04 04:26:00,55.9,35.8,29.63,South,180,0.0,0.0,47,0.00,,,0.00,WUHU216HW,2013-03-04 09:26:00,
2013-03-04 04:27:00,55.7,35.7,29.63,SSE,158,0.0,0.0,47,0.00,,,0.00,WUHU216HW,2013-03-04 09:27:00,
2013-03-04 04:28:00,55.7,35.7,29.63,SSE,158,0.0,0.0,47,0.00,,,0.00,WUHU216HW,2013-03-04 09:28:00,
2013-03-04 04:29:00,55.9,35.8,29.63,SE,135,0.0,0.0,47,0.00,,,0.00,WUHU216HW,2013-03-04 09:29:00,
2013-03-04 04:30:00,28.2,17.6,29.73,West,270,0.0,0.0,64,0.00,,,0.00,WUHU216HW,2013-03-04 09:30:00,
2013-03-04 04:31:00,55.9,35.8,29.63,SE,135,0.0,0.0,47,0.00,,,0.00,WUHU216HW,2013-03-04 09:31:00,
2013-03-04 04:32:00,55.9,35.8,29.63,SE,135,0.0,0.0,47,0.00,,,0.00,WUHU216HW,2013-03-04 09:32:00,
2013-03-04 04:33:00,55.9,35.8,29.63,South,180,0.0,0.0,47,0.00,,,0.00,WUHU216HW,2013-03-04 09:33:00,
2013-03-04 04:34:00,55.9,35.8,29.63,South,180,0.0,0.0,47,0.00,,,0.00,WUHU216HW,2013-03-04 09:34:00,
2013-03-04 04:35:00,28.0,17.7,29.73,West,270,0.0,0.0,65,0.00,,,0.00,WUHU216HW,2013-03-04 09:35:00,
2013-03-04 04:36:00,55.7,36.2,29.63,South,180,0.0,0.0,48,0.00,,,0.00,WUHU216HW,2013-03-04 09:36:00,
2013-03-04 04:37:00,55.7,36.2,29.63,South,180,0.0,0.0,48,0.00,,,0.00,WUHU216HW,2013-03-04 09:37:00,
2013-03-04 04:38:00,55.5,35.5,29.63,South,180,0.0,0.0,47,0.00,,,0.00,WUHU216HW,2013-03-04 09:38:00,
2013-03-04 04:39:00,55.5,35.5,29.63,South,180,0.0,0.0,47,0.00,,,0.00,WUHU216HW,2013-03-04 09:39:00,
2013-03-04 04:40:00,28.0,17.7,29.73,West,270,0.0,0.0,65,0.00,,,0.00,WUHU216HW,2013-03-04 09:40:00,
2013-03-04 04:41:00,55.5,35.5,29.63,South,180,0.0,0.0,48,0.00,,,0.00,WUHU216HW,2013-03-04 09:41:00,
2013-03-04 04:42:00,55.5,35.5,29.63,SSE,158,2.4,2.4,48,0.00,,,0.00,WUHU216HW,2013-03-04 09:42:00,
2013-03-04 04:43:00,55.5,35.5,29.63,SSE,158,2.4,2.4,48,0.00,,,0.00,WUHU216HW,2013-03-04 09:43:00,
2013-03-04 04:44:00,55.4,35.9,29.63,SSE,158,0.0,2.4,48,0.00,,,0.00,WUHU216HW,2013-03-04 09:44:00,
2013-03-04 04:45:00,28.0,17.7,29.73,West,270,0.0,0.0,65,0.00,,,0.00,WUHU216HW,2013-03-04 09:45:00,
2013-03-04 04:46:00,55.2,35.7,29.63,SSE,158,0.0,2.4,48,0.00,,,0.00,WUHU216HW,2013-03-04 09:46:00,
2013-03-04 04:47:00,55.2,35.7,29.63,SSE,158,0.0,2.4,48,0.00,,,0.00,WUHU216HW,2013-03-04 09:47:00,
2013-03-04 04:48:00,55.2,35.7,29.63,SSE,158,0.0,2.4,48,0.00,,,0.00,WUHU216HW,2013-03-04 09:48:00,
2013-03-04 04:49:00,55.2,35.7,29.63,SSE,158,0.0,2.4,48,0.00,,,0.00,WUHU216HW,2013-03-04 09:49:00,
2013-03-04 04:50:00,27.8,17.2,29.74,West,270,0.0,0.0,64,0.00,,,0.00,WUHU216HW,2013-03-04 09:50:00,
2013-03-04 04:51:00,55.2,35.7,29.63,South,180,0.0,2.4,48,0.00,,,0.00,WUHU216HW,2013-03-04 09:51:00,
2013-03-04 04:52:00,55.2,35.7,29.63,South,180,0.0,2.4,48,0.00,,,0.00,WUHU216HW,2013-03-04 09:52:00,
2013-03-04 04:53:00,55.0,35.6,29.63,SE,135,0.0,2.4,48,0.00,,,0.00,WUHU216HW,2013-03-04 09:53:00,
2013-03-04 04:54:00,55.0,35.6,29.63,SE,135,0.0,0.0,48,0.00,,,0.00,WUHU216HW,2013-03-04 09:54:00,
2013-03-04 04:55:00,27.8,17.2,29.74,West,270,0.0,0.0,65,0.00,,,0.00,WUHU216HW,2013-03-04 09:55:00,
2013-03-04 04:56:00,55.0,35.6,29.63,SSE,158,0.0,0.0,48,0.00,,,0.00,WUHU216HW,2013-03-04 09:56:00,
2013-03-04 04:57:00,55.0,35.6,29.63,SSE,158,0.6,0.6,48,0.00,,,0.00,WUHU216HW,2013-03-04 09:57:00,
2013-03-04 04:58:00,55.0,35.6,29.63,SSE,158,0.6,0.6,48,0.00,,,0.00,WUHU216HW,2013-03-04 09:58:00,
2013-03-04 04:59:00,55.0,35.6,29.63,SSE,158,0.0,0.6,48,0.00,,,0.00,WUHU216HW,2013-03-04 09:59:00,
2013-03-04 05:00:00,55.0,35.6,29.63,SSE,158,0.0,0.6,48,0.00,,,0.00,WUHU216HW,2013-03-04 10:00:00,
2013-03-04 05:01:00,27.6,17.4,29.74,West,270,0.0,0.0,65,0.00,,,0.00,WUHU216HW,2013-03-04 10:01:00,
2013-03-04 05:02:00,55.0,35.6,29.63,SSE,158,0.0,0.6,48,0.00,,,0.00,WUHU216HW,2013-03-04 10:02:00,
2013-03-04 05:03:00,55.0,35.6,29.63,SE,135,0.0,0.6,48,0.00,,,0.00,WUHU216HW,2013-03-04 10:03:00,
2013-03-04 05:04:00,55.0,35.6,29.63,SE,135,0.0,0.6,48,0.00,,,0.00,WUHU216HW,2013-03-04 10:04:00,
2013-03-04 05:05:00,55.0,35.6,29.63,SSE,158,0.0,0.6,48,0.00,,,0.00,WUHU216HW,2013-03-04 10:05:00,
2013-03-04 05:06:00,27.6,17.4,29.74,West,270,0.0,0.0,65,0.00,,,0.00,WUHU216HW,2013-03-04 10:06:00,
2013-03-04 05:07:00,55.0,35.6,29.63,SSE,158,0.0,0.6,48,0.00,,,0.00,WUHU216HW,2013-03-04 10:07:00,
2013-03-04 05:08:00,55.0,35.6,29.63,SSW,203,0.0,0.6,48,0.00,,,0.00,WUHU216HW,2013-03-04 10:08:00,
2013-03-04 05:09:00,55.0,35.6,29.63,SSW,203,0.0,0.0,48,0.00,,,0.00,WUHU216HW,2013-03-04 10:09:00,
2013-03-04 05:10:00,55.0,35.6,29.62,SSW,203,0.0,0.0,49,0.00,,,0.00,WUHU216HW,2013-03-04 10:10:00,
2013-03-04 05:11:00,27.5,17.2,29.74,West,270,0.0,0.0,65,0.00,,,0.00,WUHU216HW,2013-03-04 10:11:00,
2013-03-04 05:12:00,54.8,35.9,29.63,SSW,203,0.0,0.0,49,0.00,,,0.00,WUHU216HW,2013-03-04 10:12:00,
2013-03-04 05:13:00,54.8,35.9,29.63,SSW,203,0.0,0.0,49,0.00,,,0.00,WUHU216HW,2013-03-04 10:13:00,
2013-03-04 05:14:00,54.8,35.9,29.63,SSE,158,4.4,4.4,49,0.00,,,0.00,WUHU216HW,2013-03-04 10:14:00,
2013-03-04 05:15:00,54.8,35.9,29.62,SSE,158,4.4,4.4,49,0.00,,,0.00,WUHU216HW,2013-03-04 10:15:00,
2013-03-04 05:16:00,27.5,17.2,29.75,West,270,0.0,0.0,64,0.00,,,0.00,WUHU216HW,2013-03-04 10:16:00,
2013-03-04 05:18:00,55.0,36.1,29.62,South,180,0.0,4.4,49,0.00,,,0.00,WUHU216HW,2013-03-04 10:18:00,
2013-03-04 05:19:00,55.0,36.1,29.62,South,180,0.0,4.4,49,0.00,,,0.00,WUHU216HW,2013-03-04 10:19:00,
2013-03-04 05:20:00,55.0,36.1,29.62,South,180,0.0,4.4,49,0.00,,,0.00,WUHU216HW,2013-03-04 10:20:00,
2013-03-04 05:21:00,27.3,17.0,29.74,West,270,0.0,0.0,65,0.00,,,0.00,WUHU216HW,2013-03-04 10:21:00,
2013-03-04 05:22:00,55.0,36.1,29.62,SSE,158,0.0,4.4,49,0.00,,,0.00,WUHU216HW,2013-03-04 10:22:00,
2013-03-04 05:23:00,54.8,35.9,29.62,South,180,0.0,4.4,49,0.00,,,0.00,WUHU216HW,2013-03-04 10:23:00,
2013-03-04 05:24:00,54.8,35.9,29.62,South,180,0.0,4.4,49,0.00,,,0.00,WUHU216HW,2013-03-04 10:24:00,
2013-03-04 05:25:00,54.6,35.8,29.62,SSE,158,0.0,4.4,49,0.00,,,0.00,WUHU216HW,2013-03-04 10:25:00,
2013-03-04 05:26:00,27.3,17.0,29.75,West,270,0.0,0.0,65,0.00,,,0.00,WUHU216HW,2013-03-04 10:26:00,
2013-03-04 05:27:00,54.6,35.8,29.63,SE,135,0.0,0.0,49,0.00,,,0.00,WUHU216HW,2013-03-04 10:27:00,
2013-03-04 05:28:00,54.6,35.8,29.63,SE,135,0.0,0.0,49,0.00,,,0.00,WUHU216HW,2013-03-04 10:28:00,
2013-03-04 05:29:00,55.0,36.1,29.63,SSW,203,0.0,0.0,49,0.00,,,0.00,WUHU216HW,2013-03-04 10:29:00,
2013-03-04 05:30:00,55.0,36.1,29.63,SSW,203,0.0,0.0,49,0.00,,,0.00,WUHU216HW,2013-03-04 10:30:00,
2013-03-04 05:31:00,27.1,17.2,29.75,West,270,0.0,0.0,66,0.00,,,0.00,WUHU216HW,2013-03-04 10:31:00,
2013-03-04 05:32:00,55.0,36.1,29.62,SSE,158,0.0,0.0,49,0.00,,,0.00,WUHU216HW,2013-03-04 10:32:00,
2013-03-04 05:33:00,55.0,36.1,29.63,SSE,158,0.0,0.0,49,0.00,,,0.00,WUHU216HW,2013-03-04 10:33:00,
2013-03-04 05:34:00,55.0,36.1,29.63,SSE,158,0.0,0.0,49,0.00,,,0.00,WUHU216HW,2013-03-04 10:34:00,
2013-03-04 05:35:00,55.0,36.1,29.62,SSE,158,0.0,0.0,49,0.00,,,0.00,WUHU216HW,2013-03-04 10:35:00,
2013-03-04 05:36:00,27.1,17.2,29.75,West,270,0.0,0.0,67,0.00,,,0.00,WUHU216HW,2013-03-04 10:36:00,
2013-03-04 05:37:00,54.6,35.8,29.63,South,180,0.0,0.0,49,0.00,,,0.00,WUHU216HW,2013-03-04 10:37:00,
2013-03-04 05:38:00,54.6,35.8,29.63,SW,225,0.0,0.0,49,0.00,,,0.00,WUHU216HW,2013-03-04 10:38:00,
2013-03-04 05:39:00,54.6,35.8,29.62,SW,225,0.0,0.0,49,0.00,,,0.00,WUHU216HW,2013-03-04 10:39:00,
2013-03-04 05:40:00,54.8,35.9,29.62,SSE,158,0.0,0.0,49,0.00,,,0.00,WUHU216HW,2013-03-04 10:40:00,
2013-03-04 05:41:00,27.1,17.2,29.75,West,270,0.0,0.0,67,0.00,,,0.00,WUHU216HW,2013-03-04 10:41:00,
2013-03-04 05:42:00,54.6,35.8,29.62,West,270,0.0,0.0,49,0.00,,,0.00,WUHU216HW,2013-03-04 10:42:00,
2013-03-04 05:43:00,54.6,35.8,29.63,West,270,0.0,0.0,49,0.00,,,0.00,WUHU216HW,2013-03-04 10:43:00,
2013-03-04 05:44:00,54.8,35.9,29.63,SSE,158,0.0,0.0,49,0.00,,,0.00,WUHU216HW,2013-03-04 10:44:00,
2013-03-04 05:45:00,54.8,35.9,29.63,SSE,158,0.0,0.0,49,0.00,,,0.00,WUHU216HW,2013-03-04 10:45:00,
2013-03-04 05:46:00,26.9,17.7,29.75,West,270,0.0,0.0,68,0.00,,,0.00,WUHU216HW,2013-03-04 10:46:00,
2013-03-04 05:47:00,55.0,36.1,29.63,SSE,158,0.0,0.0,49,0.00,,,0.00,WUHU216HW,2013-03-04 10:47:00,
2013-03-04 05:48:00,55.0,36.1,29.62,SSE,158,0.0,0.0,49,0.00,,,0.00,WUHU216HW,2013-03-04 10:48:00,
2013-03-04 05:49:00,55.0,36.1,29.62,WSW,248,0.0,0.0,49,0.00,,,0.00,WUHU216HW,2013-03-04 10:49:00,
2013-03-04 05:50:00,55.0,36.1,29.63,WSW,248,0.0,0.0,49,0.00,,,0.00,WUHU216HW,2013-03-04 10:50:00,
2013-03-04 05:51:00,26.9,17.7,29.75,West,270,0.0,0.0,68,0.00,,,0.00,WUHU216HW,2013-03-04 10:51:00,
2013-03-04 05:52:00,55.0,36.1,29.62,SW,225,0.0,0.0,49,0.00,,,0.00,WUHU216HW,2013-03-04 10:52:00,
2013-03-04 05:53:00,55.0,36.1,29.62,SSW,203,0.0,0.0,49,0.00,,,0.00,WUHU216HW,2013-03-04 10:53:00,
2013-03-04 05:54:00,55.0,36.1,29.62,SSW,203,0.0,0.0,49,0.00,,,0.00,WUHU216HW,2013-03-04 10:54:00,
2013-03-04 05:55:00,54.6,35.8,29.62,SSW,203,0.0,0.0,49,0.00,,,0.00,WUHU216HW,2013-03-04 10:55:00,
2013-03-04 05:56:00,26.9,17.7,29.76,West,270,0.0,0.0,69,0.00,,,0.00,WUHU216HW,2013-03-04 10:56:00,
2013-03-04 05:57:00,54.6,35.8,29.62,SSE,158,0.0,0.0,49,0.00,,,0.00,WUHU216HW,2013-03-04 10:57:00,
2013-03-04 05:58:00,54.6,35.8,29.62,SSE,158,0.0,0.0,49,0.00,,,0.00,WUHU216HW,2013-03-04 10:58:00,
2013-03-04 05:59:00,54.6,35.8,29.62,SSE,158,0.0,0.0,49,0.00,,,0.00,WUHU216HW,2013-03-04 10:59:00,
2013-03-04 06:00:00,54.6,35.8,29.62,SSE,158,0.0,0.0,49,0.00,,,0.00,WUHU216HW,2013-03-04 11:00:00,
2013-03-04 06:01:00,26.7,17.6,29.76,West,270,0.0,0.0,68,0.00,,,0.00,WUHU216HW,2013-03-04 11:01:00,
2013-03-04 06:02:00,54.6,35.8,29.62,SSE,158,0.0,0.0,49,0.00,,,0.00,WUHU216HW,2013-03-04 11:02:00,
2013-03-04 06:03:00,54.6,35.8,29.62,SSE,158,0.0,0.0,49,0.00,,,0.00,WUHU216HW,2013-03-04 11:03:00,
2013-03-04 06:04:00,54.6,35.8,29.62,SW,225,0.0,0.0,50,0.00,,,0.00,WUHU216HW,2013-03-04 11:04:00,
2013-03-04 06:05:00,54.6,35.8,29.62,SW,225,0.0,0.0,50,0.00,,,0.00,WUHU216HW,2013-03-04 11:05:00,
2013-03-04 06:06:00,26.7,17.6,29.76,West,270,0.0,0.0,69,0.00,,,0.00,WUHU216HW,2013-03-04 11:06:00,
2013-03-04 06:07:00,54.5,36.2,29.62,SSE,158,0.0,0.0,50,0.00,,,0.00,WUHU216HW,2013-03-04 11:07:00,
2013-03-04 06:09:00,54.5,36.2,29.62,SSE,158,0.0,0.0,50,0.00,,,0.00,WUHU216HW,2013-03-04 11:09:00,
2013-03-04 06:10:00,54.5,36.2,29.62,SE,135,0.0,0.0,50,0.00,,,0.00,WUHU216HW,2013-03-04 11:10:00,
2013-03-04 06:11:00,54.5,36.2,29.62,SE,135,0.0,0.0,50,0.00,,,0.00,WUHU216HW,2013-03-04 11:11:00,
2013-03-04 06:12:00,26.7,17.6,29.77,West,270,0.0,0.0,69,0.00,,,0.00,WUHU216HW,2013-03-04 11:12:00,
2013-03-04 06:13:00,54.5,36.2,29.62,SSE,158,0.0,0.0,50,0.00,,,0.00,WUHU216HW,2013-03-04 11:13:00,
2013-03-04 06:14:00,54.3,36.0,29.62,South,180,0.0,0.0,50,0.00,,,0.00,WUHU216HW,2013-03-04 11:14:00,
2013-03-04 06:15:00,54.3,36.0,29.62,South,180,0.0,0.0,50,0.00,,,0.00,WUHU216HW,2013-03-04 11:15:00,
2013-03-04 06:16:00,54.3,36.0,29.62,South,180,0.0,0.0,50,0.00,,,0.00,WUHU216HW,2013-03-04 11:16:00,
2013-03-04 06:17:00,26.7,17.6,29.77,West,270,0.0,0.0,69,0.00,,,0.00,WUHU216HW,2013-03-04 11:17:00,
2013-03-04 06:18:00,54.3,36.0,29.62,SW,225,0.0,0.0,50,0.00,,,0.00,WUHU216HW,2013-03-04 11:18:00,
2013-03-04 06:19:00,54.3,36.0,29.62,SW,225,0.0,0.0,50,0.00,,,0.00,WUHU216HW,2013-03-04 11:19:00,
2013-03-04 06:20:00,54.3,36.0,29.62,SW,225,0.0,0.0,50,0.00,,,0.00,WUHU216HW,2013-03-04 11:20:00,
2013-03-04 06:22:00,26.7,17.6,29.78,West,270,0.0,0.0,68,0.00,,,0.00,WUHU216HW,2013-03-04 11:22:00,
2013-03-04 06:26:00,54.1,35.9,29.62,WSW,248,0.0,0.0,50,0.00,,,0.00,WUHU216HW,2013-03-04 11:26:00,
2013-03-04 06:27:00,26.4,17.2,29.78,West,270,0.0,0.0,68,0.00,,,0.00,WUHU216HW,2013-03-04 11:27:00,
2013-03-04 06:28:00,54.1,35.9,29.62,SSE,158,0.0,0.0,50,0.00,,,0.00,WUHU216HW,2013-03-04 11:28:00,
2013-03-04 06:29:00,54.1,35.9,29.62,SSE,158,0.0,0.0,50,0.00,,,0.00,WUHU216HW,2013-03-04 11:29:00,
2013-03-04 06:30:00,54.1,35.9,29.62,SSE,158,0.0,0.0,50,0.00,,,0.00,WUHU216HW,2013-03-04 11:30:00,
2013-03-04 06:31:00,54.1,35.9,29.62,SSE,158,0.0,0.0,50,0.00,,,0.00,WUHU216HW,2013-03-04 11:31:00,
2013-03-04 06:32:00,26.4,17.2,29.78,West,270,0.0,0.0,68,0.00,,,0.00,WUHU216HW,2013-03-04 11:32:00,
2013-03-04 06:33:00,54.1,35.9,29.62,SSE,158,0.0,0.0,50,0.00,,,0.00,WUHU216HW,2013-03-04 11:33:00,
2013-03-04 06:34:00,54.1,35.9,29.62,SSE,158,0.0,0.0,50,0.00,,,0.00,WUHU216HW,2013-03-04 11:34:00,
2013-03-04 06:35:00,54.1,35.9,29.62,SSE,158,0.0,0.0,50,0.00,,,0.00,WUHU216HW,2013-03-04 11:35:00,
2013-03-04 06:36:00,53.9,36.2,29.62,South,180,0.0,0.0,51,0.00,,,0.00,WUHU216HW,2013-03-04 11:36:00,
2013-03-04 06:37:00,26.4,17.2,29.78,West,270,0.0,0.0,68,0.00,,,0.00,WUHU216HW,2013-03-04 11:37:00,
2013-03-04 06:38:00,53.9,36.2,29.62,WSW,248,0.0,0.0,50,0.00,,,0.00,WUHU216HW,2013-03-04 11:38:00,
2013-03-04 06:39:00,53.9,36.2,29.62,WSW,248,0.0,0.0,50,0.00,,,0.00,WUHU216HW,2013-03-04 11:39:00,
2013-03-04 06:40:00,53.9,36.2,29.62,South,180,0.0,0.0,51,0.00,,,0.00,WUHU216HW,2013-03-04 11:40:00,
2013-03-04 06:41:00,53.9,36.2,29.62,South,180,0.0,0.0,51,0.00,,,0.00,WUHU216HW,2013-03-04 11:41:00,
2013-03-04 06:42:00,26.4,17.2,29.79,West,270,0.0,0.0,68,0.00,,,0.00,WUHU216HW,2013-03-04 11:42:00,
2013-03-04 06:43:00,53.9,36.2,29.62,South,180,0.0,0.0,51,0.00,,,0.00,WUHU216HW,2013-03-04 11:43:00,
2013-03-04 06:44:00,53.9,36.2,29.61,South,180,0.0,0.0,51,0.00,,,0.00,WUHU216HW,2013-03-04 11:44:00,
2013-03-04 06:45:00,54.1,36.3,29.61,SE,135,0.0,0.0,51,0.00,,,0.00,WUHU216HW,2013-03-04 11:45:00,
2013-03-04 06:46:00,54.1,36.3,29.61,SE,135,0.0,0.0,51,0.00,,,0.00,WUHU216HW,2013-03-04 11:46:00,
2013-03-04 06:47:00,26.4,17.2,29.79,West,270,0.0,0.0,68,0.00,,,0.00,WUHU216HW,2013-03-04 11:47:00,
2013-03-04 06:48:00,53.9,36.2,29.61,SSE,158,0.0,0.0,51,0.00,,,0.00,WUHU216HW,2013-03-04 11:48:00,
2013-03-04 06:49:00,53.9,36.2,29.61,SSE,158,0.0,0.0,51,0.00,,,0.00,WUHU216HW,2013-03-04 11:49:00,
2013-03-04 06:50:00,53.9,36.2,29.61,SSE,158,0.0,0.0,51,0.00,,,0.00,WUHU216HW,2013-03-04 11:50:00,
2013-03-04 06:51:00,53.9,36.2,29.61,South,180,0.0,0.0,51,0.00,,,0.00,WUHU216HW,2013-03-04 11:51:00,
2013-03-04 06:52:00,26.4,17.2,29.79,West,270,0.0,0.0,68,0.00,,,0.00,WUHU216HW,2013-03-04 11:52:00,
2013-03-04 06:53:00,53.9,36.2,29.61,South,180,0.0,0.0,51,0.00,,,0.00,WUHU216HW,2013-03-04 11:53:00,
2013-03-04 06:54:00,53.9,36.2,29.61,South,180,0.0,0.0,51,0.00,,,0.00,WUHU216HW,2013-03-04 11:54:00,
2013-03-04 06:55:00,53.7,36.0,29.61,South,180,0.0,0.0,51,0.00,,,0.00,WUHU216HW,2013-03-04 11:55:00,
2013-03-04 06:56:00,53.7,36.0,29.61,South,180,0.0,0.0,51,0.00,,,0.00,WUHU216HW,2013-03-04 11:56:00,
2013-03-04 06:57:00,26.4,17.2,29.79,West,270,0.0,0.0,68,0.00,,,0.00,WUHU216HW,2013-03-04 11:57:00,
2013-03-04 06:58:00,53.7,36.0,29.61,South,180,0.0,0.0,51,0.00,,,0.00,WUHU216HW,2013-03-04 11:58:00,
2013-03-04 06:59:00,53.7,36.0,29.61,South,180,0.0,0.0,51,0.00,,,0.00,WUHU216HW,2013-03-04 11:59:00,
2013-03-04 07:00:00,53.7,36.0,29.61,South,180,0.0,0.0,51,0.00,,,0.00,WUHU216HW,2013-03-04 12:00:00,
2013-03-04 07:01:00,53.7,36.0,29.61,South,180,0.0,0.0,51,0.00,,,0.00,WUHU216HW,2013-03-04 12:01:00,
2013-03-04 07:02:00,26.4,17.2,29.78,West,270,0.0,0.0,67,0.00,,,0.00,WUHU216HW,2013-03-04 12:02:00,
2013-03-04 07:03:00,53.6,35.8,29.61,South,180,0.0,0.0,51,0.00,,,0.00,WUHU216HW,2013-03-04 12:03:00,
2013-03-04 07:04:00,53.6,35.8,29.61,SE,135,0.0,0.0,51,0.00,,,0.00,WUHU216HW,2013-03-04 12:04:00,
2013-03-04 07:05:00,53.6,35.8,29.61,SE,135,0.0,0.0,51,0.00,,,0.00,WUHU216HW,2013-03-04 12:05:00,
2013-03-04 07:06:00,53.6,35.8,29.61,SE,135,0.0,0.0,51,0.00,,,0.00,WUHU216HW,2013-03-04 12:06:00,
2013-03-04 07:07:00,26.7,17.6,29.79,West,270,0.0,0.0,68,0.00,,,0.00,WUHU216HW,2013-03-04 12:07:00,
2013-03-04 07:08:00,53.4,35.7,29.61,SE,135,0.0,0.0,51,0.00,,,0.00,WUHU216HW,2013-03-04 12:08:00,
2013-03-04 07:09:00,53.4,35.7,29.61,SE,135,0.0,0.0,51,0.00,,,0.00,WUHU216HW,2013-03-04 12:09:00,
2013-03-04 07:10:00,53.4,35.7,29.61,SE,135,0.0,0.0,51,0.00,,,0.00,WUHU216HW,2013-03-04 12:10:00,
2013-03-04 07:11:00,53.4,35.7,29.61,SE,135,0.0,0.0,51,0.00,,,0.00,WUHU216HW,2013-03-04 12:11:00,
2013-03-04 07:12:00,26.7,17.6,29.79,West,270,0.0,0.0,68,0.00,,,0.00,WUHU216HW,2013-03-04 12:12:00,
2013-03-04 07:13:00,53.4,35.7,29.61,SE,135,0.0,0.0,52,0.00,,,0.00,WUHU216HW,2013-03-04 12:13:00,
2013-03-04 07:14:00,53.4,35.7,29.61,SE,135,0.0,0.0,52,0.00,,,0.00,WUHU216HW,2013-03-04 12:14:00,
2013-03-04 07:15:00,53.4,35.7,29.61,SE,135,0.0,0.0,52,0.00,,,0.00,WUHU216HW,2013-03-04 12:15:00,
2013-03-04 07:16:00,53.4,35.7,29.61,SE,135,0.0,0.0,52,0.00,,,0.00,WUHU216HW,2013-03-04 12:16:00,
2013-03-04 07:17:00,26.7,17.6,29.79,West,270,0.0,0.0,68,0.00,,,0.00,WUHU216HW,2013-03-04 12:17:00,
2013-03-04 07:18:00,53.2,36.0,29.61,SSE,158,0.0,0.0,52,0.00,,,0.00,WUHU216HW,2013-03-04 12:18:00,
2013-03-04 07:19:00,53.2,36.0,29.61,SSE,158,0.0,0.0,52,0.00,,,0.00,WUHU216HW,2013-03-04 12:19:00,
2013-03-04 07:20:00,53.2,36.0,29.61,SSE,158,0.0,0.0,52,0.00,,,0.00,WUHU216HW,2013-03-04 12:20:00,
2013-03-04 07:21:00,53.2,36.0,29.61,WSW,248,0.0,0.0,52,0.00,,,0.00,WUHU216HW,2013-03-04 12:21:00,
2013-03-04 07:22:00,26.9,17.7,29.79,West,270,0.0,0.0,68,0.00,,,0.00,WUHU216HW,2013-03-04 12:22:00,
2013-03-04 07:23:00,53.2,36.0,29.61,SSE,158,0.0,0.0,52,0.00,,,0.00,WUHU216HW,2013-03-04 12:23:00,
2013-03-04 07:24:00,53.2,36.0,29.61,SSE,158,0.0,0.0,52,0.00,,,0.00,WUHU216HW,2013-03-04 12:24:00,
2013-03-04 07:25:00,53.2,36.0,29.61,SSE,158,0.0,0.0,53,0.00,,,0.00,WUHU216HW,2013-03-04 12:25:00,
2013-03-04 07:26:00,53.2,36.0,29.61,SSE,158,0.0,0.0,53,0.00,,,0.00,WUHU216HW,2013-03-04 12:26:00,
2013-03-04 07:27:00,27.1,18.3,29.79,West,270,0.0,0.0,69,0.00,,,0.00,WUHU216HW,2013-03-04 12:27:00,
2013-03-04 07:28:00,53.0,36.3,29.61,SSE,158,0.0,0.0,53,0.00,,,0.00,WUHU216HW,2013-03-04 12:28:00,
2013-03-04 07:29:00,53.0,36.3,29.61,SSE,158,0.0,0.0,53,0.00,,,0.00,WUHU216HW,2013-03-04 12:29:00,
2013-03-04 07:30:00,53.0,36.3,29.61,SSE,158,0.0,0.0,53,0.00,,,0.00,WUHU216HW,2013-03-04 12:30:00,
2013-03-04 07:31:00,53.0,36.3,29.60,SSE,158,0.0,0.0,53,0.00,,,0.00,WUHU216HW,2013-03-04 12:31:00,
2013-03-04 07:32:00,27.3,18.5,29.79,West,270,0.0,0.0,69,0.00,,,0.00,WUHU216HW,2013-03-04 12:32:00,
2013-03-04 07:33:00,53.0,36.3,29.61,SSE,158,0.0,0.0,53,0.00,,,0.00,WUHU216HW,2013-03-04 12:33:00,
2013-03-04 07:34:00,52.8,36.1,29.61,SSE,158,0.0,0.0,53,0.00,,,0.00,WUHU216HW,2013-03-04 12:34:00,
2013-03-04 07:35:00,52.8,36.1,29.61,SSE,158,0.0,0.0,53,0.00,,,0.00,WUHU216HW,2013-03-04 12:35:00,
2013-03-04 07:36:00,52.8,36.1,29.61,SSE,158,0.0,0.0,53,0.00,,,0.00,WUHU216HW,2013-03-04 12:36:00,
2013-03-04 07:37:00,27.6,18.8,29.80,West,270,0.0,0.0,69,0.00,,,0.00,WUHU216HW,2013-03-04 12:37:00,
2013-03-04 07:38:00,52.8,36.1,29.60,SSE,158,0.0,0.0,53,0.00,,,0.00,WUHU216HW,2013-03-04 12:38:00,
2013-03-04 07:39:00,52.8,36.1,29.61,SSE,158,0.0,0.0,53,0.00,,,0.00,WUHU216HW,2013-03-04 12:39:00,
2013-03-04 07:40:00,52.8,36.1,29.61,SSE,158,0.0,0.0,53,0.00,,,0.00,WUHU216HW,2013-03-04 12:40:00,
2013-03-04 07:41:00,52.8,36.1,29.60,SSE,158,0.0,0.0,53,0.00,,,0.00,WUHU216HW,2013-03-04 12:41:00,
2013-03-04 07:42:00,27.8,18.6,29.80,West,270,0.0,0.0,68,0.00,,,0.00,WUHU216HW,2013-03-04 12:42:00,
2013-03-04 07:44:00,52.8,36.1,29.60,SSE,158,0.0,0.0,53,0.00,,,0.00,WUHU216HW,2013-03-04 12:44:00,
2013-03-04 07:45:00,52.8,36.1,29.60,SSE,158,0.0,0.0,53,0.00,,,0.00,WUHU216HW,2013-03-04 12:45:00,
2013-03-04 07:46:00,52.8,36.1,29.60,SSE,158,0.0,0.0,53,0.00,,,0.00,WUHU216HW,2013-03-04 12:46:00,
2013-03-04 07:47:00,52.8,36.1,29.60,SSE,158,0.0,0.0,53,0.00,,,0.00,WUHU216HW,2013-03-04 12:47:00,
2013-03-04 07:48:00,28.2,18.6,29.80,West,270,0.0,0.0,67,0.00,,,0.00,WUHU216HW,2013-03-04 12:48:00,
2013-03-04 07:51:00,52.8,36.1,29.60,South,180,0.0,0.0,54,0.00,,,0.00,WUHU216HW,2013-03-04 12:51:00,
2013-03-04 07:52:00,52.8,36.1,29.60,South,180,0.0,0.0,54,0.00,,,0.00,WUHU216HW,2013-03-04 12:52:00,
2013-03-04 07:53:00,28.7,18.4,29.80,West,270,0.0,0.0,65,0.00,,,0.00,WUHU216HW,2013-03-04 12:53:00,
2013-03-04 07:54:00,52.8,36.1,29.60,SE,135,0.0,0.0,54,0.00,,,0.00,WUHU216HW,2013-03-04 12:54:00,
2013-03-04 07:56:00,52.8,36.1,29.60,SE,135,0.0,0.0,54,0.00,,,0.00,WUHU216HW,2013-03-04 12:56:00,
2013-03-04 07:57:00,52.8,36.1,29.60,SE,135,0.0,0.0,54,0.00,,,0.00,WUHU216HW,2013-03-04 12:57:00,
2013-03-04 07:58:00,29.1,18.7,29.81,West,270,0.0,0.0,65,0.00,,,0.00,WUHU216HW,2013-03-04 12:58:00,
2013-03-04 07:59:00,52.7,36.4,29.60,SSE,158,0.0,0.0,54,0.00,,,0.00,WUHU216HW,2013-03-04 12:59:00,
2013-03-04 08:00:00,52.7,36.4,29.60,SSE,158,0.0,0.0,54,0.00,,,0.00,WUHU216HW,2013-03-04 13:00:00,
2013-03-04 08:01:00,52.7,36.4,29.60,SSE,158,0.0,0.0,54,0.00,,,0.00,WUHU216HW,2013-03-04 13:01:00,
2013-03-04 08:02:00,52.7,36.4,29.60,SSE,158,0.0,0.0,54,0.00,,,0.00,WUHU216HW,2013-03-04 13:02:00,
2013-03-04 08:03:00,29.4,18.7,29.81,West,270,0.0,0.0,63,0.00,,,0.00,WUHU216HW,2013-03-04 13:03:00,
2013-03-04 08:04:00,52.7,36.4,29.60,South,180,0.0,0.0,54,0.00,,,0.00,WUHU216HW,2013-03-04 13:04:00,
2013-03-04 08:05:00,52.7,36.4,29.60,South,180,0.0,0.0,54,0.00,,,0.00,WUHU216HW,2013-03-04 13:05:00,
2013-03-04 08:06:00,52.7,36.4,29.60,SE,135,0.0,0.0,54,0.00,,,0.00,WUHU216HW,2013-03-04 13:06:00,
2013-03-04 08:07:00,52.7,36.4,29.60,SE,135,0.0,0.0,54,0.00,,,0.00,WUHU216HW,2013-03-04 13:07:00,
2013-03-04 08:08:00,30.0,18.5,29.81,WSW,248,0.0,0.0,62,0.00,,,0.00,WUHU216HW,2013-03-04 13:08:00,
2013-03-04 08:09:00,52.7,36.4,29.60,SE,135,0.0,0.0,54,0.00,,,0.00,WUHU216HW,2013-03-04 13:09:00,
2013-03-04 08:11:00,52.8,36.6,29.59,SSW,203,0.0,0.0,54,0.00,,,0.00,WUHU216HW,2013-03-04 13:11:00,
2013-03-04 08:13:00,30.3,18.8,29.82,WSW,248,0.0,0.0,62,0.00,,,0.00,WUHU216HW,2013-03-04 13:13:00,
2013-03-04 08:14:00,52.8,36.6,29.59,SE,135,0.0,0.0,54,0.00,,,0.00,WUHU216HW,2013-03-04 13:14:00,
2013-03-04 08:15:00,52.8,36.6,29.59,SE,135,0.0,0.0,54,0.00,,,0.00,WUHU216HW,2013-03-04 13:15:00,
2013-03-04 08:16:00,52.8,36.6,29.59,SE,135,0.0,0.0,54,0.00,,,0.00,WUHU216HW,2013-03-04 13:16:00,
2013-03-04 08:18:00,30.9,19.0,29.82,WSW,248,0.0,0.0,61,0.00,,,0.00,WUHU216HW,2013-03-04 13:18:00,
2013-03-04 08:19:00,52.8,36.6,29.59,South,180,0.0,0.0,55,0.00,,,0.00,WUHU216HW,2013-03-04 13:19:00,
2013-03-04 08:20:00,52.8,36.6,29.59,South,180,0.0,0.0,55,0.00,,,0.00,WUHU216HW,2013-03-04 13:20:00,
2013-03-04 08:21:00,52.8,36.6,29.59,South,180,0.0,0.0,55,0.00,,,0.00,WUHU216HW,2013-03-04 13:21:00,
2013-03-04 08:22:00,52.8,36.6,29.59,South,180,0.0,0.0,55,0.00,,,0.00,WUHU216HW,2013-03-04 13:22:00,
2013-03-04 08:23:00,31.2,19.0,29.82,WSW,248,0.0,0.0,60,0.00,,,0.00,WUHU216HW,2013-03-04 13:23:00,
2013-03-04 08:24:00,52.8,36.6,29.59,South,180,0.0,0.0,55,0.00,,,0.00,WUHU216HW,2013-03-04 13:24:00,
2013-03-04 08:26:00,52.8,36.6,29.59,South,180,0.0,0.0,55,0.00,,,0.00,WUHU216HW,2013-03-04 13:26:00,
2013-03-04 08:27:00,52.8,36.6,29.59,SSW,203,0.0,0.0,55,0.00,,,0.00,WUHU216HW,2013-03-04 13:27:00,
2013-03-04 08:28:00,31.6,18.9,29.82,West,270,0.0,0.0,59,0.00,,,0.00,WUHU216HW,2013-03-04 13:28:00,
2013-03-04 08:29:00,52.8,36.6,29.59,SSW,203,0.0,0.0,55,0.00,,,0.00,WUHU216HW,2013-03-04 13:29:00,
2013-03-04 08:30:00,52.8,36.6,29.59,South,180,0.0,0.0,55,0.00,,,0.00,WUHU216HW,2013-03-04 13:30:00,
2013-03-04 08:31:00,52.8,36.6,29.59,South,180,0.0,0.0,55,0.00,,,0.00,WUHU216HW,2013-03-04 13:31:00,
2013-03-04 08:33:00,32.3,19.2,29.82,West,270,0.0,0.0,58,0.00,,,0.00,WUHU216HW,2013-03-04 13:33:00,
2013-03-04 08:34:00,52.8,36.6,29.59,SSE,158,0.0,0.0,55,0.00,,,0.00,WUHU216HW,2013-03-04 13:34:00,
2013-03-04 08:35:00,52.8,36.6,29.59,SSE,158,0.0,0.0,55,0.00,,,0.00,WUHU216HW,2013-03-04 13:35:00,
2013-03-04 08:36:00,52.8,36.6,29.59,SSE,158,0.0,0.0,55,0.00,,,0.00,WUHU216HW,2013-03-04 13:36:00,
2013-03-04 08:37:00,52.8,36.6,29.60,SSE,158,0.0,0.0,55,0.00,,,0.00,WUHU216HW,2013-03-04 13:37:00,
2013-03-04 08:38:00,33.0,19.4,29.82,WNW,293,0.0,0.0,57,0.00,,,0.00,WUHU216HW,2013-03-04 13:38:00,
2013-03-04 08:39:00,52.8,36.6,29.59,SSE,158,0.0,0.0,55,0.00,,,0.00,WUHU216HW,2013-03-04 13:39:00,
2013-03-04 08:40:00,52.8,36.6,29.59,SSE,158,0.0,0.0,55,0.00,,,0.00,WUHU216HW,2013-03-04 13:40:00,
2013-03-04 08:41:00,52.8,36.6,29.59,SSE,158,0.0,0.0,55,0.00,,,0.00,WUHU216HW,2013-03-04 13:41:00,
2013-03-04 08:42:00,52.8,36.6,29.59,SSE,158,0.0,0.0,55,0.00,,,0.00,WUHU216HW,2013-03-04 13:42:00,
2013-03-04 08:43:00,33.6,19.4,29.82,West,270,0.0,0.0,56,0.00,,,0.00,WUHU216HW,2013-03-04 13:43:00,
2013-03-04 08:44:00,52.8,36.6,29.59,SW,225,0.0,0.0,55,0.00,,,0.00,WUHU216HW,2013-03-04 13:44:00,
2013-03-04 08:45:00,52.8,36.6,29.60,SW,225,0.0,0.0,55,0.00,,,0.00,WUHU216HW,2013-03-04 13:45:00,
2013-03-04 08:46:00,52.8,36.6,29.59,SW,225,0.0,0.0,55,0.00,,,0.00,WUHU216HW,2013-03-04 13:46:00,
2013-03-04 08:47:00,52.8,36.6,29.59,SSE,158,0.0,0.0,55,0.00,,,0.00,WUHU216HW,2013-03-04 13:47:00,
2013-03-04 08:48:00,34.3,19.7,29.82,West,270,0.0,0.0,55,0.00,,,0.00,WUHU216HW,2013-03-04 13:48:00,
2013-03-04 08:49:00,52.8,36.6,29.59,South,180,0.0,0.0,55,0.00,,,0.00,WUHU216HW,2013-03-04 13:49:00,
2013-03-04 08:50:00,52.8,36.6,29.59,South,180,0.0,0.0,55,0.00,,,0.00,WUHU216HW,2013-03-04 13:50:00,
2013-03-04 08:51:00,52.8,36.6,29.59,SSE,158,0.0,0.0,55,0.00,,,0.00,WUHU216HW,2013-03-04 13:51:00,
2013-03-04 08:52:00,52.8,36.6,29.59,SSE,158,0.0,0.0,55,0.00,,,0.00,WUHU216HW,2013-03-04 13:52:00,
2013-03-04 08:53:00,34.5,19.5,29.82,West,270,0.0,0.0,53,0.00,,,0.00,WUHU216HW,2013-03-04 13:53:00,
2013-03-04 08:54:00,52.8,36.6,29.59,SSE,158,2.9,2.9,55,0.00,,,0.00,WUHU216HW,2013-03-04 13:54:00,
2013-03-04 08:55:00,52.8,36.6,29.59,SSE,158,2.9,2.9,55,0.00,,,0.00,WUHU216HW,2013-03-04 13:55:00,
2013-03-04 08:58:00,34.8,19.8,29.82,WNW,293,0.0,0.0,52,0.00,,,0.00,WUHU216HW,2013-03-04 13:58:00,
2013-03-04 08:59:00,52.8,37.5,29.59,SSE,158,0.0,4.2,56,0.00,,,0.00,WUHU216HW,2013-03-04 13:59:00,
2013-03-04 09:00:00,52.8,37.5,29.58,South,180,0.0,4.2,56,0.00,,,0.00,WUHU216HW,2013-03-04 14:00:00,
2013-03-04 09:01:00,52.8,37.5,29.58,South,180,0.0,4.2,56,0.00,,,0.00,WUHU216HW,2013-03-04 14:01:00,
2013-03-04 09:02:00,52.8,37.5,29.58,South,180,0.0,4.2,56,0.00,,,0.00,WUHU216HW,2013-03-04 14:02:00,
2013-03-04 09:03:00,35.2,19.7,29.82,West,270,0.0,0.0,53,0.00,,,0.00,WUHU216HW,2013-03-04 14:03:00,
2013-03-04 09:04:00,52.8,37.5,29.59,South,180,0.0,4.2,56,0.00,,,0.00,WUHU216HW,2013-03-04 14:04:00,
2013-03-04 09:05:00,52.8,37.5,29.58,SSE,158,0.0,4.2,56,0.00,,,0.00,WUHU216HW,2013-03-04 14:05:00,
2013-03-04 09:06:00,52.8,37.5,29.58,SSE,158,0.0,0.0,56,0.00,,,0.00,WUHU216HW,2013-03-04 14:06:00,
2013-03-04 09:07:00,52.8,37.5,29.58,WSW,248,0.0,0.0,56,0.00,,,0.00,WUHU216HW,2013-03-04 14:07:00,
2013-03-04 09:08:00,35.6,19.7,29.82,NNW,338,0.0,0.0,52,0.00,,,0.00,WUHU216HW,2013-03-04 14:08:00,
2013-03-04 09:09:00,52.8,37.5,29.58,SSE,158,0.0,0.0,56,0.00,,,0.00,WUHU216HW,2013-03-04 14:09:00,
2013-03-04 09:10:00,52.8,37.5,29.59,SSE,158,0.0,0.0,56,0.00,,,0.00,WUHU216HW,2013-03-04 14:10:00,
2013-03-04 09:11:00,52.8,37.5,29.58,WSW,248,0.0,0.0,56,0.00,,,0.00,WUHU216HW,2013-03-04 14:11:00,
2013-03-04 09:12:00,52.8,37.5,29.59,WSW,248,0.0,0.0,56,0.00,,,0.00,WUHU216HW,2013-03-04 14:12:00,
2013-03-04 09:13:00,35.7,19.4,29.82,WNW,293,0.0,0.0,51,0.00,,,0.00,WUHU216HW,2013-03-04 14:13:00,
2013-03-04 09:14:00,52.8,37.5,29.58,South,180,0.0,0.0,56,0.00,,,0.00,WUHU216HW,2013-03-04 14:14:00,
2013-03-04 09:15:00,52.8,37.5,29.58,South,180,0.0,0.0,56,0.00,,,0.00,WUHU216HW,2013-03-04 14:15:00,
2013-03-04 09:16:00,52.8,37.5,29.58,SE,135,0.0,0.0,56,0.00,,,0.00,WUHU216HW,2013-03-04 14:16:00,
2013-03-04 09:17:00,52.8,37.5,29.59,SE,135,0.0,0.0,56,0.00,,,0.00,WUHU216HW,2013-03-04 14:17:00,
2013-03-04 09:18:00,35.7,19.4,29.82,West,270,1.3,1.3,51,0.00,,,0.00,WUHU216HW,2013-03-04 14:18:00,
2013-03-04 09:19:00,52.7,37.3,29.58,SSE,158,0.0,0.0,56,0.00,,,0.00,WUHU216HW,2013-03-04 14:19:00,
2013-03-04 09:20:00,52.7,37.3,29.58,South,180,0.0,0.0,56,0.00,,,0.00,WUHU216HW,2013-03-04 14:20:00,
2013-03-04 09:21:00,52.7,37.3,29.58,South,180,0.0,0.0,56,0.00,,,0.00,WUHU216HW,2013-03-04 14:21:00,
2013-03-04 09:22:00,52.7,37.3,29.59,SSE,158,6.4,6.4,56,0.00,,,0.00,WUHU216HW,2013-03-04 14:22:00,
2013-03-04 09:23:00,35.7,18.5,29.82,WSW,248,0.0,1.3,49,0.00,,,0.00,WUHU216HW,2013-03-04 14:23:00,
2013-03-04 09:24:00,52.8,37.5,29.58,SSE,158,0.0,6.4,56,0.00,,,0.00,WUHU216HW,2013-03-04 14:24:00,
2013-03-04 09:25:00,52.8,37.5,29.58,SSE,158,0.0,6.4,56,0.00,,,0.00,WUHU216HW,2013-03-04 14:25:00,
2013-03-04 09:26:00,52.8,37.5,29.58,ESE,113,0.0,6.4,56,0.00,,,0.00,WUHU216HW,2013-03-04 14:26:00,
2013-03-04 09:27:00,52.8,37.5,29.58,ESE,113,0.0,6.4,56,0.00,,,0.00,WUHU216HW,2013-03-04 14:27:00,
2013-03-04 09:28:00,36.1,19.3,29.82,WNW,293,0.0,1.1,50,0.00,,,0.00,WUHU216HW,2013-03-04 14:28:00,
2013-03-04 09:29:00,52.8,37.5,29.58,South,180,0.0,6.4,56,0.00,,,0.00,WUHU216HW,2013-03-04 14:29:00,
2013-03-04 09:30:00,52.8,37.5,29.58,South,180,4.2,6.4,56,0.00,,,0.00,WUHU216HW,2013-03-04 14:30:00,
2013-03-04 09:31:00,52.8,37.5,29.59,South,180,4.2,6.4,56,0.00,,,0.00,WUHU216HW,2013-03-04 14:31:00,
2013-03-04 09:32:00,52.8,37.5,29.59,South,180,4.2,6.4,56,0.00,,,0.00,WUHU216HW,2013-03-04 14:32:00,
2013-03-04 09:33:00,36.1,19.3,29.82,West,270,0.0,0.0,48,0.00,,,0.00,WUHU216HW,2013-03-04 14:33:00,
2013-03-04 09:34:00,52.8,37.5,29.58,SSW,203,0.0,4.2,56,0.00,,,0.00,WUHU216HW,2013-03-04 14:34:00,
2013-03-04 09:35:00,52.8,37.5,29.58,SSW,203,0.0,4.2,56,0.00,,,0.00,WUHU216HW,2013-03-04 14:35:00,
2013-03-04 09:36:00,52.8,37.5,29.58,SSW,203,0.0,4.2,56,0.00,,,0.00,WUHU216HW,2013-03-04 14:36:00,
2013-03-04 09:37:00,52.8,37.5,29.58,South,180,0.0,4.2,56,0.00,,,0.00,WUHU216HW,2013-03-04 14:37:00,
2013-03-04 09:38:00,36.3,18.9,29.81,West,270,0.0,0.0,49,0.00,,,0.00,WUHU216HW,2013-03-04 14:38:00,
2013-03-04 09:39:00,52.7,37.8,29.58,South,180,0.0,4.2,57,0.00,,,0.00,WUHU216HW,2013-03-04 14:39:00,
2013-03-04 09:40:00,52.7,37.8,29.58,South,180,0.0,4.2,57,0.00,,,0.00,WUHU216HW,2013-03-04 14:40:00,
2013-03-04 09:41:00,52.7,37.8,29.58,SSE,158,0.0,4.2,57,0.00,,,0.00,WUHU216HW,2013-03-04 14:41:00,
2013-03-04 09:42:00,52.7,37.8,29.58,SSE,158,0.0,0.0,57,0.00,,,0.00,WUHU216HW,2013-03-04 14:42:00,
2013-03-04 09:43:00,37.0,20.1,29.81,WNW,293,0.0,0.0,50,0.00,,,0.00,WUHU216HW,2013-03-04 14:43:00,
2013-03-04 09:44:00,52.7,37.8,29.58,ESE,113,0.0,0.0,57,0.00,,,0.00,WUHU216HW,2013-03-04 14:44:00,
2013-03-04 09:45:00,52.7,37.8,29.57,NW,315,0.0,0.0,57,0.00,,,0.00,WUHU216HW,2013-03-04 14:45:00,
2013-03-04 09:46:00,52.7,37.8,29.57,NW,315,0.0,0.0,57,0.00,,,0.00,WUHU216HW,2013-03-04 14:46:00,
2013-03-04 09:47:00,52.7,37.8,29.58,NW,315,0.0,0.0,57,0.00,,,0.00,WUHU216HW,2013-03-04 14:47:00,
2013-03-04 09:48:00,37.2,19.2,29.82,SW,225,0.0,0.0,48,0.00,,,0.00,WUHU216HW,2013-03-04 14:48:00,
2013-03-04 09:49:00,52.7,37.8,29.58,SE,135,2.0,2.0,57,0.00,,,0.00,WUHU216HW,2013-03-04 14:49:00,
2013-03-04 09:50:00,52.7,37.8,29.58,SE,135,2.6,2.6,57,0.00,,,0.00,WUHU216HW,2013-03-04 14:50:00,
2013-03-04 09:51:00,52.7,37.8,29.58,SE,135,2.6,2.6,57,0.00,,,0.00,WUHU216HW,2013-03-04 14:51:00,
2013-03-04 09:52:00,52.5,37.6,29.57,SE,135,0.0,2.6,57,0.00,,,0.00,WUHU216HW,2013-03-04 14:52:00,
2013-03-04 09:53:00,37.7,19.2,29.82,WSW,248,0.0,2.9,47,0.00,,,0.00,WUHU216HW,2013-03-04 14:53:00,
2013-03-04 09:54:00,52.5,37.6,29.58,West,270,0.0,2.6,57,0.00,,,0.00,WUHU216HW,2013-03-04 14:54:00,
2013-03-04 09:55:00,52.5,37.6,29.58,West,270,0.0,2.6,57,0.00,,,0.00,WUHU216HW,2013-03-04 14:55:00,
2013-03-04 09:56:00,52.5,37.6,29.58,SSE,158,0.0,2.6,57,0.00,,,0.00,WUHU216HW,2013-03-04 14:56:00,
2013-03-04 09:57:00,52.5,37.6,29.57,SSE,158,0.0,2.6,57,0.00,,,0.00,WUHU216HW,2013-03-04 14:57:00,
2013-03-04 09:58:00,38.1,19.5,29.81,West,270,0.0,2.9,47,0.00,,,0.00,WUHU216HW,2013-03-04 14:58:00,
2013-03-04 09:59:00,52.5,37.6,29.58,South,180,0.0,2.6,57,0.00,,,0.00,WUHU216HW,2013-03-04 14:59:00,
2013-03-04 10:00:00,52.5,37.6,29.58,WSW,248,0.0,2.6,57,0.00,,,0.00,WUHU216HW,2013-03-04 15:00:00,
2013-03-04 10:01:00,52.5,37.6,29.58,WSW,248,0.0,0.0,57,0.00,,,0.00,WUHU216HW,2013-03-04 15:01:00,
2013-03-04 10:02:00,52.5,37.6,29.58,SSE,158,0.0,0.0,57,0.00,,,0.00,WUHU216HW,2013-03-04 15:02:00,
2013-03-04 10:03:00,38.8,19.1,29.82,WSW,248,0.0,0.0,45,0.00,,,0.00,WUHU216HW,2013-03-04 15:03:00,
2013-03-04 10:04:00,52.5,37.6,29.58,SSE,158,0.0,0.0,57,0.00,,,0.00,WUHU216HW,2013-03-04 15:04:00,
2013-03-04 10:05:00,52.5,37.6,29.58,South,180,0.0,0.0,58,0.00,,,0.00,WUHU216HW,2013-03-04 15:05:00,
2013-03-04 10:06:00,52.5,37.6,29.58,South,180,0.0,0.0,58,0.00,,,0.00,WUHU216HW,2013-03-04 15:06:00,
2013-03-04 10:07:00,52.5,37.6,29.58,SSE,158,0.0,0.0,57,0.00,,,0.00,WUHU216HW,2013-03-04 15:07:00,
2013-03-04 10:08:00,39.2,20.0,29.82,WNW,293,0.0,1.5,46,0.00,,,0.00,WUHU216HW,2013-03-04 15:08:00,
2013-03-04 10:09:00,52.5,38.1,29.57,SSE,158,3.5,5.5,58,0.00,,,0.00,WUHU216HW,2013-03-04 15:09:00,
2013-03-04 10:10:00,52.5,38.1,29.57,SW,225,0.8,5.5,57,0.00,,,0.00,WUHU216HW,2013-03-04 15:10:00,
2013-03-04 10:11:00,52.5,38.1,29.57,SW,225,0.8,5.5,57,0.00,,,0.00,WUHU216HW,2013-03-04 15:11:00,
2013-03-04 10:12:00,52.5,38.1,29.57,SE,135,0.0,5.5,58,0.00,,,0.00,WUHU216HW,2013-03-04 15:12:00,
2013-03-04 10:13:00,39.7,18.9,29.82,WNW,293,0.2,5.5,43,0.00,,,0.00,WUHU216HW,2013-03-04 15:13:00,
2013-03-04 10:14:00,52.5,38.1,29.57,SE,135,0.0,5.5,58,0.00,,,0.00,WUHU216HW,2013-03-04 15:14:00,
2013-03-04 10:15:00,52.5,38.1,29.57,SE,135,0.0,5.5,58,0.00,,,0.00,WUHU216HW,2013-03-04 15:15:00,
2013-03-04 10:16:00,52.5,38.1,29.57,SE,135,0.0,5.5,58,0.00,,,0.00,WUHU216HW,2013-03-04 15:16:00,
2013-03-04 10:17:00,52.5,38.1,29.57,SSE,158,0.0,5.5,58,0.00,,,0.00,WUHU216HW,2013-03-04 15:17:00,
2013-03-04 10:18:00,39.5,18.2,29.82,WSW,248,0.0,5.5,43,0.00,,,0.00,WUHU216HW,2013-03-04 15:18:00,
2013-03-04 10:19:00,52.5,38.1,29.57,SE,135,0.0,5.5,58,0.00,,,0.00,WUHU216HW,2013-03-04 15:19:00,
2013-03-04 10:20:00,52.5,38.1,29.57,SE,135,0.0,0.8,58,0.00,,,0.00,WUHU216HW,2013-03-04 15:20:00,
2013-03-04 10:21:00,52.3,37.9,29.57,SE,135,0.0,0.8,58,0.00,,,0.00,WUHU216HW,2013-03-04 15:21:00,
2013-03-04 10:22:00,52.3,37.9,29.57,SE,135,0.0,0.0,58,0.00,,,0.00,WUHU216HW,2013-03-04 15:22:00,
2013-03-04 10:23:00,40.6,20.7,29.82,WNW,293,0.0,3.1,45,0.00,,,0.00,WUHU216HW,2013-03-04 15:23:00,
2013-03-04 10:24:00,52.3,37.9,29.57,ESE,113,0.0,0.0,58,0.00,,,0.00,WUHU216HW,2013-03-04 15:24:00,
2013-03-04 10:25:00,52.3,37.9,29.57,SE,135,0.0,0.0,58,0.00,,,0.00,WUHU216HW,2013-03-04 15:25:00,
2013-03-04 10:26:00,52.3,37.9,29.56,SE,135,0.0,0.0,58,0.00,,,0.00,WUHU216HW,2013-03-04 15:26:00,
2013-03-04 10:27:00,52.5,38.1,29.57,SSE,158,0.0,0.0,58,0.00,,,0.00,WUHU216HW,2013-03-04 15:27:00,
2013-03-04 10:28:00,41.1,20.2,29.82,WNW,293,8.9,8.9,43,0.00,,,0.00,WUHU216HW,2013-03-04 15:28:00,
2013-03-04 10:29:00,52.5,38.1,29.56,SSE,158,0.0,0.0,58,0.00,,,0.00,WUHU216HW,2013-03-04 15:29:00,
2013-03-04 10:30:00,52.5,38.1,29.56,SSE,158,0.0,0.0,58,0.00,,,0.00,WUHU216HW,2013-03-04 15:30:00,
2013-03-04 10:31:00,52.5,38.1,29.56,SSE,158,0.0,0.0,58,0.00,,,0.00,WUHU216HW,2013-03-04 15:31:00,
2013-03-04 10:32:00,52.5,38.1,29.56,SSE,158,0.0,0.0,58,0.00,,,0.00,WUHU216HW,2013-03-04 15:32:00,
2013-03-04 10:33:00,41.1,20.7,29.81,WSW,248,0.0,8.9,44,0.00,,,0.00,WUHU216HW,2013-03-04 15:33:00,
2013-03-04 10:34:00,52.5,38.1,29.56,SW,225,0.0,0.0,58,0.00,,,0.00,WUHU216HW,2013-03-04 15:34:00,
2013-03-04 10:35:00,52.5,38.1,29.56,SW,225,0.0,0.0,58,0.00,,,0.00,WUHU216HW,2013-03-04 15:35:00,
2013-03-04 10:36:00,52.3,38.3,29.56,SSE,158,6.0,6.0,59,0.00,,,0.00,WUHU216HW,2013-03-04 15:36:00,
2013-03-04 10:37:00,52.3,37.9,29.56,SE,135,1.7,6.0,58,0.00,,,0.00,WUHU216HW,2013-03-04 15:37:00,
2013-03-04 10:38:00,42.0,20.5,29.81,NNW,338,0.0,4.2,42,0.00,,,0.00,WUHU216HW,2013-03-04 15:38:00,
2013-03-04 10:39:00,52.5,38.1,29.56,SSE,158,0.0,6.0,58,0.00,,,0.00,WUHU216HW,2013-03-04 15:39:00,
2013-03-04 10:40:00,52.5,38.1,29.56,SSE,158,0.0,6.0,58,0.00,,,0.00,WUHU216HW,2013-03-04 15:40:00,
2013-03-04 10:41:00,52.5,38.1,29.56,SSE,158,0.0,6.0,58,0.00,,,0.00,WUHU216HW,2013-03-04 15:41:00,
2013-03-04 10:42:00,52.5,38.1,29.56,SSE,158,0.0,6.0,58,0.00,,,0.00,WUHU216HW,2013-03-04 15:42:00,
2013-03-04 10:43:00,41.9,20.3,29.81,ESE,113,0.0,0.0,42,0.00,,,0.00,WUHU216HW,2013-03-04 15:43:00,
2013-03-04 10:44:00,52.3,38.3,29.56,ESE,113,0.0,6.0,59,0.00,,,0.00,WUHU216HW,2013-03-04 15:44:00,
2013-03-04 10:45:00,52.3,38.3,29.56,SE,135,0.0,6.0,59,0.00,,,0.00,WUHU216HW,2013-03-04 15:45:00,
2013-03-04 10:46:00,52.3,38.3,29.56,SE,135,0.0,1.7,59,0.00,,,0.00,WUHU216HW,2013-03-04 15:46:00,
2013-03-04 10:47:00,52.3,38.3,29.56,West,270,0.0,1.7,59,0.00,,,0.00,WUHU216HW,2013-03-04 15:47:00,
2013-03-04 10:48:00,42.4,21.4,29.81,West,270,0.0,0.0,43,0.00,,,0.00,WUHU216HW,2013-03-04 15:48:00,
2013-03-04 10:49:00,52.3,38.3,29.56,SSW,203,0.0,0.0,59,0.00,,,0.00,WUHU216HW,2013-03-04 15:49:00,
2013-03-04 10:50:00,52.3,38.3,29.56,SSW,203,0.0,0.0,59,0.00,,,0.00,WUHU216HW,2013-03-04 15:50:00,
2013-03-04 10:51:00,52.3,38.3,29.57,SSW,203,0.0,0.0,59,0.00,,,0.00,WUHU216HW,2013-03-04 15:51:00,
2013-03-04 10:52:00,52.3,38.3,29.57,SW,225,0.0,0.0,59,0.00,,,0.00,WUHU216HW,2013-03-04 15:52:00,
2013-03-04 10:53:00,42.6,21.5,29.81,WNW,293,0.0,0.0,43,0.00,,,0.00,WUHU216HW,2013-03-04 15:53:00,
2013-03-04 10:54:00,52.3,38.3,29.56,SSE,158,0.0,0.0,59,0.00,,,0.00,WUHU216HW,2013-03-04 15:54:00,
2013-03-04 10:55:00,52.3,38.3,29.56,SSE,158,0.0,0.0,59,0.00,,,0.00,WUHU216HW,2013-03-04 15:55:00,
2013-03-04 10:56:00,52.3,38.3,29.56,SE,135,0.0,0.0,59,0.00,,,0.00,WUHU216HW,2013-03-04 15:56:00,
2013-03-04 10:57:00,52.3,38.3,29.56,SE,135,0.0,0.0,59,0.00,,,0.00,WUHU216HW,2013-03-04 15:57:00,
2013-03-04 10:58:00,42.9,20.8,29.81,West,270,0.0,0.0,41,0.00,,,0.00,WUHU216HW,2013-03-04 15:58:00,
2013-03-04 10:59:00,52.3,38.3,29.56,SSE,158,0.0,0.0,59,0.00,,,0.00,WUHU216HW,2013-03-04 15:59:00,
2013-03-04 11:00:00,52.3,38.3,29.56,SE,135,0.0,0.0,59,0.00,,,0.00,WUHU216HW,2013-03-04 16:00:00,
2013-03-04 11:01:00,52.3,38.3,29.55,SE,135,0.0,0.0,59,0.00,,,0.00,WUHU216HW,2013-03-04 16:01:00,
2013-03-04 11:02:00,52.3,38.3,29.56,SE,135,0.0,0.0,59,0.00,,,0.00,WUHU216HW,2013-03-04 16:02:00,
2013-03-04 11:03:00,52.3,38.3,29.56,SE,135,0.0,0.0,59,0.00,,,0.00,WUHU216HW,2013-03-04 16:03:00,
2013-03-04 11:04:00,43.1,20.9,29.81,West,270,0.0,0.0,41,0.00,,,0.00,WUHU216HW,2013-03-04 16:04:00,
2013-03-04 11:05:00,52.3,38.3,29.56,SE,135,0.0,0.0,59,0.00,,,0.00,WUHU216HW,2013-03-04 16:05:00,
2013-03-04 11:06:00,52.3,38.3,29.55,SE,135,0.0,0.0,59,0.00,,,0.00,WUHU216HW,2013-03-04 16:06:00,
2013-03-04 11:07:00,52.3,38.3,29.55,SSE,158,0.0,0.0,59,0.00,,,0.00,WUHU216HW,2013-03-04 16:07:00,
2013-03-04 11:08:00,52.3,38.3,29.55,SSE,158,0.0,0.0,59,0.00,,,0.00,WUHU216HW,2013-03-04 16:08:00,
2013-03-04 11:09:00,43.3,19.9,29.81,WNW,293,0.0,2.4,40,0.00,,,0.00,WUHU216HW,2013-03-04 16:09:00,
2013-03-04 11:10:00,52.1,38.6,29.55,SE,135,0.0,0.0,60,0.00,,,0.00,WUHU216HW,2013-03-04 16:10:00,
2013-03-04 11:11:00,52.1,38.6,29.55,SE,135,0.0,0.0,60,0.00,,,0.00,WUHU216HW,2013-03-04 16:11:00,
2013-03-04 11:12:00,52.1,38.6,29.55,SE,135,0.0,0.0,60,0.00,,,0.00,WUHU216HW,2013-03-04 16:12:00,
2013-03-04 11:13:00,52.1,38.6,29.55,SE,135,5.1,5.1,60,0.00,,,0.00,WUHU216HW,2013-03-04 16:13:00,
2013-03-04 11:14:00,43.7,21.4,29.81,WNW,293,0.0,2.4,41,0.00,,,0.00,WUHU216HW,2013-03-04 16:14:00,
2013-03-04 11:15:00,52.1,38.6,29.55,ESE,113,1.3,5.1,60,0.00,,,0.00,WUHU216HW,2013-03-04 16:15:00,
2013-03-04 11:16:00,52.1,38.6,29.55,SE,135,0.0,5.1,59,0.00,,,0.00,WUHU216HW,2013-03-04 16:16:00,
2013-03-04 11:17:00,52.1,38.6,29.55,SE,135,0.0,5.1,59,0.00,,,0.00,WUHU216HW,2013-03-04 16:17:00,
2013-03-04 11:18:00,52.1,38.6,29.55,SE,135,0.0,5.1,60,0.00,,,0.00,WUHU216HW,2013-03-04 16:18:00,
2013-03-04 11:19:00,44.4,20.9,29.81,West,270,0.0,0.0,39,0.00,,,0.00,WUHU216HW,2013-03-04 16:19:00,
2013-03-04 11:20:00,51.9,38.4,29.55,SE,135,0.0,5.1,60,0.00,,,0.00,WUHU216HW,2013-03-04 16:20:00,
2013-03-04 11:21:00,51.9,38.4,29.55,SE,135,0.0,5.1,60,0.00,,,0.00,WUHU216HW,2013-03-04 16:21:00,
2013-03-04 11:22:00,51.9,38.4,29.55,SE,135,0.0,5.1,60,0.00,,,0.00,WUHU216HW,2013-03-04 16:22:00,
2013-03-04 11:23:00,51.9,38.4,29.54,SE,135,0.0,5.1,60,0.00,,,0.00,WUHU216HW,2013-03-04 16:23:00,
2013-03-04 11:24:00,45.3,21.7,29.80,West,270,1.1,1.1,39,0.00,,,0.00,WUHU216HW,2013-03-04 16:24:00,
2013-03-04 11:25:00,51.9,38.4,29.54,SE,135,0.0,1.3,60,0.00,,,0.00,WUHU216HW,2013-03-04 16:25:00,
2013-03-04 11:26:00,51.9,38.4,29.54,SE,135,0.0,0.0,60,0.00,,,0.00,WUHU216HW,2013-03-04 16:26:00,
2013-03-04 11:27:00,51.9,38.4,29.54,SE,135,0.0,0.0,60,0.00,,,0.00,WUHU216HW,2013-03-04 16:27:00,
2013-03-04 11:28:00,51.9,38.4,29.54,SE,135,0.0,0.0,60,0.00,,,0.00,WUHU216HW,2013-03-04 16:28:00,
2013-03-04 11:29:00,46.2,21.8,29.80,NNE,23,0.0,1.1,38,0.00,,,0.00,WUHU216HW,2013-03-04 16:29:00,
2013-03-04 11:30:00,51.9,38.4,29.54,SSE,158,0.0,0.0,61,0.00,,,0.00,WUHU216HW,2013-03-04 16:30:00,
2013-03-04 11:31:00,51.9,38.4,29.54,SSE,158,0.0,0.0,60,0.00,,,0.00,WUHU216HW,2013-03-04 16:31:00,
2013-03-04 11:32:00,51.9,38.4,29.54,SSE,158,0.0,0.0,60,0.00,,,0.00,WUHU216HW,2013-03-04 16:32:00,
2013-03-04 11:33:00,51.9,38.4,29.54,South,180,0.0,0.0,60,0.00,,,0.00,WUHU216HW,2013-03-04 16:33:00,
2013-03-04 11:34:00,46.0,21.0,29.79,West,270,2.6,4.4,37,0.00,,,0.00,WUHU216HW,2013-03-04 16:34:00,
2013-03-04 11:35:00,51.9,38.4,29.54,SSW,203,0.0,0.0,60,0.00,,,0.00,WUHU216HW,2013-03-04 16:35:00,
2013-03-04 11:36:00,51.9,38.4,29.54,SSW,203,0.0,0.0,60,0.00,,,0.00,WUHU216HW,2013-03-04 16:36:00,
2013-03-04 11:37:00,51.8,38.7,29.54,SSW,203,0.0,0.0,61,0.00,,,0.00,WUHU216HW,2013-03-04 16:37:00,
2013-03-04 11:38:00,51.8,38.7,29.54,SSW,203,0.0,0.0,61,0.00,,,0.00,WUHU216HW,2013-03-04 16:38:00,
2013-03-04 11:39:00,46.0,21.0,29.79,West,270,0.0,4.4,37,0.00,,,0.00,WUHU216HW,2013-03-04 16:39:00,
2013-03-04 11:40:00,51.9,38.8,29.54,SW,225,0.0,0.0,61,0.00,,,0.00,WUHU216HW,2013-03-04 16:40:00,
2013-03-04 11:41:00,51.9,38.8,29.55,SW,225,0.0,0.0,61,0.00,,,0.00,WUHU216HW,2013-03-04 16:41:00,
2013-03-04 11:42:00,51.6,38.5,29.54,WSW,248,0.0,0.0,61,0.00,,,0.00,WUHU216HW,2013-03-04 16:42:00,
2013-03-04 11:43:00,51.6,38.5,29.54,WSW,248,0.0,0.0,61,0.00,,,0.00,WUHU216HW,2013-03-04 16:43:00,
2013-03-04 11:44:00,46.7,23.0,29.79,West,270,0.0,2.6,39,0.00,,,0.00,WUHU216HW,2013-03-04 16:44:00,
2013-03-04 11:45:00,51.6,38.5,29.54,SSE,158,0.0,0.0,61,0.00,,,0.00,WUHU216HW,2013-03-04 16:45:00,
2013-03-04 11:46:00,51.6,38.5,29.54,SSE,158,0.0,0.0,61,0.00,,,0.00,WUHU216HW,2013-03-04 16:46:00,
2013-03-04 11:47:00,51.6,38.5,29.55,SSE,158,0.0,0.0,61,0.00,,,0.00,WUHU216HW,2013-03-04 16:47:00,
2013-03-04 11:48:00,51.6,38.5,29.55,SSW,203,0.0,0.0,61,0.00,,,0.00,WUHU216HW,2013-03-04 16:48:00,
2013-03-04 11:49:00,47.8,23.3,29.79,WNW,293,0.0,0.0,35,0.00,,,0.00,WUHU216HW,2013-03-04 16:49:00,
2013-03-04 11:50:00,51.6,38.5,29.54,SSE,158,0.0,0.0,62,0.00,,,0.00,WUHU216HW,2013-03-04 16:50:00,
2013-03-04 11:51:00,51.6,38.5,29.54,SSE,158,0.0,0.0,62,0.00,,,0.00,WUHU216HW,2013-03-04 16:51:00,
2013-03-04 11:52:00,51.6,38.5,29.54,SSE,158,0.0,0.0,62,0.00,,,0.00,WUHU216HW,2013-03-04 16:52:00,
2013-03-04 11:53:00,51.6,38.5,29.54,ESE,113,0.0,0.0,62,0.00,,,0.00,WUHU216HW,2013-03-04 16:53:00,
2013-03-04 11:54:00,47.8,23.3,29.79,West,270,0.0,0.0,38,0.00,,,0.00,WUHU216HW,2013-03-04 16:54:00,
2013-03-04 11:55:00,51.6,38.5,29.54,ESE,113,0.0,0.0,62,0.00,,,0.00,WUHU216HW,2013-03-04 16:55:00,
2013-03-04 11:56:00,51.6,38.5,29.54,ESE,113,0.0,0.0,62,0.00,,,0.00,WUHU216HW,2013-03-04 16:56:00,
2013-03-04 11:57:00,51.6,38.5,29.54,ESE,113,0.0,0.0,62,0.00,,,0.00,WUHU216HW,2013-03-04 16:57:00,
2013-03-04 11:58:00,51.6,38.5,29.54,ESE,113,0.0,0.0,62,0.00,,,0.00,WUHU216HW,2013-03-04 16:58:00,
2013-03-04 11:59:00,48.3,21.1,29.79,WSW,248,0.0,0.0,34,0.00,,,0.00,WUHU216HW,2013-03-04 16:59:00,
2013-03-04 12:00:00,51.6,38.5,29.54,ESE,113,0.0,0.0,62,0.00,,,0.00,WUHU216HW,2013-03-04 17:00:00,
2013-03-04 12:01:00,51.6,38.5,29.55,SE,135,0.0,0.0,62,0.00,,,0.00,WUHU216HW,2013-03-04 17:01:00,
2013-03-04 12:02:00,51.6,38.5,29.54,SE,135,0.0,0.0,62,0.00,,,0.00,WUHU216HW,2013-03-04 17:02:00,
2013-03-04 12:03:00,51.4,38.7,29.54,SE,135,0.0,0.0,62,0.00,,,0.00,WUHU216HW,2013-03-04 17:03:00,
2013-03-04 12:04:00,47.6,21.8,29.79,WNW,293,0.0,0.6,36,0.00,,,0.00,WUHU216HW,2013-03-04 17:04:00,
2013-03-04 12:05:00,51.4,38.7,29.54,ESE,113,0.0,0.0,62,0.00,,,0.00,WUHU216HW,2013-03-04 17:05:00,
2013-03-04 12:07:00,51.4,38.7,29.54,SE,135,0.0,0.0,62,0.00,,,0.00,WUHU216HW,2013-03-04 17:07:00,
2013-03-04 12:09:00,47.4,20.3,29.79,West,270,2.9,7.3,35,0.00,,,0.00,WUHU216HW,2013-03-04 17:09:00,
2013-03-04 12:11:00,51.4,38.7,29.53,South,180,0.0,0.0,62,0.00,,,0.00,WUHU216HW,2013-03-04 17:11:00,
2013-03-04 12:14:00,47.1,20.0,29.79,WNW,293,5.3,7.8,34,0.00,,,0.00,WUHU216HW,2013-03-04 17:14:00,
2013-03-04 12:15:00,51.4,38.7,29.54,SSE,158,0.0,0.0,62,0.00,,,0.00,WUHU216HW,2013-03-04 17:15:00,
2013-03-04 12:16:00,51.4,38.7,29.54,SSE,158,0.0,0.0,62,0.00,,,0.00,WUHU216HW,2013-03-04 17:16:00,
2013-03-04 12:17:00,51.4,38.7,29.54,SSE,158,0.0,0.0,62,0.00,,,0.00,WUHU216HW,2013-03-04 17:17:00,
2013-03-04 12:18:00,51.2,38.6,29.54,ESE,113,0.0,0.0,62,0.00,,,0.00,WUHU216HW,2013-03-04 17:18:00,
2013-03-04 12:19:00,48.0,21.4,29.79,SW,225,0.0,7.8,35,0.00,,,0.00,WUHU216HW,2013-03-04 17:19:00,
2013-03-04 12:21:00,51.2,38.6,29.53,SE,135,0.0,0.0,62,0.00,,,0.00,WUHU216HW,2013-03-04 17:21:00,
2013-03-04 12:22:00,51.0,38.4,29.54,SE,135,0.0,0.0,62,0.00,,,0.00,WUHU216HW,2013-03-04 17:22:00,
2013-03-04 12:23:00,51.0,38.4,29.54,SE,135,0.0,0.0,62,0.00,,,0.00,WUHU216HW,2013-03-04 17:23:00,
2013-03-04 12:24:00,48.3,21.8,29.79,WSW,248,0.0,5.3,35,0.00,,,0.00,WUHU216HW,2013-03-04 17:24:00,
2013-03-04 12:25:00,51.0,38.4,29.54,SE,135,0.0,0.0,62,0.00,,,0.00,WUHU216HW,2013-03-04 17:25:00,
2013-03-04 12:27:00,51.0,38.4,29.54,SE,135,0.0,0.0,63,0.00,,,0.00,WUHU216HW,2013-03-04 17:27:00,
2013-03-04 12:29:00,48.9,21.5,29.78,West,270,2.9,2.9,34,0.00,,,0.00,WUHU216HW,2013-03-04 17:29:00,
2013-03-04 12:31:00,51.0,38.4,29.54,SW,225,0.0,0.0,63,0.00,,,0.00,WUHU216HW,2013-03-04 17:31:00,
2013-03-04 12:32:00,51.0,38.4,29.54,SW,225,0.0,0.0,63,0.00,,,0.00,WUHU216HW,2013-03-04 17:32:00,
2013-03-04 12:33:00,51.0,38.4,29.54,SW,225,0.0,0.0,63,0.00,,,0.00,WUHU216HW,2013-03-04 17:33:00,
2013-03-04 12:34:00,49.1,22.4,29.78,West,270,0.0,2.9,35,0.00,,,0.00,WUHU216HW,2013-03-04 17:34:00,
2013-03-04 12:35:00,51.0,38.4,29.54,SSW,203,0.0,0.0,63,0.00,,,0.00,WUHU216HW,2013-03-04 17:35:00,
2013-03-04 12:36:00,51.0,38.4,29.54,SSW,203,0.0,0.0,63,0.00,,,0.00,WUHU216HW,2013-03-04 17:36:00,
2013-03-04 12:38:00,51.0,38.4,29.54,SSW,203,0.0,0.0,63,0.00,,,0.00,WUHU216HW,2013-03-04 17:38:00,
2013-03-04 12:39:00,50.0,22.4,29.77,WNW,293,3.1,3.1,34,0.00,,,0.00,WUHU216HW,2013-03-04 17:39:00,
2013-03-04 12:40:00,51.0,38.4,29.54,SSE,158,0.0,0.0,63,0.00,,,0.00,WUHU216HW,2013-03-04 17:40:00,
2013-03-04 12:41:00,51.0,38.4,29.54,SSE,158,0.0,0.0,63,0.00,,,0.00,WUHU216HW,2013-03-04 17:41:00,
2013-03-04 12:42:00,51.0,38.4,29.54,South,180,0.0,0.0,63,0.00,,,0.00,WUHU216HW,2013-03-04 17:42:00,
2013-03-04 12:43:00,51.0,38.4,29.54,South,180,0.0,0.0,63,0.00,,,0.00,WUHU216HW,2013-03-04 17:43:00,
2013-03-04 12:44:00,49.6,22.1,29.77,West,270,0.0,6.7,34,0.00,,,0.00,WUHU216HW,2013-03-04 17:44:00,
2013-03-04 12:45:00,51.0,38.4,29.54,South,180,0.0,0.0,63,0.00,,,0.00,WUHU216HW,2013-03-04 17:45:00,
2013-03-04 12:46:00,51.0,38.4,29.54,South,180,0.0,0.0,63,0.00,,,0.00,WUHU216HW,2013-03-04 17:46:00,
2013-03-04 12:47:00,51.0,38.4,29.54,SSW,203,0.0,0.0,63,0.00,,,0.00,WUHU216HW,2013-03-04 17:47:00,
2013-03-04 12:48:00,51.0,38.4,29.54,SSW,203,0.0,0.0,63,0.00,,,0.00,WUHU216HW,2013-03-04 17:48:00,
2013-03-04 12:49:00,50.3,22.8,29.77,West,270,0.0,6.7,34,0.00,,,0.00,WUHU216HW,2013-03-04 17:49:00,
2013-03-04 12:50:00,51.0,38.4,29.54,SSW,203,0.0,0.0,63,0.00,,,0.00,WUHU216HW,2013-03-04 17:50:00,
2013-03-04 12:51:00,51.0,38.4,29.54,SSW,203,0.0,0.0,63,0.00,,,0.00,WUHU216HW,2013-03-04 17:51:00,
2013-03-04 12:52:00,51.0,38.4,29.54,SSW,203,0.0,0.0,63,0.00,,,0.00,WUHU216HW,2013-03-04 17:52:00,
2013-03-04 12:53:00,51.2,39.4,29.54,WSW,248,0.0,0.0,64,0.00,,,0.00,WUHU216HW,2013-03-04 17:53:00,
2013-03-04 12:54:00,50.9,23.9,29.78,West,270,0.0,0.0,35,0.00,,,0.00,WUHU216HW,2013-03-04 17:54:00,
2013-03-04 12:55:00,51.4,39.6,29.54,South,180,0.0,0.0,64,0.00,,,0.00,WUHU216HW,2013-03-04 17:55:00,
2013-03-04 12:56:00,51.4,39.6,29.54,South,180,0.0,0.0,64,0.00,,,0.00,WUHU216HW,2013-03-04 17:56:00,
2013-03-04 12:57:00,51.2,39.4,29.54,SSE,158,0.0,0.0,64,0.00,,,0.00,WUHU216HW,2013-03-04 17:57:00,
2013-03-04 12:58:00,51.2,39.4,29.54,SSE,158,0.0,0.0,64,0.00,,,0.00,WUHU216HW,2013-03-04 17:58:00,
2013-03-04 12:59:00,51.4,23.7,29.77,West,270,0.0,0.0,34,0.00,,,0.00,WUHU216HW,2013-03-04 17:59:00,
2013-03-04 13:00:00,51.4,39.6,29.54,SSE,158,0.0,0.0,64,0.00,,,0.00,WUHU216HW,2013-03-04 18:00:00,
2013-03-04 13:01:00,51.4,39.6,29.54,SE,135,0.0,0.0,64,0.00,,,0.00,WUHU216HW,2013-03-04 18:01:00,
2013-03-04 13:02:00,51.4,39.6,29.54,SE,135,0.0,0.0,64,0.00,,,0.00,WUHU216HW,2013-03-04 18:02:00,
2013-03-04 13:03:00,51.4,39.6,29.54,SE,135,0.0,0.0,64,0.00,,,0.00,WUHU216HW,2013-03-04 18:03:00,
2013-03-04 13:04:00,51.9,22.9,29.77,WSW,248,0.0,0.0,32,0.00,,,0.00,WUHU216HW,2013-03-04 18:04:00,
2013-03-04 13:05:00,51.4,39.6,29.54,SSE,158,0.0,0.0,64,0.00,,,0.00,WUHU216HW,2013-03-04 18:05:00,
2013-03-04 13:06:00,51.4,39.6,29.54,SSW,203,0.0,0.0,64,0.00,,,0.00,WUHU216HW,2013-03-04 18:06:00,
2013-03-04 13:07:00,51.4,39.6,29.54,SSW,203,0.0,0.0,64,0.00,,,0.00,WUHU216HW,2013-03-04 18:07:00,
2013-03-04 13:08:00,51.4,39.6,29.54,SW,225,0.0,0.0,64,0.00,,,0.00,WUHU216HW,2013-03-04 18:08:00,
2013-03-04 13:09:00,51.6,23.2,29.77,WNW,293,0.0,0.0,33,0.00,,,0.00,WUHU216HW,2013-03-04 18:09:00,
2013-03-04 13:10:00,51.4,39.6,29.54,SW,225,0.0,0.0,64,0.00,,,0.00,WUHU216HW,2013-03-04 18:10:00,
2013-03-04 13:11:00,51.4,39.6,29.54,SW,225,0.0,0.0,64,0.00,,,0.00,WUHU216HW,2013-03-04 18:11:00,
2013-03-04 13:12:00,51.4,39.6,29.54,WSW,248,0.0,0.0,64,0.00,,,0.00,WUHU216HW,2013-03-04 18:12:00,
2013-03-04 13:13:00,51.4,39.6,29.54,WSW,248,0.0,0.0,64,0.00,,,0.00,WUHU216HW,2013-03-04 18:13:00,
2013-03-04 13:14:00,51.4,39.6,29.54,WSW,248,0.0,0.0,64,0.00,,,0.00,WUHU216HW,2013-03-04 18:14:00,
2013-03-04 13:15:00,51.4,22.4,29.77,WSW,248,2.0,2.0,32,0.00,,,0.00,WUHU216HW,2013-03-04 18:15:00,
2013-03-04 13:16:00,51.4,39.6,29.54,SSE,158,0.0,0.0,64,0.00,,,0.00,WUHU216HW,2013-03-04 18:16:00,
2013-03-04 13:17:00,51.4,39.6,29.54,ESE,113,0.0,0.0,64,0.00,,,0.00,WUHU216HW,2013-03-04 18:17:00,
2013-03-04 13:18:00,51.4,39.6,29.54,ESE,113,0.0,0.0,64,0.00,,,0.00,WUHU216HW,2013-03-04 18:18:00,
2013-03-04 13:19:00,51.4,39.6,29.54,SSW,203,0.0,0.0,64,0.00,,,0.00,WUHU216HW,2013-03-04 18:19:00,
2013-03-04 13:20:00,50.9,20.5,29.77,West,270,0.0,6.9,30,0.00,,,0.00,WUHU216HW,2013-03-04 18:20:00,
2013-03-04 13:21:00,51.4,39.6,29.54,SSW,203,0.0,0.0,64,0.00,,,0.00,WUHU216HW,2013-03-04 18:21:00,
2013-03-04 13:22:00,51.4,39.6,29.54,SSW,203,0.0,0.0,64,0.00,,,0.00,WUHU216HW,2013-03-04 18:22:00,
2013-03-04 13:23:00,51.4,39.6,29.54,SSW,203,0.0,0.0,65,0.00,,,0.00,WUHU216HW,2013-03-04 18:23:00,
2013-03-04 13:24:00,51.4,39.6,29.54,SSW,203,0.0,0.0,65,0.00,,,0.00,WUHU216HW,2013-03-04 18:24:00,
2013-03-04 13:25:00,50.3,21.4,29.76,West,270,0.0,6.9,32,0.00,,,0.00,WUHU216HW,2013-03-04 18:25:00,
2013-03-04 13:26:00,51.4,39.6,29.54,SSW,203,0.0,0.0,64,0.00,,,0.00,WUHU216HW,2013-03-04 18:26:00,
2013-03-04 13:27:00,51.4,39.6,29.54,SSW,203,0.0,0.0,64,0.00,,,0.00,WUHU216HW,2013-03-04 18:27:00,
2013-03-04 13:28:00,51.4,39.6,29.54,SSW,203,0.0,0.0,64,0.00,,,0.00,WUHU216HW,2013-03-04 18:28:00,
2013-03-04 13:29:00,51.4,39.6,29.54,SSW,203,0.0,0.0,64,0.00,,,0.00,WUHU216HW,2013-03-04 18:29:00,
2013-03-04 13:30:00,51.2,39.8,29.54,SSW,203,0.0,0.0,65,0.00,,,0.00,WUHU216HW,2013-03-04 18:30:00,
2013-03-04 13:31:00,51.2,39.8,29.54,SSW,203,0.0,0.0,65,0.00,,,0.00,WUHU216HW,2013-03-04 18:31:00,
2013-03-04 13:32:00,51.2,39.8,29.54,SSW,203,0.0,0.0,65,0.00,,,0.00,WUHU216HW,2013-03-04 18:32:00,
2013-03-04 13:33:00,51.2,39.8,29.54,SSW,203,0.0,0.0,65,0.00,,,0.00,WUHU216HW,2013-03-04 18:33:00,
2013-03-04 13:34:00,51.2,39.8,29.54,SSW,203,0.0,0.0,65,0.00,,,0.00,WUHU216HW,2013-03-04 18:34:00,
2013-03-04 13:35:00,51.2,39.8,29.54,SSW,203,0.0,0.0,65,0.00,,,0.00,WUHU216HW,2013-03-04 18:35:00,
2013-03-04 13:36:00,51.4,40.0,29.54,SSW,203,0.0,0.0,65,0.00,,,0.00,WUHU216HW,2013-03-04 18:36:00,
2013-03-04 13:37:00,51.4,40.0,29.54,SSW,203,0.0,0.0,65,0.00,,,0.00,WUHU216HW,2013-03-04 18:37:00,
2013-03-04 13:38:00,51.4,40.0,29.54,SSW,203,0.0,0.0,65,0.00,,,0.00,WUHU216HW,2013-03-04 18:38:00,
2013-03-04 13:39:00,51.4,40.0,29.54,SSW,203,0.0,0.0,65,0.00,,,0.00,WUHU216HW,2013-03-04 18:39:00,
2013-03-04 13:40:00,51.4,40.0,29.54,SSW,203,0.0,0.0,65,0.00,,,0.00,WUHU216HW,2013-03-04 18:40:00,
2013-03-04 13:41:00,51.4,40.0,29.54,SSW,203,0.0,0.0,65,0.00,,,0.00,WUHU216HW,2013-03-04 18:41:00,
2013-03-04 13:42:00,51.4,40.0,29.54,SSW,203,0.0,0.0,65,0.00,,,0.00,WUHU216HW,2013-03-04 18:42:00,
2013-03-04 13:43:00,50.7,21.7,29.76,West,270,4.0,5.8,32,0.00,,,0.00,WUHU216HW,2013-03-04 18:43:00,
2013-03-04 13:44:00,51.4,40.0,29.54,SSW,203,0.0,0.0,65,0.00,,,0.00,WUHU216HW,2013-03-04 18:44:00,
2013-03-04 13:45:00,51.4,40.0,29.54,SSW,203,0.0,0.0,65,0.00,,,0.00,WUHU216HW,2013-03-04 18:45:00,
2013-03-04 13:46:00,51.4,40.0,29.54,SSW,203,0.0,0.0,65,0.00,,,0.00,WUHU216HW,2013-03-04 18:46:00,
2013-03-04 13:47:00,51.2,39.8,29.54,SSW,203,0.0,0.0,65,0.00,,,0.00,WUHU216HW,2013-03-04 18:47:00,
2013-03-04 13:48:00,50.5,21.6,29.75,WSW,248,0.0,5.8,32,0.00,,,0.00,WUHU216HW,2013-03-04 18:48:00,
2013-03-04 13:49:00,51.0,39.6,29.54,SW,225,0.0,0.0,65,0.00,,,0.00,WUHU216HW,2013-03-04 18:49:00,
2013-03-04 13:50:00,51.0,39.6,29.54,SW,225,0.0,0.0,65,0.00,,,0.00,WUHU216HW,2013-03-04 18:50:00,
2013-03-04 13:52:00,51.2,39.8,29.54,SW,225,0.0,0.0,65,0.00,,,0.00,WUHU216HW,2013-03-04 18:52:00,
2013-03-04 13:53:00,50.5,21.6,29.75,WSW,248,0.0,4.0,32,0.00,,,0.00,WUHU216HW,2013-03-04 18:53:00,
2013-03-04 13:55:00,51.0,39.6,29.54,WNW,293,0.0,0.0,65,0.00,,,0.00,WUHU216HW,2013-03-04 18:55:00,
2013-03-04 13:56:00,51.0,39.6,29.54,WNW,293,0.0,0.0,65,0.00,,,0.00,WUHU216HW,2013-03-04 18:56:00,
2013-03-04 13:57:00,51.0,39.6,29.54,WNW,293,0.0,0.0,65,0.00,,,0.00,WUHU216HW,2013-03-04 18:57:00,
2013-03-04 13:58:00,50.1,23.3,29.75,West,270,0.0,0.0,35,0.00,,,0.00,WUHU216HW,2013-03-04 18:58:00,
2013-03-04 13:59:00,51.0,39.6,29.55,WNW,293,0.0,0.0,65,0.00,,,0.00,WUHU216HW,2013-03-04 18:59:00,
2013-03-04 14:00:00,51.0,39.6,29.54,WSW,248,0.0,0.0,65,0.00,,,0.00,WUHU216HW,2013-03-04 19:00:00,
2013-03-04 14:01:00,51.0,39.6,29.55,WSW,248,0.0,0.0,65,0.00,,,0.00,WUHU216HW,2013-03-04 19:01:00,
2013-03-04 14:02:00,51.0,39.6,29.55,WSW,248,0.0,0.0,65,0.00,,,0.00,WUHU216HW,2013-03-04 19:02:00,
2013-03-04 14:03:00,50.3,22.1,29.74,WNW,293,0.0,2.0,33,0.00,,,0.00,WUHU216HW,2013-03-04 19:03:00,
2013-03-04 14:04:00,51.0,39.6,29.55,SSE,158,0.0,0.0,66,0.00,,,0.00,WUHU216HW,2013-03-04 19:04:00,
2013-03-04 14:05:00,51.0,39.6,29.55,SSE,158,0.0,0.0,66,0.00,,,0.00,WUHU216HW,2013-03-04 19:05:00,
2013-03-04 14:06:00,51.2,40.2,29.54,WSW,248,0.0,0.0,66,0.00,,,0.00,WUHU216HW,2013-03-04 19:06:00,
2013-03-04 14:07:00,51.2,40.2,29.54,WSW,248,0.0,0.0,66,0.00,,,0.00,WUHU216HW,2013-03-04 19:07:00,
2013-03-04 14:08:00,50.9,23.9,29.74,West,270,0.0,2.0,35,0.00,,,0.00,WUHU216HW,2013-03-04 19:08:00,
2013-03-04 14:09:00,51.4,40.4,29.54,WSW,248,0.0,0.0,66,0.00,,,0.00,WUHU216HW,2013-03-04 19:09:00,
2013-03-04 14:10:00,51.4,40.4,29.54,WSW,248,0.0,0.0,66,0.00,,,0.00,WUHU216HW,2013-03-04 19:10:00,
2013-03-04 14:11:00,51.4,40.4,29.54,WSW,248,0.0,0.0,66,0.00,,,0.00,WUHU216HW,2013-03-04 19:11:00,
2013-03-04 14:12:00,51.4,40.4,29.54,WSW,248,0.0,0.0,66,0.00,,,0.00,WUHU216HW,2013-03-04 19:12:00,
2013-03-04 14:13:00,51.4,40.4,29.55,WSW,248,0.0,0.0,66,0.00,,,0.00,WUHU216HW,2013-03-04 19:13:00,
2013-03-04 14:14:00,51.0,24.1,29.74,WNW,293,0.0,0.0,34,0.00,,,0.00,WUHU216HW,2013-03-04 19:14:00,
2013-03-04 14:15:00,51.4,40.4,29.55,WSW,248,0.0,0.0,66,0.00,,,0.00,WUHU216HW,2013-03-04 19:15:00,
2013-03-04 14:16:00,51.4,40.4,29.55,WSW,248,0.0,0.0,66,0.00,,,0.00,WUHU216HW,2013-03-04 19:16:00,
2013-03-04 14:17:00,51.4,40.4,29.55,WSW,248,0.0,0.0,66,0.00,,,0.00,WUHU216HW,2013-03-04 19:17:00,
2013-03-04 14:18:00,51.4,40.4,29.55,WSW,248,0.0,0.0,66,0.00,,,0.00,WUHU216HW,2013-03-04 19:18:00,
2013-03-04 14:19:00,51.0,22.1,29.74,WSW,248,0.0,0.0,32,0.00,,,0.00,WUHU216HW,2013-03-04 19:19:00,
2013-03-04 14:20:00,51.4,40.4,29.55,SSE,158,0.0,0.0,66,0.00,,,0.00,WUHU216HW,2013-03-04 19:20:00,
2013-03-04 14:21:00,51.6,40.6,29.55,SSE,158,0.0,0.0,66,0.00,,,0.00,WUHU216HW,2013-03-04 19:21:00,
2013-03-04 14:22:00,51.6,40.6,29.55,SSE,158,0.0,0.0,66,0.00,,,0.00,WUHU216HW,2013-03-04 19:22:00,
2013-03-04 14:23:00,51.6,40.6,29.55,SSE,158,0.0,0.0,66,0.00,,,0.00,WUHU216HW,2013-03-04 19:23:00,
2013-03-04 14:24:00,51.4,23.1,29.74,SSE,158,2.2,2.2,33,0.00,,,0.00,WUHU216HW,2013-03-04 19:24:00,
2013-03-04 14:26:00,51.6,40.6,29.56,SSE,158,0.0,0.0,66,0.00,,,0.00,WUHU216HW,2013-03-04 19:26:00,
2013-03-04 14:27:00,51.6,40.6,29.55,SSE,158,0.0,0.0,66,0.00,,,0.00,WUHU216HW,2013-03-04 19:27:00,
2013-03-04 14:28:00,51.6,40.6,29.55,SSE,158,0.0,0.0,66,0.00,,,0.00,WUHU216HW,2013-03-04 19:28:00,
2013-03-04 14:29:00,51.4,23.1,29.74,SE,135,0.0,2.2,32,0.00,,,0.00,WUHU216HW,2013-03-04 19:29:00,
2013-03-04 14:30:00,51.6,40.6,29.55,SSE,158,0.0,0.0,66,0.00,,,0.00,WUHU216HW,2013-03-04 19:30:00,
2013-03-04 14:31:00,51.6,40.6,29.55,SSE,158,0.0,0.0,66,0.00,,,0.00,WUHU216HW,2013-03-04 19:31:00,
2013-03-04 14:32:00,51.6,40.6,29.55,WSW,248,0.0,0.0,66,0.00,,,0.00,WUHU216HW,2013-03-04 19:32:00,
2013-03-04 14:33:00,51.6,40.6,29.56,WSW,248,0.0,0.0,66,0.00,,,0.00,WUHU216HW,2013-03-04 19:33:00,
2013-03-04 14:34:00,52.1,21.7,29.74,SSW,203,2.0,2.2,30,0.00,,,0.00,WUHU216HW,2013-03-04 19:34:00,
2013-03-04 14:35:00,51.6,40.6,29.55,West,270,0.0,0.0,66,0.00,,,0.00,WUHU216HW,2013-03-04 19:35:00,
2013-03-04 14:36:00,51.6,40.6,29.55,West,270,0.0,0.0,66,0.00,,,0.00,WUHU216HW,2013-03-04 19:36:00,
2013-03-04 14:37:00,51.6,40.6,29.55,West,270,0.0,0.0,66,0.00,,,0.00,WUHU216HW,2013-03-04 19:37:00,
2013-03-04 14:38:00,51.6,40.6,29.55,West,270,0.0,0.0,66,0.00,,,0.00,WUHU216HW,2013-03-04 19:38:00,
2013-03-04 14:39:00,52.5,24.7,29.74,WNW,293,1.7,2.0,34,0.00,,,0.00,WUHU216HW,2013-03-04 19:39:00,
2013-03-04 14:40:00,51.8,40.7,29.55,West,270,0.0,0.0,66,0.00,,,0.00,WUHU216HW,2013-03-04 19:40:00,
2013-03-04 14:41:00,51.8,40.7,29.55,West,270,0.0,0.0,66,0.00,,,0.00,WUHU216HW,2013-03-04 19:41:00,
2013-03-04 14:43:00,51.9,40.9,29.55,West,270,0.0,0.0,66,0.00,,,0.00,WUHU216HW,2013-03-04 19:43:00,
2013-03-04 14:44:00,52.5,22.0,29.74,WSW,248,0.0,2.0,30,0.00,,,0.00,WUHU216HW,2013-03-04 19:44:00,
2013-03-04 14:45:00,51.9,40.9,29.55,SSE,158,0.0,0.0,66,0.00,,,0.00,WUHU216HW,2013-03-04 19:45:00,
2013-03-04 14:46:00,51.9,40.9,29.56,SSE,158,0.0,0.0,66,0.00,,,0.00,WUHU216HW,2013-03-04 19:46:00,
2013-03-04 14:47:00,51.9,40.9,29.56,SW,225,0.0,0.0,66,0.00,,,0.00,WUHU216HW,2013-03-04 19:47:00,
2013-03-04 14:48:00,51.9,40.9,29.56,SW,225,0.0,0.0,66,0.00,,,0.00,WUHU216HW,2013-03-04 19:48:00,
2013-03-04 14:49:00,52.5,22.0,29.73,WNW,293,0.0,1.7,31,0.00,,,0.00,WUHU216HW,2013-03-04 19:49:00,
2013-03-04 14:50:00,51.9,40.9,29.55,SW,225,0.0,0.0,66,0.00,,,0.00,WUHU216HW,2013-03-04 19:50:00,
2013-03-04 14:52:00,52.1,41.1,29.55,SW,225,0.0,0.0,66,0.00,,,0.00,WUHU216HW,2013-03-04 19:52:00,
2013-03-04 14:53:00,52.1,41.1,29.55,SW,225,0.0,0.0,66,0.00,,,0.00,WUHU216HW,2013-03-04 19:53:00,
2013-03-04 14:54:00,53.0,23.2,29.73,West,270,0.0,0.0,31,0.00,,,0.00,WUHU216HW,2013-03-04 19:54:00,
2013-03-04 14:55:00,52.1,41.1,29.55,SW,225,0.0,0.0,66,0.00,,,0.00,WUHU216HW,2013-03-04 19:55:00,
2013-03-04 14:56:00,52.1,41.1,29.55,SW,225,0.0,0.0,66,0.00,,,0.00,WUHU216HW,2013-03-04 19:56:00,
2013-03-04 14:57:00,52.1,41.1,29.55,SW,225,0.0,0.0,66,0.00,,,0.00,WUHU216HW,2013-03-04 19:57:00,
2013-03-04 14:58:00,52.1,41.1,29.55,SE,135,0.0,0.0,66,0.00,,,0.00,WUHU216HW,2013-03-04 19:58:00,
2013-03-04 14:59:00,53.6,24.3,29.73,WSW,248,0.0,0.0,32,0.00,,,0.00,WUHU216HW,2013-03-04 19:59:00,
2013-03-04 15:00:00,52.1,41.1,29.55,SE,135,0.0,0.0,66,0.00,,,0.00,WUHU216HW,2013-03-04 20:00:00,
2013-03-04 15:01:00,52.1,41.1,29.55,SE,135,0.0,0.0,66,0.00,,,0.00,WUHU216HW,2013-03-04 20:01:00,
2013-03-04 15:02:00,52.1,41.1,29.56,SE,135,0.0,0.0,66,0.00,,,0.00,WUHU216HW,2013-03-04 20:02:00,
2013-03-04 15:03:00,52.1,41.1,29.55,SE,135,0.0,0.0,66,0.00,,,0.00,WUHU216HW,2013-03-04 20:03:00,
2013-03-04 15:04:00,53.4,22.8,29.73,WSW,248,0.0,0.0,30,0.00,,,0.00,WUHU216HW,2013-03-04 20:04:00,
2013-03-04 15:05:00,52.3,41.2,29.55,SE,135,0.0,0.0,66,0.00,,,0.00,WUHU216HW,2013-03-04 20:05:00,
2013-03-04 15:06:00,52.3,41.2,29.55,SE,135,0.0,0.0,66,0.00,,,0.00,WUHU216HW,2013-03-04 20:06:00,
2013-03-04 15:07:00,52.3,41.2,29.55,SE,135,0.0,0.0,66,0.00,,,0.00,WUHU216HW,2013-03-04 20:07:00,
2013-03-04 15:08:00,52.5,41.4,29.55,SE,135,0.0,0.0,66,0.00,,,0.00,WUHU216HW,2013-03-04 20:08:00,
2013-03-04 15:09:00,52.5,41.4,29.55,SE,135,0.0,0.0,66,0.00,,,0.00,WUHU216HW,2013-03-04 20:09:00,
2013-03-04 15:10:00,54.1,24.1,29.72,West,270,0.0,0.0,31,0.00,,,0.00,WUHU216HW,2013-03-04 20:10:00,
2013-03-04 15:11:00,52.5,41.4,29.55,SE,135,0.0,0.0,66,0.00,,,0.00,WUHU216HW,2013-03-04 20:11:00,
2013-03-04 15:12:00,52.5,41.4,29.55,SE,135,0.0,0.0,66,0.00,,,0.00,WUHU216HW,2013-03-04 20:12:00,
2013-03-04 15:13:00,52.5,41.4,29.55,SE,135,0.0,0.0,66,0.00,,,0.00,WUHU216HW,2013-03-04 20:13:00,
2013-03-04 15:14:00,52.7,41.6,29.55,SSW,203,0.0,0.0,66,0.00,,,0.00,WUHU216HW,2013-03-04 20:14:00,
2013-03-04 15:15:00,54.6,23.8,29.72,WNW,293,0.0,4.6,30,0.00,,,0.00,WUHU216HW,2013-03-04 20:15:00,
2013-03-04 15:17:00,52.7,41.6,29.54,SSW,203,0.0,0.0,66,0.00,,,0.00,WUHU216HW,2013-03-04 20:17:00,
2013-03-04 15:18:00,52.7,41.6,29.54,SSW,203,0.0,0.0,66,0.00,,,0.00,WUHU216HW,2013-03-04 20:18:00,
2013-03-04 15:19:00,52.8,41.8,29.55,SSW,203,0.0,0.0,66,0.00,,,0.00,WUHU216HW,2013-03-04 20:19:00,
2013-03-04 15:20:00,54.6,23.8,29.72,WSW,248,0.0,4.6,29,0.00,,,0.00,WUHU216HW,2013-03-04 20:20:00,
2013-03-04 15:21:00,52.8,41.8,29.55,SSW,203,0.0,0.0,66,0.00,,,0.00,WUHU216HW,2013-03-04 20:21:00,
2013-03-04 15:22:00,52.8,41.8,29.54,SSW,203,0.0,0.0,66,0.00,,,0.00,WUHU216HW,2013-03-04 20:22:00,
2013-03-04 15:23:00,52.8,41.8,29.54,SSW,203,0.0,0.0,66,0.00,,,0.00,WUHU216HW,2013-03-04 20:23:00,
2013-03-04 15:24:00,52.8,41.8,29.54,SSW,203,0.0,0.0,66,0.00,,,0.00,WUHU216HW,2013-03-04 20:24:00,
2013-03-04 15:25:00,54.8,23.0,29.72,NW,315,0.0,4.6,29,0.00,,,0.00,WUHU216HW,2013-03-04 20:25:00,
2013-03-04 15:26:00,53.2,42.1,29.54,South,180,0.0,0.0,66,0.00,,,0.00,WUHU216HW,2013-03-04 20:26:00,
2013-03-04 15:27:00,53.2,42.1,29.54,South,180,0.0,0.0,66,0.00,,,0.00,WUHU216HW,2013-03-04 20:27:00,
2013-03-04 15:28:00,53.2,42.1,29.54,SSW,203,0.0,0.0,66,0.00,,,0.00,WUHU216HW,2013-03-04 20:28:00,
2013-03-04 15:29:00,53.2,42.1,29.55,SSW,203,0.0,0.0,66,0.00,,,0.00,WUHU216HW,2013-03-04 20:29:00,
2013-03-04 15:30:00,55.0,22.2,29.72,WNW,293,3.5,4.6,28,0.00,,,0.00,WUHU216HW,2013-03-04 20:30:00,
2013-03-04 15:31:00,53.2,42.1,29.54,SE,135,1.3,1.3,66,0.00,,,0.00,WUHU216HW,2013-03-04 20:31:00,
2013-03-04 15:32:00,53.4,42.3,29.55,SSE,158,0.0,1.3,66,0.00,,,0.00,WUHU216HW,2013-03-04 20:32:00,
2013-03-04 15:33:00,53.4,42.3,29.55,SSE,158,0.0,1.3,66,0.00,,,0.00,WUHU216HW,2013-03-04 20:33:00,
2013-03-04 15:34:00,53.4,42.3,29.54,SSE,158,0.0,1.3,66,0.00,,,0.00,WUHU216HW,2013-03-04 20:34:00,
2013-03-04 15:35:00,54.3,22.6,29.72,WSW,248,0.0,9.1,29,0.00,,,0.00,WUHU216HW,2013-03-04 20:35:00,
2013-03-04 15:37:00,53.6,42.4,29.54,SSE,158,0.0,1.3,66,0.00,,,0.00,WUHU216HW,2013-03-04 20:37:00,
2013-03-04 15:39:00,53.6,42.4,29.54,SW,225,0.0,1.3,66,0.00,,,0.00,WUHU216HW,2013-03-04 20:39:00,
2013-03-04 15:40:00,53.4,21.8,29.72,WSW,248,0.0,9.1,29,0.00,,,0.00,WUHU216HW,2013-03-04 20:40:00,
2013-03-04 15:42:00,53.7,42.6,29.54,SSE,158,0.0,0.0,66,0.00,,,0.00,WUHU216HW,2013-03-04 20:42:00,
2013-03-04 15:43:00,53.7,42.6,29.54,SE,135,3.1,3.1,66,0.00,,,0.00,WUHU216HW,2013-03-04 20:43:00,
2013-03-04 15:44:00,53.7,42.6,29.54,SE,135,3.1,3.1,66,0.00,,,0.00,WUHU216HW,2013-03-04 20:44:00,
2013-03-04 15:45:00,53.4,21.8,29.72,West,270,0.0,0.0,29,0.00,,,0.00,WUHU216HW,2013-03-04 20:45:00,
2013-03-04 15:46:00,53.9,42.8,29.54,SW,225,0.0,3.1,66,0.00,,,0.00,WUHU216HW,2013-03-04 20:46:00,
2013-03-04 15:47:00,53.9,42.8,29.54,South,180,0.0,3.1,66,0.00,,,0.00,WUHU216HW,2013-03-04 20:47:00,
2013-03-04 15:48:00,53.9,42.8,29.54,South,180,0.0,3.1,66,0.00,,,0.00,WUHU216HW,2013-03-04 20:48:00,
2013-03-04 15:49:00,53.9,42.8,29.54,South,180,0.0,3.1,66,0.00,,,0.00,WUHU216HW,2013-03-04 20:49:00,
2013-03-04 15:50:00,54.1,42.5,29.54,SSE,158,0.0,3.1,65,0.00,,,0.00,WUHU216HW,2013-03-04 20:50:00,
2013-03-04 15:51:00,53.4,21.8,29.72,West,270,4.4,6.0,29,0.00,,,0.00,WUHU216HW,2013-03-04 20:51:00,
2013-03-04 15:52:00,54.1,42.5,29.54,SSW,203,0.0,3.1,65,0.00,,,0.00,WUHU216HW,2013-03-04 20:52:00,
2013-03-04 15:53:00,54.1,42.5,29.54,SSW,203,0.0,3.1,65,0.00,,,0.00,WUHU216HW,2013-03-04 20:53:00,
2013-03-04 15:54:00,54.1,42.5,29.54,SSW,203,0.0,3.1,66,0.00,,,0.00,WUHU216HW,2013-03-04 20:54:00,
2013-03-04 15:55:00,54.1,42.5,29.54,SSW,203,0.0,0.0,66,0.00,,,0.00,WUHU216HW,2013-03-04 20:55:00,
2013-03-04 15:56:00,53.4,21.8,29.72,West,270,0.0,6.0,30,0.00,,,0.00,WUHU216HW,2013-03-04 20:56:00,
2013-03-04 15:57:00,54.3,42.7,29.54,SW,225,0.0,0.0,65,0.00,,,0.00,WUHU216HW,2013-03-04 20:57:00,
2013-03-04 15:58:00,54.3,42.7,29.54,SSE,158,0.0,0.0,65,0.00,,,0.00,WUHU216HW,2013-03-04 20:58:00,
2013-03-04 15:59:00,54.3,42.7,29.54,SSE,158,0.0,0.0,65,0.00,,,0.00,WUHU216HW,2013-03-04 20:59:00,
2013-03-04 16:00:00,54.6,43.1,29.54,South,180,0.0,0.0,65,0.00,,,0.00,WUHU216HW,2013-03-04 21:00:00,
2013-03-04 16:01:00,53.4,21.8,29.72,West,270,0.0,0.0,29,0.00,,,0.00,WUHU216HW,2013-03-04 21:01:00,
2013-03-04 16:02:00,54.6,43.1,29.54,SE,135,0.0,0.0,65,0.00,,,0.00,WUHU216HW,2013-03-04 21:02:00,
2013-03-04 16:03:00,54.6,43.1,29.54,SE,135,0.0,0.0,65,0.00,,,0.00,WUHU216HW,2013-03-04 21:03:00,
2013-03-04 16:04:00,54.6,43.1,29.54,SE,135,0.0,0.0,65,0.00,,,0.00,WUHU216HW,2013-03-04 21:04:00,
2013-03-04 16:05:00,54.6,43.1,29.54,SE,135,0.0,0.0,65,0.00,,,0.00,WUHU216HW,2013-03-04 21:05:00,
2013-03-04 16:06:00,53.2,23.3,29.72,North,0,0.0,0.0,31,0.00,,,0.00,WUHU216HW,2013-03-04 21:06:00,
2013-03-04 16:07:00,54.6,43.1,29.54,SE,135,0.0,0.0,65,0.00,,,0.00,WUHU216HW,2013-03-04 21:07:00,
2013-03-04 16:08:00,54.6,43.1,29.54,SE,135,0.0,0.0,65,0.00,,,0.00,WUHU216HW,2013-03-04 21:08:00,
2013-03-04 16:09:00,54.6,43.1,29.54,SE,135,0.0,0.0,65,0.00,,,0.00,WUHU216HW,2013-03-04 21:09:00,
2013-03-04 16:10:00,54.6,43.1,29.54,SE,135,0.0,0.0,65,0.00,,,0.00,WUHU216HW,2013-03-04 21:10:00,
2013-03-04 16:11:00,53.2,23.3,29.72,North,0,0.0,0.0,31,0.00,,,0.00,WUHU216HW,2013-03-04 21:11:00,
2013-03-04 16:12:00,54.8,43.2,29.54,SSE,158,0.0,0.0,65,0.00,,,0.00,WUHU216HW,2013-03-04 21:12:00,
2013-03-04 16:13:00,54.8,43.2,29.54,West,270,0.0,0.0,65,0.00,,,0.00,WUHU216HW,2013-03-04 21:13:00,
2013-03-04 16:14:00,54.8,43.2,29.54,West,270,0.0,0.0,65,0.00,,,0.00,WUHU216HW,2013-03-04 21:14:00,
2013-03-04 16:15:00,55.0,43.4,29.54,SW,225,0.0,0.0,65,0.00,,,0.00,WUHU216HW,2013-03-04 21:15:00,
2013-03-04 16:16:00,53.2,23.3,29.72,North,0,0.0,0.0,30,0.00,,,0.00,WUHU216HW,2013-03-04 21:16:00,
2013-03-04 16:17:00,55.0,43.4,29.54,SSW,203,1.1,1.1,65,0.00,,,0.00,WUHU216HW,2013-03-04 21:17:00,
2013-03-04 16:18:00,55.0,43.4,29.54,SSW,203,1.1,1.1,65,0.00,,,0.00,WUHU216HW,2013-03-04 21:18:00,
2013-03-04 16:19:00,55.0,43.4,29.54,SSW,203,1.1,1.1,65,0.00,,,0.00,WUHU216HW,2013-03-04 21:19:00,
2013-03-04 16:20:00,55.0,43.4,29.54,SSW,203,0.0,1.1,65,0.00,,,0.00,WUHU216HW,2013-03-04 21:20:00,
2013-03-04 16:21:00,52.3,20.9,29.72,WNW,293,4.2,4.2,29,0.00,,,0.00,WUHU216HW,2013-03-04 21:21:00,
2013-03-04 16:22:00,55.0,43.4,29.54,SSW,203,0.0,1.1,65,0.00,,,0.00,WUHU216HW,2013-03-04 21:22:00,
2013-03-04 16:23:00,55.0,43.4,29.54,SSW,203,0.0,1.1,65,0.00,,,0.00,WUHU216HW,2013-03-04 21:23:00,
2013-03-04 16:24:00,55.2,43.6,29.54,WSW,248,0.0,1.1,65,0.00,,,0.00,WUHU216HW,2013-03-04 21:24:00,
2013-03-04 16:25:00,55.2,43.6,29.54,WSW,248,0.0,1.1,65,0.00,,,0.00,WUHU216HW,2013-03-04 21:25:00,
2013-03-04 16:26:00,51.9,20.6,29.73,NW,315,0.0,4.2,29,0.00,,,0.00,WUHU216HW,2013-03-04 21:26:00,
2013-03-04 16:27:00,55.2,43.6,29.55,WSW,248,0.0,1.1,65,0.00,,,0.00,WUHU216HW,2013-03-04 21:27:00,
2013-03-04 16:28:00,55.2,43.6,29.55,WNW,293,0.0,1.1,65,0.00,,,0.00,WUHU216HW,2013-03-04 21:28:00,
2013-03-04 16:29:00,55.2,43.6,29.55,WNW,293,0.0,0.0,65,0.00,,,0.00,WUHU216HW,2013-03-04 21:29:00,
2013-03-04 16:30:00,55.2,43.6,29.55,WSW,248,0.0,0.0,65,0.00,,,0.00,WUHU216HW,2013-03-04 21:30:00,
2013-03-04 16:31:00,51.9,20.6,29.72,WNW,293,5.1,5.1,29,0.00,,,0.00,WUHU216HW,2013-03-04 21:31:00,
2013-03-04 16:32:00,55.4,43.7,29.55,WSW,248,0.0,0.0,65,0.00,,,0.00,WUHU216HW,2013-03-04 21:32:00,
2013-03-04 16:33:00,55.4,43.7,29.55,WSW,248,0.0,0.0,65,0.00,,,0.00,WUHU216HW,2013-03-04 21:33:00,
2013-03-04 16:34:00,55.2,43.6,29.55,WSW,248,0.0,0.0,65,0.00,,,0.00,WUHU216HW,2013-03-04 21:34:00,
2013-03-04 16:35:00,55.2,43.6,29.55,WSW,248,0.0,0.0,65,0.00,,,0.00,WUHU216HW,2013-03-04 21:35:00,
2013-03-04 16:36:00,51.6,20.2,29.72,West,270,0.0,5.1,30,0.00,,,0.00,WUHU216HW,2013-03-04 21:36:00,
2013-03-04 16:37:00,55.5,43.9,29.55,WSW,248,0.0,0.0,65,0.00,,,0.00,WUHU216HW,2013-03-04 21:37:00,
2013-03-04 16:38:00,55.5,43.9,29.56,WSW,248,0.0,0.0,65,0.00,,,0.00,WUHU216HW,2013-03-04 21:38:00,
2013-03-04 16:39:00,55.4,44.2,29.56,WSW,248,0.0,0.0,66,0.00,,,0.00,WUHU216HW,2013-03-04 21:39:00,
2013-03-04 16:40:00,55.4,44.2,29.56,WSW,248,0.0,0.0,66,0.00,,,0.00,WUHU216HW,2013-03-04 21:40:00,
2013-03-04 16:41:00,51.4,21.0,29.73,SW,225,0.0,5.1,29,0.00,,,0.00,WUHU216HW,2013-03-04 21:41:00,
2013-03-04 16:42:00,55.5,44.3,29.56,WSW,248,0.0,0.0,66,0.00,,,0.00,WUHU216HW,2013-03-04 21:42:00,
2013-03-04 16:43:00,55.5,44.3,29.55,WSW,248,0.0,0.0,65,0.00,,,0.00,WUHU216HW,2013-03-04 21:43:00,
2013-03-04 16:44:00,55.5,44.3,29.55,WSW,248,0.0,0.0,65,0.00,,,0.00,WUHU216HW,2013-03-04 21:44:00,
2013-03-04 16:45:00,55.5,44.3,29.55,SSE,158,4.2,4.2,66,0.00,,,0.00,WUHU216HW,2013-03-04 21:45:00,
2013-03-04 16:46:00,51.0,20.7,29.73,NW,315,0.0,3.1,30,0.00,,,0.00,WUHU216HW,2013-03-04 21:46:00,
2013-03-04 16:47:00,55.5,44.3,29.55,SSE,158,0.0,4.2,66,0.00,,,0.00,WUHU216HW,2013-03-04 21:47:00,
2013-03-04 16:48:00,55.5,44.3,29.55,SSE,158,0.0,4.2,66,0.00,,,0.00,WUHU216HW,2013-03-04 21:48:00,
2013-03-04 16:49:00,55.5,44.3,29.54,SW,225,0.0,4.2,66,0.00,,,0.00,WUHU216HW,2013-03-04 21:49:00,
2013-03-04 16:50:00,55.5,44.3,29.55,SW,225,0.0,4.2,66,0.00,,,0.00,WUHU216HW,2013-03-04 21:50:00,
2013-03-04 16:51:00,51.2,21.5,29.73,West,270,0.0,0.0,30,0.00,,,0.00,WUHU216HW,2013-03-04 21:51:00,
2013-03-04 16:52:00,55.5,44.3,29.54,ESE,113,0.0,4.2,66,0.00,,,0.00,WUHU216HW,2013-03-04 21:52:00,
2013-03-04 16:53:00,55.5,44.3,29.55,ESE,113,0.0,4.2,66,0.00,,,0.00,WUHU216HW,2013-03-04 21:53:00,
2013-03-04 16:54:00,55.5,44.3,29.55,West,270,0.0,4.2,66,0.00,,,0.00,WUHU216HW,2013-03-04 21:54:00,
2013-03-04 16:55:00,55.5,44.3,29.55,West,270,0.0,4.2,66,0.00,,,0.00,WUHU216HW,2013-03-04 21:55:00,
2013-03-04 16:56:00,51.0,20.7,29.73,West,270,0.0,0.0,31,0.00,,,0.00,WUHU216HW,2013-03-04 21:56:00,
2013-03-04 16:57:00,55.7,44.5,29.55,SSE,158,0.0,0.0,66,0.00,,,0.00,WUHU216HW,2013-03-04 21:57:00,
2013-03-04 16:58:00,55.7,44.5,29.55,SE,135,1.1,1.1,66,0.00,,,0.00,WUHU216HW,2013-03-04 21:58:00,
2013-03-04 16:59:00,55.7,44.5,29.55,SE,135,1.1,1.1,66,0.00,,,0.00,WUHU216HW,2013-03-04 21:59:00,
2013-03-04 17:00:00,55.9,44.7,29.55,SSE,158,0.0,1.1,66,0.00,,,0.00,WUHU216HW,2013-03-04 22:00:00,
2013-03-04 17:01:00,55.9,44.7,29.55,SSE,158,0.0,1.1,66,0.00,,,0.00,WUHU216HW,2013-03-04 22:01:00,
2013-03-04 17:02:00,50.9,21.2,29.73,WSW,248,0.0,0.0,31,0.00,,,0.00,WUHU216HW,2013-03-04 22:02:00,
2013-03-04 17:03:00,55.9,44.7,29.54,South,180,0.0,1.1,65,0.00,,,0.00,WUHU216HW,2013-03-04 22:03:00,
2013-03-04 17:04:00,55.9,44.7,29.54,South,180,0.0,1.1,65,0.00,,,0.00,WUHU216HW,2013-03-04 22:04:00,
2013-03-04 17:05:00,55.9,44.7,29.54,WSW,248,0.0,1.1,66,0.00,,,0.00,WUHU216HW,2013-03-04 22:05:00,
2013-03-04 17:06:00,55.9,44.7,29.54,WSW,248,0.0,1.1,66,0.00,,,0.00,WUHU216HW,2013-03-04 22:06:00,
2013-03-04 17:07:00,50.7,21.7,29.73,WNW,293,0.0,0.0,31,0.00,,,0.00,WUHU216HW,2013-03-04 22:07:00,
2013-03-04 17:08:00,55.9,44.7,29.54,WSW,248,0.0,1.1,66,0.00,,,0.00,WUHU216HW,2013-03-04 22:08:00,
2013-03-04 17:09:00,55.9,44.7,29.55,SW,225,0.0,1.1,66,0.00,,,0.00,WUHU216HW,2013-03-04 22:09:00,
2013-03-04 17:10:00,55.9,44.7,29.54,SW,225,0.0,0.0,66,0.00,,,0.00,WUHU216HW,2013-03-04 22:10:00,
2013-03-04 17:11:00,56.1,44.4,29.54,SSE,158,0.0,0.0,65,0.00,,,0.00,WUHU216HW,2013-03-04 22:11:00,
2013-03-04 17:12:00,50.5,20.2,29.73,NW,315,0.0,0.0,31,0.00,,,0.00,WUHU216HW,2013-03-04 22:12:00,
2013-03-04 17:13:00,56.1,44.4,29.54,SSW,203,0.0,0.0,65,0.00,,,0.00,WUHU216HW,2013-03-04 22:13:00,
2013-03-04 17:14:00,56.1,44.4,29.54,SSW,203,0.0,0.0,65,0.00,,,0.00,WUHU216HW,2013-03-04 22:14:00,
2013-03-04 17:15:00,56.1,44.4,29.54,SSW,203,0.0,0.0,65,0.00,,,0.00,WUHU216HW,2013-03-04 22:15:00,
2013-03-04 17:16:00,56.1,44.4,29.54,ESE,113,0.0,0.0,65,0.00,,,0.00,WUHU216HW,2013-03-04 22:16:00,
2013-03-04 17:17:00,50.3,20.7,29.73,WNW,293,0.0,0.0,31,0.00,,,0.00,WUHU216HW,2013-03-04 22:17:00,
2013-03-04 17:18:00,56.3,44.6,29.54,South,180,0.0,0.0,65,0.00,,,0.00,WUHU216HW,2013-03-04 22:18:00,
2013-03-04 17:19:00,56.3,44.6,29.54,South,180,0.0,0.0,65,0.00,,,0.00,WUHU216HW,2013-03-04 22:19:00,
2013-03-04 17:20:00,56.3,44.6,29.54,SSW,203,0.0,0.0,65,0.00,,,0.00,WUHU216HW,2013-03-04 22:20:00,
2013-03-04 17:21:00,56.3,44.6,29.54,SSW,203,0.0,0.0,65,0.00,,,0.00,WUHU216HW,2013-03-04 22:21:00,
2013-03-04 17:22:00,50.0,20.4,29.73,WSW,248,0.0,0.0,31,0.00,,,0.00,WUHU216HW,2013-03-04 22:22:00,
2013-03-04 17:23:00,56.3,44.6,29.54,SSW,203,0.0,0.0,65,0.00,,,0.00,WUHU216HW,2013-03-04 22:23:00,
2013-03-04 17:24:00,56.4,44.8,29.54,SW,225,0.0,0.0,65,0.00,,,0.00,WUHU216HW,2013-03-04 22:24:00,
2013-03-04 17:25:00,56.4,44.8,29.54,SW,225,0.0,0.0,65,0.00,,,0.00,WUHU216HW,2013-03-04 22:25:00,
2013-03-04 17:26:00,56.4,44.8,29.54,South,180,0.0,0.0,65,0.00,,,0.00,WUHU216HW,2013-03-04 22:26:00,
2013-03-04 17:27:00,49.8,20.9,29.74,West,270,0.0,0.0,32,0.00,,,0.00,WUHU216HW,2013-03-04 22:27:00,
2013-03-04 17:28:00,56.4,44.8,29.54,SSW,203,0.0,0.0,65,0.00,,,0.00,WUHU216HW,2013-03-04 22:28:00,
2013-03-04 17:29:00,56.4,44.8,29.54,SSW,203,0.0,0.0,65,0.00,,,0.00,WUHU216HW,2013-03-04 22:29:00,
2013-03-04 17:30:00,56.6,44.9,29.54,SSW,203,0.0,0.0,65,0.00,,,0.00,WUHU216HW,2013-03-04 22:30:00,
2013-03-04 17:31:00,56.6,44.9,29.54,SSW,203,0.0,0.0,65,0.00,,,0.00,WUHU216HW,2013-03-04 22:31:00,
2013-03-04 17:32:00,49.6,20.8,29.74,West,270,0.0,0.0,32,0.00,,,0.00,WUHU216HW,2013-03-04 22:32:00,
2013-03-04 17:33:00,56.8,45.1,29.54,SSW,203,0.0,0.0,65,0.00,,,0.00,WUHU216HW,2013-03-04 22:33:00,
2013-03-04 17:34:00,56.8,45.1,29.54,SSW,203,0.0,0.0,65,0.00,,,0.00,WUHU216HW,2013-03-04 22:34:00,
2013-03-04 17:35:00,56.8,45.1,29.54,SSW,203,0.0,0.0,65,0.00,,,0.00,WUHU216HW,2013-03-04 22:35:00,
2013-03-04 17:36:00,56.8,45.1,29.54,SSW,203,0.0,0.0,65,0.00,,,0.00,WUHU216HW,2013-03-04 22:36:00,
2013-03-04 17:37:00,49.2,20.5,29.74,West,270,0.0,0.0,32,0.00,,,0.00,WUHU216HW,2013-03-04 22:37:00,
2013-03-04 17:38:00,56.8,45.1,29.54,SSE,158,0.0,0.0,65,0.00,,,0.00,WUHU216HW,2013-03-04 22:38:00,
2013-03-04 17:39:00,56.8,45.1,29.54,SSE,158,0.0,0.0,65,0.00,,,0.00,WUHU216HW,2013-03-04 22:39:00,
2013-03-04 17:40:00,56.8,45.1,29.54,SSE,158,0.0,0.0,65,0.00,,,0.00,WUHU216HW,2013-03-04 22:40:00,
2013-03-04 17:41:00,57.0,44.9,29.54,South,180,0.0,0.0,64,0.00,,,0.00,WUHU216HW,2013-03-04 22:41:00,
2013-03-04 17:42:00,49.1,20.3,29.74,WNW,293,0.0,2.6,32,0.00,,,0.00,WUHU216HW,2013-03-04 22:42:00,
2013-03-04 17:46:00,57.0,44.9,29.54,SSW,203,0.0,0.0,65,0.00,,,0.00,WUHU216HW,2013-03-04 22:46:00,
2013-03-04 17:47:00,48.7,20.7,29.74,WNW,293,0.0,2.6,33,0.00,,,0.00,WUHU216HW,2013-03-04 22:47:00,
2013-03-04 17:48:00,57.0,44.9,29.54,SE,135,0.0,0.0,64,0.00,,,0.00,WUHU216HW,2013-03-04 22:48:00,
2013-03-04 17:49:00,57.2,45.1,29.54,WSW,248,0.0,0.0,64,0.00,,,0.00,WUHU216HW,2013-03-04 22:49:00,
2013-03-04 17:50:00,57.2,45.1,29.54,WSW,248,0.0,0.0,64,0.00,,,0.00,WUHU216HW,2013-03-04 22:50:00,
2013-03-04 17:51:00,57.2,45.1,29.54,WSW,248,0.0,0.0,64,0.00,,,0.00,WUHU216HW,2013-03-04 22:51:00,
2013-03-04 17:52:00,48.5,20.6,29.75,WNW,293,0.0,0.0,33,0.00,,,0.00,WUHU216HW,2013-03-04 22:52:00,
2013-03-04 17:53:00,57.3,45.6,29.54,WSW,248,0.0,0.0,65,0.00,,,0.00,WUHU216HW,2013-03-04 22:53:00,
2013-03-04 17:54:00,57.3,45.6,29.54,WSW,248,0.0,0.0,65,0.00,,,0.00,WUHU216HW,2013-03-04 22:54:00,
2013-03-04 17:55:00,57.3,45.6,29.54,WSW,248,0.0,0.0,65,0.00,,,0.00,WUHU216HW,2013-03-04 22:55:00,
2013-03-04 17:56:00,57.3,45.6,29.54,South,180,0.0,0.0,65,0.00,,,0.00,WUHU216HW,2013-03-04 22:56:00,
2013-03-04 17:57:00,48.3,20.4,29.75,WNW,293,0.0,0.0,34,0.00,,,0.00,WUHU216HW,2013-03-04 22:57:00,
2013-03-04 17:58:00,57.3,45.6,29.54,SW,225,0.0,0.0,64,0.00,,,0.00,WUHU216HW,2013-03-04 22:58:00,
2013-03-04 17:59:00,57.3,45.6,29.53,SW,225,0.0,0.0,64,0.00,,,0.00,WUHU216HW,2013-03-04 22:59:00,
2013-03-04 18:00:00,57.3,45.6,29.53,SW,225,0.0,0.0,64,0.00,,,0.00,WUHU216HW,2013-03-04 23:00:00,
2013-03-04 18:01:00,57.3,45.6,29.54,SW,225,0.0,0.0,64,0.00,,,0.00,WUHU216HW,2013-03-04 23:01:00,
2013-03-04 18:02:00,57.3,45.6,29.54,SW,225,0.0,0.0,64,0.00,,,0.00,WUHU216HW,2013-03-04 23:02:00,
2013-03-04 18:03:00,48.0,20.8,29.74,WNW,293,0.0,0.0,34,0.00,,,0.00,WUHU216HW,2013-03-04 23:03:00,
2013-03-04 18:04:00,57.5,45.4,29.54,WNW,293,0.0,0.0,64,0.00,,,0.00,WUHU216HW,2013-03-04 23:04:00,
2013-03-04 18:05:00,57.5,45.4,29.54,WNW,293,0.0,0.0,64,0.00,,,0.00,WUHU216HW,2013-03-04 23:05:00,
2013-03-04 18:08:00,47.8,20.6,29.74,WNW,293,0.0,0.0,35,0.00,,,0.00,WUHU216HW,2013-03-04 23:08:00,
2013-03-04 18:09:00,57.7,46.0,29.54,West,270,0.0,0.0,64,0.00,,,0.00,WUHU216HW,2013-03-04 23:09:00,
2013-03-04 18:10:00,57.7,46.0,29.54,West,270,0.0,0.0,64,0.00,,,0.00,WUHU216HW,2013-03-04 23:10:00,
2013-03-04 18:11:00,57.9,45.7,29.54,ESE,113,0.0,0.0,64,0.00,,,0.00,WUHU216HW,2013-03-04 23:11:00,
2013-03-04 18:12:00,57.9,45.7,29.54,ESE,113,0.0,0.0,64,0.00,,,0.00,WUHU216HW,2013-03-04 23:12:00,
2013-03-04 18:13:00,47.4,21.0,29.74,WNW,293,0.0,0.0,35,0.00,,,0.00,WUHU216HW,2013-03-04 23:13:00,
2013-03-04 18:14:00,58.1,45.9,29.53,SE,135,0.0,0.0,64,0.00,,,0.00,WUHU216HW,2013-03-04 23:14:00,
2013-03-04 18:15:00,58.1,45.9,29.53,SE,135,0.0,0.0,64,0.00,,,0.00,WUHU216HW,2013-03-04 23:15:00,
2013-03-04 18:16:00,58.2,46.1,29.53,SSW,203,0.0,0.0,64,0.00,,,0.00,WUHU216HW,2013-03-04 23:16:00,
2013-03-04 18:17:00,58.2,46.1,29.53,SSW,203,0.0,0.0,64,0.00,,,0.00,WUHU216HW,2013-03-04 23:17:00,
2013-03-04 18:18:00,47.1,21.3,29.75,WNW,293,0.0,0.0,36,0.00,,,0.00,WUHU216HW,2013-03-04 23:18:00,
2013-03-04 18:19:00,58.2,46.1,29.53,SW,225,0.0,0.0,64,0.00,,,0.00,WUHU216HW,2013-03-04 23:19:00,
2013-03-04 18:20:00,58.6,46.4,29.53,South,180,0.0,0.0,64,0.00,,,0.00,WUHU216HW,2013-03-04 23:20:00,
2013-03-04 18:21:00,58.6,46.4,29.53,South,180,0.0,0.0,64,0.00,,,0.00,WUHU216HW,2013-03-04 23:21:00,
2013-03-04 18:22:00,58.6,46.4,29.53,South,180,0.0,0.0,64,0.00,,,0.00,WUHU216HW,2013-03-04 23:22:00,
2013-03-04 18:23:00,46.9,21.1,29.74,WNW,293,0.0,0.0,36,0.00,,,0.00,WUHU216HW,2013-03-04 23:23:00,
2013-03-04 18:24:00,59.0,46.3,29.52,South,180,0.0,0.0,63,0.00,,,0.00,WUHU216HW,2013-03-04 23:24:00,
2013-03-04 18:25:00,59.0,46.3,29.53,South,180,0.0,0.0,63,0.00,,,0.00,WUHU216HW,2013-03-04 23:25:00,
2013-03-04 18:26:00,59.0,46.3,29.52,SE,135,0.0,0.0,63,0.00,,,0.00,WUHU216HW,2013-03-04 23:26:00,
2013-03-04 18:27:00,59.0,46.3,29.52,SE,135,0.0,0.0,63,0.00,,,0.00,WUHU216HW,2013-03-04 23:27:00,
2013-03-04 18:28:00,46.5,20.8,29.74,WNW,293,0.0,0.0,36,0.00,,,0.00,WUHU216HW,2013-03-04 23:28:00,
2013-03-04 18:29:00,59.0,46.3,29.52,SSE,158,0.0,0.0,63,0.00,,,0.00,WUHU216HW,2013-03-04 23:29:00,
2013-03-04 18:30:00,59.0,46.3,29.52,SSE,158,0.0,0.0,63,0.00,,,0.00,WUHU216HW,2013-03-04 23:30:00,
2013-03-04 18:31:00,59.0,46.3,29.52,WNW,293,0.0,0.0,63,0.00,,,0.00,WUHU216HW,2013-03-04 23:31:00,
2013-03-04 18:32:00,59.0,46.3,29.52,WNW,293,0.0,0.0,63,0.00,,,0.00,WUHU216HW,2013-03-04 23:32:00,
2013-03-04 18:33:00,46.2,21.2,29.75,WNW,293,0.0,0.0,37,0.00,,,0.00,WUHU216HW,2013-03-04 23:33:00,
2013-03-04 18:34:00,59.3,46.7,29.52,WSW,248,0.0,0.0,63,0.00,,,0.00,WUHU216HW,2013-03-04 23:34:00,
2013-03-04 18:35:00,59.3,46.7,29.52,WSW,248,0.0,0.0,63,0.00,,,0.00,WUHU216HW,2013-03-04 23:35:00,
2013-03-04 18:36:00,59.3,46.7,29.52,WSW,248,0.0,0.0,63,0.00,,,0.00,WUHU216HW,2013-03-04 23:36:00,
2013-03-04 18:37:00,59.5,46.5,29.52,SSW,203,0.0,0.0,62,0.00,,,0.00,WUHU216HW,2013-03-04 23:37:00,
2013-03-04 18:38:00,46.0,21.7,29.75,WNW,293,0.0,0.0,38,0.00,,,0.00,WUHU216HW,2013-03-04 23:38:00,
2013-03-04 18:39:00,59.7,46.6,29.52,West,270,0.0,0.0,62,0.00,,,0.00,WUHU216HW,2013-03-04 23:39:00,
2013-03-04 18:40:00,59.7,46.6,29.52,West,270,0.0,0.0,62,0.00,,,0.00,WUHU216HW,2013-03-04 23:40:00,
2013-03-04 18:41:00,59.9,46.4,29.52,West,270,0.0,0.0,61,0.00,,,0.00,WUHU216HW,2013-03-04 23:41:00,
2013-03-04 18:42:00,59.9,46.4,29.52,West,270,0.0,0.0,61,0.00,,,0.00,WUHU216HW,2013-03-04 23:42:00,
2013-03-04 18:43:00,45.6,21.3,29.75,WNW,293,0.0,0.0,38,0.00,,,0.00,WUHU216HW,2013-03-04 23:43:00,
2013-03-04 18:44:00,60.0,46.6,29.52,WSW,248,0.0,0.0,61,0.00,,,0.00,WUHU216HW,2013-03-04 23:44:00,
2013-03-04 18:45:00,60.0,46.6,29.51,WSW,248,0.0,0.0,61,0.00,,,0.00,WUHU216HW,2013-03-04 23:45:00,
2013-03-04 18:46:00,60.0,46.6,29.51,West,270,0.0,0.0,61,0.00,,,0.00,WUHU216HW,2013-03-04 23:46:00,
2013-03-04 18:47:00,60.0,46.6,29.51,West,270,0.0,0.0,61,0.00,,,0.00,WUHU216HW,2013-03-04 23:47:00,
2013-03-04 18:48:00,45.3,21.0,29.75,WNW,293,0.0,0.0,38,0.00,,,0.00,WUHU216HW,2013-03-04 23:48:00,
2013-03-04 18:49:00,60.4,46.9,29.51,SSW,203,0.0,0.0,61,0.00,,,0.00,WUHU216HW,2013-03-04 23:49:00,
2013-03-04 18:50:00,60.4,46.9,29.51,SE,135,0.0,0.0,61,0.00,,,0.00,WUHU216HW,2013-03-04 23:50:00,
2013-03-04 18:52:00,60.4,46.9,29.51,SSE,158,0.0,0.0,60,0.00,,,0.00,WUHU216HW,2013-03-04 23:52:00,
2013-03-04 18:53:00,44.9,21.4,29.75,WNW,293,0.0,0.0,39,0.00,,,0.00,WUHU216HW,2013-03-04 23:53:00,
2013-03-04 18:54:00,60.6,47.1,29.51,SW,225,0.0,0.0,61,0.00,,,0.00,WUHU216HW,2013-03-04 23:54:00,
2013-03-04 18:55:00,60.6,47.1,29.51,SW,225,0.0,0.0,61,0.00,,,0.00,WUHU216HW,2013-03-04 23:55:00,
2013-03-04 18:56:00,60.6,47.1,29.51,SW,225,0.0,0.0,61,0.00,,,0.00,WUHU216HW,2013-03-04 23:56:00,
2013-03-04 18:57:00,60.9,47.5,29.51,ESE,113,0.0,0.0,61,0.00,,,0.00,WUHU216HW,2013-03-04 23:57:00,
2013-03-04 18:58:00,44.4,21.5,29.75,WNW,293,0.0,0.0,40,0.00,,,0.00,WUHU216HW,2013-03-04 23:58:00,
2013-03-04 18:59:00,60.9,47.5,29.51,SE,135,0.0,0.0,61,0.00,,,0.00,WUHU216HW,2013-03-04 23:59:00,
2013-03-04 19:00:00,60.9,47.5,29.51,SE,135,0.0,0.0,61,0.00,,,0.00,WUHU216HW,2013-03-05 00:00:00,
2013-03-04 19:01:00,61.3,47.4,29.51,SE,135,4.6,4.6,60,0.00,,,0.00,WUHU216HW,2013-03-05 00:01:00,
2013-03-04 19:03:00,61.3,47.4,29.51,WSW,248,0.0,4.6,60,0.00,,,0.00,WUHU216HW,2013-03-05 00:03:00,
2013-03-04 19:04:00,44.4,21.5,29.75,WNW,293,0.0,0.0,40,0.00,,,0.00,WUHU216HW,2013-03-05 00:04:00,
2013-03-04 19:05:00,61.5,47.1,29.51,SE,135,2.0,4.6,59,0.00,,,0.00,WUHU216HW,2013-03-05 00:05:00,
2013-03-04 19:06:00,61.5,47.1,29.51,SE,135,2.0,4.6,59,0.00,,,0.00,WUHU216HW,2013-03-05 00:06:00,
2013-03-04 19:07:00,61.5,47.1,29.51,SE,135,2.0,4.6,59,0.00,,,0.00,WUHU216HW,2013-03-05 00:07:00,
2013-03-04 19:08:00,61.7,47.2,29.51,SSE,158,0.0,4.6,59,0.00,,,0.00,WUHU216HW,2013-03-05 00:08:00,
2013-03-04 19:09:00,44.2,21.4,29.75,WNW,293,0.0,0.0,40,0.00,,,0.00,WUHU216HW,2013-03-05 00:09:00,
2013-03-04 19:10:00,61.8,47.4,29.51,SW,225,0.0,4.6,59,0.00,,,0.00,WUHU216HW,2013-03-05 00:10:00,
2013-03-04 19:11:00,62.2,47.7,29.51,SW,225,0.0,4.6,59,0.00,,,0.00,WUHU216HW,2013-03-05 00:11:00,
2013-03-04 19:12:00,62.2,47.7,29.51,SW,225,0.0,4.6,59,0.00,,,0.00,WUHU216HW,2013-03-05 00:12:00,
2013-03-04 19:13:00,62.2,47.7,29.51,SW,225,0.0,2.0,59,0.00,,,0.00,WUHU216HW,2013-03-05 00:13:00,
2013-03-04 19:14:00,43.7,22.0,29.75,WNW,293,0.0,0.0,42,0.00,,,0.00,WUHU216HW,2013-03-05 00:14:00,
2013-03-04 19:15:00,62.4,47.9,29.50,West,270,0.0,2.0,59,0.00,,,0.00,WUHU216HW,2013-03-05 00:15:00,
2013-03-04 19:16:00,62.7,48.2,29.50,SSE,158,0.0,2.0,59,0.00,,,0.00,WUHU216HW,2013-03-05 00:16:00,
2013-03-04 19:17:00,62.7,48.2,29.50,SSE,158,0.0,0.0,59,0.00,,,0.00,WUHU216HW,2013-03-05 00:17:00,
2013-03-04 19:18:00,63.1,48.5,29.50,ESE,113,4.0,4.0,59,0.00,,,0.00,WUHU216HW,2013-03-05 00:18:00,
2013-03-04 19:19:00,43.3,22.2,29.75,WNW,293,0.0,0.0,43,0.00,,,0.00,WUHU216HW,2013-03-05 00:19:00,
2013-03-04 19:20:00,63.5,47.9,29.50,WSW,248,0.0,4.0,57,0.00,,,0.00,WUHU216HW,2013-03-05 00:20:00,
2013-03-04 19:21:00,63.5,47.9,29.50,WSW,248,0.0,4.0,57,0.00,,,0.00,WUHU216HW,2013-03-05 00:21:00,
2013-03-04 19:22:00,64.0,48.4,29.50,SW,225,0.0,4.0,57,0.00,,,0.00,WUHU216HW,2013-03-05 00:22:00,
2013-03-04 19:23:00,64.0,48.4,29.50,SW,225,0.0,4.0,57,0.00,,,0.00,WUHU216HW,2013-03-05 00:23:00,
2013-03-04 19:24:00,43.1,21.5,29.75,WNW,293,0.0,0.0,42,0.00,,,0.00,WUHU216HW,2013-03-05 00:24:00,
2013-03-04 19:25:00,64.2,48.5,29.50,West,270,0.0,4.0,57,0.00,,,0.00,WUHU216HW,2013-03-05 00:25:00,
2013-03-04 19:26:00,64.2,48.5,29.50,West,270,0.0,4.0,57,0.00,,,0.00,WUHU216HW,2013-03-05 00:26:00,
2013-03-04 19:27:00,64.5,48.4,29.50,WSW,248,0.0,4.0,56,0.00,,,0.00,WUHU216HW,2013-03-05 00:27:00,
2013-03-04 19:28:00,64.5,48.4,29.50,WSW,248,0.0,4.0,56,0.00,,,0.00,WUHU216HW,2013-03-05 00:28:00,
2013-03-04 19:29:00,42.4,20.8,29.75,WNW,293,0.0,0.0,42,0.00,,,0.00,WUHU216HW,2013-03-05 00:29:00,
2013-03-04 19:30:00,65.1,48.9,29.50,WSW,248,2.4,2.4,56,0.00,,,0.00,WUHU216HW,2013-03-05 00:30:00,
2013-03-04 19:31:00,65.4,48.3,29.50,WSW,248,5.1,5.1,54,0.00,,,0.00,WUHU216HW,2013-03-05 00:31:00,
2013-03-04 19:32:00,65.4,48.3,29.49,WSW,248,5.1,5.1,54,0.00,,,0.00,WUHU216HW,2013-03-05 00:32:00,
2013-03-04 19:33:00,65.4,48.8,29.49,WSW,248,0.0,5.1,55,0.00,,,0.00,WUHU216HW,2013-03-05 00:33:00,
2013-03-04 19:34:00,42.2,21.2,29.76,WNW,293,0.0,0.0,43,0.00,,,0.00,WUHU216HW,2013-03-05 00:34:00,
2013-03-04 19:35:00,65.4,48.8,29.49,WSW,248,0.0,5.1,54,0.00,,,0.00,WUHU216HW,2013-03-05 00:35:00,
2013-03-04 19:36:00,65.4,48.8,29.49,WSW,248,0.0,5.1,54,0.00,,,0.00,WUHU216HW,2013-03-05 00:36:00,
2013-03-04 19:37:00,65.4,48.8,29.49,WSW,248,1.5,5.1,54,0.00,,,0.00,WUHU216HW,2013-03-05 00:37:00,
2013-03-04 19:38:00,65.4,48.8,29.49,WSW,248,1.5,5.1,54,0.00,,,0.00,WUHU216HW,2013-03-05 00:38:00,
2013-03-04 19:39:00,41.9,21.9,29.76,WNW,293,0.0,0.0,45,0.00,,,0.00,WUHU216HW,2013-03-05 00:39:00,
2013-03-04 19:40:00,65.8,48.7,29.49,WSW,248,0.0,5.1,54,0.00,,,0.00,WUHU216HW,2013-03-05 00:40:00,
2013-03-04 19:41:00,65.8,48.7,29.49,WSW,248,0.0,5.1,54,0.00,,,0.00,WUHU216HW,2013-03-05 00:41:00,
2013-03-04 19:42:00,66.2,49.0,29.49,WSW,248,1.7,5.1,54,0.00,,,0.00,WUHU216HW,2013-03-05 00:42:00,
2013-03-04 19:43:00,66.2,49.0,29.49,WSW,248,1.7,1.7,54,0.00,,,0.00,WUHU216HW,2013-03-05 00:43:00,
2013-03-04 19:44:00,41.5,21.6,29.76,WNW,293,0.0,0.0,45,0.00,,,0.00,WUHU216HW,2013-03-05 00:44:00,
2013-03-04 19:45:00,67.1,48.9,29.49,WSW,248,2.0,5.1,52,0.00,,,0.00,WUHU216HW,2013-03-05 00:45:00,
2013-03-04 19:46:00,67.1,48.9,29.49,WSW,248,2.0,5.1,52,0.00,,,0.00,WUHU216HW,2013-03-05 00:46:00,
2013-03-04 19:47:00,67.6,49.3,29.49,WSW,248,0.0,5.1,52,0.00,,,0.00,WUHU216HW,2013-03-05 00:47:00,
2013-03-04 19:48:00,67.6,49.3,29.49,WSW,248,0.0,5.1,52,0.00,,,0.00,WUHU216HW,2013-03-05 00:48:00,
2013-03-04 19:49:00,41.3,21.9,29.76,WNW,293,0.0,0.0,46,0.00,,,0.00,WUHU216HW,2013-03-05 00:49:00,
2013-03-04 19:50:00,67.8,49.5,29.49,WSW,248,0.0,5.1,52,0.00,,,0.00,WUHU216HW,2013-03-05 00:50:00,
2013-03-04 19:51:00,67.8,49.5,29.49,WSW,248,3.8,5.1,51,0.00,,,0.00,WUHU216HW,2013-03-05 00:51:00,
2013-03-04 19:52:00,67.8,49.5,29.49,WSW,248,3.8,5.1,51,0.00,,,0.00,WUHU216HW,2013-03-05 00:52:00,
2013-03-04 19:53:00,67.6,48.9,29.49,WSW,248,0.0,5.1,51,0.00,,,0.00,WUHU216HW,2013-03-05 00:53:00,
2013-03-04 19:54:00,41.0,21.6,29.76,WNW,293,0.0,0.0,46,0.00,,,0.00,WUHU216HW,2013-03-05 00:54:00,
2013-03-04 19:56:00,67.2,48.5,29.49,SW,225,0.0,3.8,51,0.00,,,0.00,WUHU216HW,2013-03-05 00:56:00,
2013-03-04 19:57:00,67.1,48.9,29.49,SSE,158,0.0,3.8,52,0.00,,,0.00,WUHU216HW,2013-03-05 00:57:00,
2013-03-04 19:58:00,67.1,48.9,29.49,SSE,158,0.0,3.8,52,0.00,,,0.00,WUHU216HW,2013-03-05 00:58:00,
2013-03-04 19:59:00,40.6,21.8,29.77,WNW,293,0.0,0.0,47,0.00,,,0.00,WUHU216HW,2013-03-05 00:59:00,
2013-03-04 20:00:00,66.9,48.7,29.49,WNW,293,0.0,3.8,52,0.00,,,0.00,WUHU216HW,2013-03-05 01:00:00,
2013-03-04 20:01:00,67.1,48.9,29.49,West,270,0.0,3.8,52,0.00,,,0.00,WUHU216HW,2013-03-05 01:01:00,
2013-03-04 20:02:00,67.1,48.9,29.49,West,270,0.0,3.8,52,0.00,,,0.00,WUHU216HW,2013-03-05 01:02:00,
2013-03-04 20:03:00,67.1,48.9,29.49,West,270,0.0,0.0,52,0.00,,,0.00,WUHU216HW,2013-03-05 01:03:00,
2013-03-04 20:04:00,40.6,21.8,29.77,WNW,293,0.0,0.0,46,0.00,,,0.00,WUHU216HW,2013-03-05 01:04:00,
2013-03-04 20:05:00,67.2,49.5,29.49,West,270,0.0,0.0,53,0.00,,,0.00,WUHU216HW,2013-03-05 01:05:00,
2013-03-04 20:06:00,67.6,49.8,29.49,ESE,113,0.0,0.0,53,0.00,,,0.00,WUHU216HW,2013-03-05 01:06:00,
2013-03-04 20:07:00,67.6,49.8,29.49,ESE,113,0.0,0.0,53,0.00,,,0.00,WUHU216HW,2013-03-05 01:07:00,
2013-03-04 20:10:00,40.2,20.9,29.77,WNW,293,0.0,0.0,46,0.00,,,0.00,WUHU216HW,2013-03-05 01:10:00,
2013-03-04 20:15:00,40.2,20.9,29.77,WNW,293,0.0,0.0,47,0.00,,,0.00,WUHU216HW,2013-03-05 01:15:00,
2013-03-04 20:16:00,69.8,50.3,29.49,WSW,248,1.7,7.3,50,0.00,,,0.00,WUHU216HW,2013-03-05 01:16:00,
2013-03-04 20:17:00,70.1,50.0,29.48,SW,225,0.0,7.3,49,0.00,,,0.00,WUHU216HW,2013-03-05 01:17:00,
2013-03-04 20:18:00,70.1,50.0,29.48,SW,225,0.0,7.3,49,0.00,,,0.00,WUHU216HW,2013-03-05 01:18:00,
2013-03-04 20:19:00,70.5,49.8,29.48,WSW,248,0.0,7.3,48,0.00,,,0.00,WUHU216HW,2013-03-05 01:19:00,
2013-03-04 20:20:00,40.1,21.3,29.77,WNW,293,0.0,0.0,47,0.00,,,0.00,WUHU216HW,2013-03-05 01:20:00,
2013-03-04 20:21:00,70.5,49.8,29.48,WSW,248,0.0,7.3,48,0.00,,,0.00,WUHU216HW,2013-03-05 01:21:00,
2013-03-04 20:22:00,71.2,50.4,29.48,West,270,5.3,7.3,48,0.00,,,0.00,WUHU216HW,2013-03-05 01:22:00,
2013-03-04 20:24:00,71.9,50.5,29.48,West,270,0.0,5.3,47,0.00,,,0.00,WUHU216HW,2013-03-05 01:24:00,
2013-03-04 20:25:00,39.9,21.1,29.77,WNW,293,0.0,0.0,47,0.00,,,0.00,WUHU216HW,2013-03-05 01:25:00,
2013-03-04 20:27:00,72.5,51.6,29.48,WNW,293,0.0,5.3,48,0.00,,,0.00,WUHU216HW,2013-03-05 01:27:00,
2013-03-04 20:28:00,72.5,51.6,29.48,WNW,293,0.0,5.3,48,0.00,,,0.00,WUHU216HW,2013-03-05 01:28:00,
2013-03-04 20:29:00,73.0,50.3,29.48,West,270,4.6,5.3,45,0.00,,,0.00,WUHU216HW,2013-03-05 01:29:00,
2013-03-04 20:30:00,39.9,21.1,29.77,WNW,293,0.0,0.0,46,0.00,,,0.00,WUHU216HW,2013-03-05 01:30:00,
2013-03-04 20:31:00,73.0,50.3,29.48,SE,135,6.9,6.9,45,0.00,,,0.00,WUHU216HW,2013-03-05 01:31:00,
2013-03-04 20:32:00,73.0,50.3,29.48,SSE,158,1.5,6.9,45,0.00,,,0.00,WUHU216HW,2013-03-05 01:32:00,
2013-03-04 20:33:00,73.0,50.3,29.48,SSE,158,1.5,6.9,45,0.00,,,0.00,WUHU216HW,2013-03-05 01:33:00,
2013-03-04 20:34:00,73.0,50.3,29.47,SW,225,0.0,6.9,45,0.00,,,0.00,WUHU216HW,2013-03-05 01:34:00,
2013-03-04 20:35:00,40.1,20.3,29.77,WNW,293,0.0,0.0,46,0.00,,,0.00,WUHU216HW,2013-03-05 01:35:00,
2013-03-04 20:36:00,73.2,51.6,29.47,East,90,0.0,6.9,47,0.00,,,0.00,WUHU216HW,2013-03-05 01:36:00,
2013-03-04 20:38:00,73.7,50.3,29.47,WSW,248,0.0,6.9,44,0.00,,,0.00,WUHU216HW,2013-03-05 01:38:00,
2013-03-04 20:39:00,73.7,50.3,29.47,WSW,248,0.0,6.9,44,0.00,,,0.00,WUHU216HW,2013-03-05 01:39:00,
2013-03-04 20:40:00,40.1,20.3,29.77,WNW,293,0.0,0.0,45,0.00,,,0.00,WUHU216HW,2013-03-05 01:40:00,
2013-03-04 20:41:00,73.5,49.6,29.47,NW,315,0.0,6.9,43,0.00,,,0.00,WUHU216HW,2013-03-05 01:41:00,
2013-03-04 20:42:00,73.4,50.0,29.47,WSW,248,0.0,1.5,44,0.00,,,0.00,WUHU216HW,2013-03-05 01:42:00,
2013-03-04 20:43:00,73.4,50.0,29.47,WSW,248,0.0,1.5,44,0.00,,,0.00,WUHU216HW,2013-03-05 01:43:00,
2013-03-04 20:45:00,40.1,20.3,29.77,WNW,293,0.0,0.0,45,0.00,,,0.00,WUHU216HW,2013-03-05 01:45:00,
2013-03-04 20:46:00,73.7,49.7,29.47,SW,225,3.8,3.8,43,0.00,,,0.00,WUHU216HW,2013-03-05 01:46:00,
2013-03-04 20:47:00,73.9,49.9,29.47,SSE,158,0.0,3.8,43,0.00,,,0.00,WUHU216HW,2013-03-05 01:47:00,
2013-03-04 20:48:00,73.9,49.9,29.47,SSE,158,0.0,3.8,43,0.00,,,0.00,WUHU216HW,2013-03-05 01:48:00,
2013-03-04 20:49:00,74.1,50.7,29.47,SW,225,0.0,3.8,44,0.00,,,0.00,WUHU216HW,2013-03-05 01:49:00,
2013-03-04 20:50:00,40.1,20.3,29.77,WNW,293,0.0,0.0,46,0.00,,,0.00,WUHU216HW,2013-03-05 01:50:00,
2013-03-04 20:51:00,73.9,49.9,29.47,SSW,203,4.0,4.0,43,0.00,,,0.00,WUHU216HW,2013-03-05 01:51:00,
2013-03-04 20:52:00,73.9,49.9,29.47,SSW,203,4.0,4.0,43,0.00,,,0.00,WUHU216HW,2013-03-05 01:52:00,
2013-03-04 20:53:00,73.7,49.7,29.47,West,270,1.7,8.2,43,0.00,,,0.00,WUHU216HW,2013-03-05 01:53:00,
2013-03-04 20:54:00,73.7,49.7,29.47,SSW,203,3.8,8.2,44,0.00,,,0.00,WUHU216HW,2013-03-05 01:54:00,
2013-03-04 20:55:00,39.9,20.6,29.77,WNW,293,0.0,0.0,46,0.00,,,0.00,WUHU216HW,2013-03-05 01:55:00,
2013-03-04 20:56:00,73.7,49.7,29.47,SSW,203,7.1,8.2,43,0.00,,,0.00,WUHU216HW,2013-03-05 01:56:00,
2013-03-04 20:57:00,73.9,50.5,29.47,SW,225,0.0,8.2,44,0.00,,,0.00,WUHU216HW,2013-03-05 01:57:00,
2013-03-04 20:58:00,73.9,50.5,29.47,SW,225,0.0,8.2,44,0.00,,,0.00,WUHU216HW,2013-03-05 01:58:00,
2013-03-04 20:59:00,73.9,50.5,29.47,SW,225,0.0,8.2,44,0.00,,,0.00,WUHU216HW,2013-03-05 01:59:00,
2013-03-04 21:00:00,39.9,20.6,29.77,WNW,293,0.0,0.0,46,0.00,,,0.00,WUHU216HW,2013-03-05 02:00:00,
2013-03-04 21:01:00,73.9,50.5,29.47,ESE,113,0.0,8.2,44,0.00,,,0.00,WUHU216HW,2013-03-05 02:01:00,
2013-03-04 21:02:00,73.9,50.5,29.47,SE,135,0.0,8.2,43,0.00,,,0.00,WUHU216HW,2013-03-05 02:02:00,
2013-03-04 21:03:00,73.9,50.5,29.46,SE,135,0.0,8.2,43,0.00,,,0.00,WUHU216HW,2013-03-05 02:03:00,
2013-03-04 21:04:00,73.7,50.3,29.46,WSW,248,0.0,7.1,44,0.00,,,0.00,WUHU216HW,2013-03-05 02:04:00,
2013-03-04 21:05:00,39.7,20.5,29.77,WNW,293,0.0,0.0,45,0.00,,,0.00,WUHU216HW,2013-03-05 02:05:00,
2013-03-04 21:06:00,73.7,50.3,29.46,West,270,0.0,2.0,44,0.00,,,0.00,WUHU216HW,2013-03-05 02:06:00,
2013-03-04 21:07:00,73.7,50.3,29.46,West,270,0.0,0.0,44,0.00,,,0.00,WUHU216HW,2013-03-05 02:07:00,
2013-03-04 21:08:00,73.9,50.5,29.46,SW,225,0.0,0.0,44,0.00,,,0.00,WUHU216HW,2013-03-05 02:08:00,
2013-03-04 21:09:00,73.9,50.5,29.46,SW,225,0.0,0.0,44,0.00,,,0.00,WUHU216HW,2013-03-05 02:09:00,
2013-03-04 21:10:00,39.7,20.5,29.77,WNW,293,0.0,0.0,46,0.00,,,0.00,WUHU216HW,2013-03-05 02:10:00,
2013-03-04 21:11:00,74.1,50.1,29.46,WSW,248,0.0,0.0,43,0.00,,,0.00,WUHU216HW,2013-03-05 02:11:00,
2013-03-04 21:14:00,74.4,50.4,29.46,WSW,248,0.0,0.0,43,0.00,,,0.00,WUHU216HW,2013-03-05 02:14:00,
2013-03-04 21:15:00,74.8,51.3,29.46,WSW,248,0.0,0.0,44,0.00,,,0.00,WUHU216HW,2013-03-05 02:15:00,
2013-03-04 21:16:00,39.7,20.5,29.77,WNW,293,0.0,0.0,46,0.00,,,0.00,WUHU216HW,2013-03-05 02:16:00,
2013-03-04 21:17:00,75.0,51.5,29.46,WNW,293,0.0,0.0,44,0.00,,,0.00,WUHU216HW,2013-03-05 02:17:00,
2013-03-04 21:18:00,75.0,51.5,29.46,WNW,293,0.0,0.0,44,0.00,,,0.00,WUHU216HW,2013-03-05 02:18:00,
2013-03-04 21:19:00,75.3,51.2,29.46,West,270,0.0,0.0,43,0.00,,,0.00,WUHU216HW,2013-03-05 02:19:00,
2013-03-04 21:20:00,75.3,51.2,29.46,West,270,0.0,0.0,43,0.00,,,0.00,WUHU216HW,2013-03-05 02:20:00,
2013-03-04 21:21:00,39.7,20.5,29.77,WNW,293,0.0,0.0,46,0.00,,,0.00,WUHU216HW,2013-03-05 02:21:00,
2013-03-04 21:22:00,75.5,52.0,29.46,NW,315,0.0,0.0,44,0.00,,,0.00,WUHU216HW,2013-03-05 02:22:00,
2013-03-04 21:23:00,75.9,51.1,29.46,SW,225,0.0,0.0,42,0.00,,,0.00,WUHU216HW,2013-03-05 02:23:00,
2013-03-04 21:24:00,75.9,51.1,29.46,SW,225,0.0,0.0,42,0.00,,,0.00,WUHU216HW,2013-03-05 02:24:00,
2013-03-04 21:25:00,76.2,51.4,29.46,South,180,0.0,0.0,42,0.00,,,0.00,WUHU216HW,2013-03-05 02:25:00,
2013-03-04 21:26:00,39.5,20.3,29.76,WNW,293,0.0,0.0,46,0.00,,,0.00,WUHU216HW,2013-03-05 02:26:00,
2013-03-04 21:27:00,76.2,51.4,29.46,South,180,0.0,0.0,42,0.00,,,0.00,WUHU216HW,2013-03-05 02:27:00,
2013-03-04 21:28:00,75.7,50.9,29.46,SW,225,0.0,0.0,42,0.00,,,0.00,WUHU216HW,2013-03-05 02:28:00,
2013-03-04 21:29:00,75.7,50.9,29.46,SW,225,0.0,0.0,42,0.00,,,0.00,WUHU216HW,2013-03-05 02:29:00,
2013-03-04 21:30:00,75.7,50.9,29.45,SSW,203,4.6,4.6,42,0.00,,,0.00,WUHU216HW,2013-03-05 02:30:00,
2013-03-04 21:31:00,39.3,20.1,29.77,WNW,293,0.0,0.0,46,0.00,,,0.00,WUHU216HW,2013-03-05 02:31:00,
2013-03-04 21:32:00,75.9,50.5,29.45,SW,225,4.4,4.6,41,0.00,,,0.00,WUHU216HW,2013-03-05 02:32:00,
2013-03-04 21:33:00,75.9,50.5,29.45,SW,225,4.4,4.6,41,0.00,,,0.00,WUHU216HW,2013-03-05 02:33:00,
2013-03-04 21:34:00,75.9,50.5,29.45,SSW,203,0.0,4.6,41,0.00,,,0.00,WUHU216HW,2013-03-05 02:34:00,
2013-03-04 21:35:00,75.9,50.5,29.45,SSW,203,0.0,4.6,41,0.00,,,0.00,WUHU216HW,2013-03-05 02:35:00,
2013-03-04 21:36:00,39.3,20.1,29.77,WNW,293,0.0,0.0,46,0.00,,,0.00,WUHU216HW,2013-03-05 02:36:00,
2013-03-04 21:37:00,75.7,50.3,29.45,SW,225,5.5,5.5,41,0.00,,,0.00,WUHU216HW,2013-03-05 02:37:00,
2013-03-04 21:38:00,75.7,50.3,29.45,West,270,1.7,5.5,41,0.00,,,0.00,WUHU216HW,2013-03-05 02:38:00,
2013-03-04 21:39:00,75.7,50.3,29.44,West,270,1.7,5.5,41,0.00,,,0.00,WUHU216HW,2013-03-05 02:39:00,
2013-03-04 21:40:00,75.9,50.5,29.44,SSW,203,0.0,5.5,41,0.00,,,0.00,WUHU216HW,2013-03-05 02:40:00,
2013-03-04 21:41:00,39.2,20.0,29.77,WNW,293,0.0,0.0,46,0.00,,,0.00,WUHU216HW,2013-03-05 02:41:00,
2013-03-04 21:42:00,76.2,51.4,29.44,WNW,293,9.8,9.8,42,0.00,,,0.00,WUHU216HW,2013-03-05 02:42:00,
2013-03-04 21:43:00,76.2,50.8,29.44,WSW,248,4.2,9.8,41,0.00,,,0.00,WUHU216HW,2013-03-05 02:43:00,
2013-03-04 21:44:00,76.6,51.8,29.44,WSW,248,0.0,9.8,42,0.00,,,0.00,WUHU216HW,2013-03-05 02:44:00,
2013-03-04 21:45:00,76.6,51.8,29.44,WSW,248,0.0,9.8,42,0.00,,,0.00,WUHU216HW,2013-03-05 02:45:00,
2013-03-04 21:46:00,39.2,20.0,29.77,WNW,293,0.0,0.0,46,0.00,,,0.00,WUHU216HW,2013-03-05 02:46:00,
2013-03-04 21:47:00,77.0,51.5,29.44,WNW,293,0.0,9.8,41,0.00,,,0.00,WUHU216HW,2013-03-05 02:47:00,
2013-03-04 21:48:00,77.1,51.0,29.44,West,270,0.0,9.8,40,0.00,,,0.00,WUHU216HW,2013-03-05 02:48:00,
2013-03-04 21:49:00,77.1,51.0,29.44,West,270,0.0,9.8,40,0.00,,,0.00,WUHU216HW,2013-03-05 02:49:00,
2013-03-04 21:50:00,77.5,52.0,29.43,SW,225,0.0,9.8,41,0.00,,,0.00,WUHU216HW,2013-03-05 02:50:00,
2013-03-04 21:51:00,39.2,20.0,29.77,WNW,293,0.0,0.0,46,0.00,,,0.00,WUHU216HW,2013-03-05 02:51:00,
2013-03-04 21:52:00,77.9,52.3,29.44,West,270,0.0,9.8,41,0.00,,,0.00,WUHU216HW,2013-03-05 02:52:00,
2013-03-04 21:53:00,77.9,52.3,29.44,West,270,0.0,0.0,41,0.00,,,0.00,WUHU216HW,2013-03-05 02:53:00,
2013-03-04 21:55:00,78.0,51.8,29.44,West,270,2.2,2.2,40,0.00,,,0.00,WUHU216HW,2013-03-05 02:55:00,
2013-03-04 21:56:00,39.0,20.3,29.77,WNW,293,0.0,0.0,47,0.00,,,0.00,WUHU216HW,2013-03-05 02:56:00,
2013-03-04 21:57:00,78.0,51.8,29.44,WSW,248,3.5,3.5,40,0.00,,,0.00,WUHU216HW,2013-03-05 02:57:00,
2013-03-04 21:58:00,78.0,51.8,29.44,WSW,248,3.5,3.5,40,0.00,,,0.00,WUHU216HW,2013-03-05 02:58:00,
2013-03-04 21:59:00,78.4,51.4,29.44,South,180,0.0,3.5,39,0.00,,,0.00,WUHU216HW,2013-03-05 02:59:00,
2013-03-04 22:00:00,78.4,51.4,29.44,South,180,0.0,3.5,39,0.00,,,0.00,WUHU216HW,2013-03-05 03:00:00,
2013-03-04 22:01:00,78.2,52.0,29.44,SW,225,0.0,3.5,40,0.00,,,0.00,WUHU216HW,2013-03-05 03:01:00,
2013-03-04 22:02:00,39.0,20.3,29.77,WNW,293,0.0,0.0,47,0.00,,,0.00,WUHU216HW,2013-03-05 03:02:00,
2013-03-04 22:03:00,77.9,50.9,29.44,West,270,3.5,3.5,39,0.00,,,0.00,WUHU216HW,2013-03-05 03:03:00,
2013-03-04 22:04:00,77.9,50.9,29.44,West,270,3.5,3.5,39,0.00,,,0.00,WUHU216HW,2013-03-05 03:04:00,
2013-03-04 22:05:00,77.5,51.3,29.44,West,270,8.0,8.0,40,0.00,,,0.00,WUHU216HW,2013-03-05 03:05:00,
2013-03-04 22:06:00,77.5,50.6,29.44,SW,225,5.1,8.0,39,0.00,,,0.00,WUHU216HW,2013-03-05 03:06:00,
2013-03-04 22:07:00,39.0,20.3,29.77,WNW,293,0.0,0.0,47,0.00,,,0.00,WUHU216HW,2013-03-05 03:07:00,
2013-03-04 22:08:00,77.3,50.4,29.43,WSW,248,1.5,8.0,39,0.00,,,0.00,WUHU216HW,2013-03-05 03:08:00,
2013-03-04 22:09:00,77.1,51.0,29.43,WSW,248,0.0,8.0,40,0.00,,,0.00,WUHU216HW,2013-03-05 03:09:00,
2013-03-04 22:10:00,77.1,51.0,29.43,WSW,248,0.0,8.0,40,0.00,,,0.00,WUHU216HW,2013-03-05 03:10:00,
2013-03-04 22:11:00,77.0,51.5,29.43,SW,225,0.0,8.0,41,0.00,,,0.00,WUHU216HW,2013-03-05 03:11:00,
2013-03-04 22:12:00,39.0,20.3,29.77,WNW,293,0.0,0.0,47,0.00,,,0.00,WUHU216HW,2013-03-05 03:12:00,
2013-03-04 22:13:00,76.8,50.7,29.43,SW,225,3.3,8.0,40,0.00,,,0.00,WUHU216HW,2013-03-05 03:13:00,
2013-03-04 22:14:00,76.8,50.7,29.43,SW,225,3.3,8.0,40,0.00,,,0.00,WUHU216HW,2013-03-05 03:14:00,
2013-03-04 22:15:00,76.6,51.1,29.43,WSW,248,1.5,5.1,41,0.00,,,0.00,WUHU216HW,2013-03-05 03:15:00,
2013-03-04 22:16:00,76.6,51.1,29.43,WSW,248,1.5,5.1,41,0.00,,,0.00,WUHU216HW,2013-03-05 03:16:00,
2013-03-04 22:17:00,38.8,20.2,29.77,WNW,293,0.0,0.0,47,0.00,,,0.00,WUHU216HW,2013-03-05 03:17:00,
2013-03-04 22:18:00,76.6,51.1,29.43,SW,225,0.0,3.3,41,0.00,,,0.00,WUHU216HW,2013-03-05 03:18:00,
2013-03-04 22:19:00,76.6,51.1,29.43,SW,225,0.0,3.3,41,0.00,,,0.00,WUHU216HW,2013-03-05 03:19:00,
2013-03-04 22:20:00,76.6,51.1,29.43,SW,225,0.0,3.3,41,0.00,,,0.00,WUHU216HW,2013-03-05 03:20:00,
2013-03-04 22:21:00,76.6,51.1,29.43,SW,225,0.0,3.3,41,0.00,,,0.00,WUHU216HW,2013-03-05 03:21:00,
2013-03-04 22:22:00,38.8,20.2,29.77,WNW,293,0.0,0.0,47,0.00,,,0.00,WUHU216HW,2013-03-05 03:22:00,
2013-03-04 22:23:00,76.6,51.1,29.42,WNW,293,2.6,3.3,40,0.00,,,0.00,WUHU216HW,2013-03-05 03:23:00,
2013-03-04 22:24:00,76.6,51.1,29.42,SSW,203,1.5,3.3,40,0.00,,,0.00,WUHU216HW,2013-03-05 03:24:00,
2013-03-04 22:26:00,76.6,50.5,29.42,SW,225,4.9,4.9,40,0.00,,,0.00,WUHU216HW,2013-03-05 03:26:00,
2013-03-04 22:27:00,38.8,20.2,29.78,WNW,293,0.0,0.0,47,0.00,,,0.00,WUHU216HW,2013-03-05 03:27:00,
2013-03-04 22:28:00,76.2,50.2,29.43,WNW,293,1.5,9.8,41,0.00,,,0.00,WUHU216HW,2013-03-05 03:28:00,
2013-03-04 22:29:00,76.2,50.2,29.42,WNW,293,1.5,9.8,41,0.00,,,0.00,WUHU216HW,2013-03-05 03:29:00,
2013-03-04 22:30:00,76.4,50.4,29.42,WSW,248,0.0,9.8,40,0.00,,,0.00,WUHU216HW,2013-03-05 03:30:00,
2013-03-04 22:31:00,76.4,50.4,29.42,WSW,248,0.0,9.8,40,0.00,,,0.00,WUHU216HW,2013-03-05 03:31:00,
2013-03-04 22:32:00,38.8,20.2,29.77,WNW,293,0.0,0.0,47,0.00,,,0.00,WUHU216HW,2013-03-05 03:32:00,
2013-03-04 22:34:00,76.8,50.7,29.43,WSW,248,3.3,9.8,40,0.00,,,0.00,WUHU216HW,2013-03-05 03:34:00,
2013-03-04 22:35:00,77.0,50.9,29.43,SW,225,4.4,9.8,40,0.00,,,0.00,WUHU216HW,2013-03-05 03:35:00,
2013-03-04 22:36:00,77.0,50.9,29.42,SSW,203,1.7,9.8,40,0.00,,,0.00,WUHU216HW,2013-03-05 03:36:00,
2013-03-04 22:37:00,38.8,20.2,29.77,WNW,293,0.0,0.0,47,0.00,,,0.00,WUHU216HW,2013-03-05 03:37:00,
2013-03-04 22:38:00,77.0,50.9,29.42,WNW,293,0.0,8.0,41,0.00,,,0.00,WUHU216HW,2013-03-05 03:38:00,
2013-03-04 22:39:00,77.0,50.9,29.42,WNW,293,0.0,8.0,41,0.00,,,0.00,WUHU216HW,2013-03-05 03:39:00,
2013-03-04 22:40:00,76.8,51.3,29.42,WNW,293,0.0,8.0,41,0.00,,,0.00,WUHU216HW,2013-03-05 03:40:00,
2013-03-04 22:41:00,76.8,51.3,29.42,WNW,293,0.0,8.0,41,0.00,,,0.00,WUHU216HW,2013-03-05 03:41:00,
2013-03-04 22:42:00,39.2,20.5,29.78,WNW,293,0.0,0.0,47,0.00,,,0.00,WUHU216HW,2013-03-05 03:42:00,
2013-03-04 22:43:00,77.1,51.0,29.41,WSW,248,2.6,4.4,40,0.00,,,0.00,WUHU216HW,2013-03-05 03:43:00,
2013-03-04 22:44:00,77.1,51.0,29.41,WSW,248,2.6,4.4,40,0.00,,,0.00,WUHU216HW,2013-03-05 03:44:00,
2013-03-04 22:45:00,77.1,51.0,29.41,WSW,248,7.3,7.3,40,0.00,,,0.00,WUHU216HW,2013-03-05 03:45:00,
2013-03-04 22:46:00,77.1,51.0,29.41,SW,225,2.0,7.3,40,0.00,,,0.00,WUHU216HW,2013-03-05 03:46:00,
2013-03-04 22:47:00,39.3,20.6,29.78,WNW,293,0.0,0.0,47,0.00,,,0.00,WUHU216HW,2013-03-05 03:47:00,
2013-03-04 22:48:00,76.8,49.9,29.41,SW,225,3.5,7.3,39,0.00,,,0.00,WUHU216HW,2013-03-05 03:48:00,
2013-03-04 22:49:00,76.6,50.5,29.41,WSW,248,0.6,7.3,40,0.00,,,0.00,WUHU216HW,2013-03-05 03:49:00,
2013-03-04 22:50:00,76.6,50.5,29.41,WSW,248,0.6,7.3,40,0.00,,,0.00,WUHU216HW,2013-03-05 03:50:00,
2013-03-04 22:51:00,76.8,50.7,29.41,SW,225,0.0,7.3,40,0.00,,,0.00,WUHU216HW,2013-03-05 03:51:00,
2013-03-04 22:52:00,39.3,20.6,29.77,WNW,293,0.0,0.0,46,0.00,,,0.00,WUHU216HW,2013-03-05 03:52:00,
2013-03-04 22:53:00,77.1,51.6,29.41,SW,225,0.0,7.3,41,0.00,,,0.00,WUHU216HW,2013-03-05 03:53:00,
2013-03-04 22:54:00,77.1,51.6,29.41,SW,225,0.0,7.3,41,0.00,,,0.00,WUHU216HW,2013-03-05 03:54:00,
2013-03-04 22:55:00,77.1,51.6,29.41,SW,225,0.0,4.9,41,0.00,,,0.00,WUHU216HW,2013-03-05 03:55:00,
2013-03-04 22:56:00,77.5,50.6,29.40,SSW,203,3.3,5.8,39,0.00,,,0.00,WUHU216HW,2013-03-05 03:56:00,
2013-03-04 22:57:00,39.7,20.5,29.78,SSE,158,0.0,0.0,46,0.00,,,0.00,WUHU216HW,2013-03-05 03:57:00,
2013-03-04 22:58:00,77.5,50.6,29.40,SSW,203,3.3,5.8,39,0.00,,,0.00,WUHU216HW,2013-03-05 03:58:00,
2013-03-04 22:59:00,77.7,51.5,29.41,SSW,203,4.6,5.8,40,0.00,,,0.00,WUHU216HW,2013-03-05 03:59:00,
2013-03-04 23:00:00,77.7,51.5,29.40,SSW,203,4.6,5.8,40,0.00,,,0.00,WUHU216HW,2013-03-05 04:00:00,
2013-03-04 23:01:00,77.9,51.7,29.40,SW,225,0.0,5.8,40,0.00,,,0.00,WUHU216HW,2013-03-05 04:01:00,
2013-03-04 23:02:00,39.7,20.5,29.77,SSE,158,0.0,0.0,46,0.00,,,0.00,WUHU216HW,2013-03-05 04:02:00,
2013-03-04 23:03:00,78.0,51.8,29.40,WSW,248,4.0,5.8,40,0.00,,,0.00,WUHU216HW,2013-03-05 04:03:00,
2013-03-04 23:04:00,78.0,51.8,29.40,WSW,248,4.0,5.8,40,0.00,,,0.00,WUHU216HW,2013-03-05 04:04:00,
2013-03-04 23:05:00,78.0,51.8,29.40,SW,225,4.0,5.8,39,0.00,,,0.00,WUHU216HW,2013-03-05 04:05:00,
2013-03-04 23:06:00,78.0,51.8,29.40,SW,225,4.0,4.6,39,0.00,,,0.00,WUHU216HW,2013-03-05 04:06:00,
2013-03-04 23:07:00,39.7,20.5,29.77,SSE,158,0.0,0.0,47,0.00,,,0.00,WUHU216HW,2013-03-05 04:07:00,
2013-03-04 23:08:00,78.0,51.1,29.41,South,180,2.0,4.6,39,0.00,,,0.00,WUHU216HW,2013-03-05 04:08:00,
2013-03-04 23:09:00,77.7,50.7,29.41,SSW,203,0.0,4.6,39,0.00,,,0.00,WUHU216HW,2013-03-05 04:09:00,
2013-03-04 23:10:00,77.7,50.7,29.40,SSW,203,0.0,4.0,39,0.00,,,0.00,WUHU216HW,2013-03-05 04:10:00,
2013-03-04 23:11:00,77.3,50.4,29.40,West,270,0.0,4.0,39,0.00,,,0.00,WUHU216HW,2013-03-05 04:11:00,
2013-03-04 23:12:00,39.7,20.5,29.77,SSE,158,0.0,0.0,47,0.00,,,0.00,WUHU216HW,2013-03-05 04:12:00,
2013-03-04 23:13:00,77.5,50.6,29.40,SW,225,0.0,4.0,39,0.00,,,0.00,WUHU216HW,2013-03-05 04:13:00,
2013-03-04 23:14:00,77.5,50.6,29.40,SW,225,0.0,4.0,39,0.00,,,0.00,WUHU216HW,2013-03-05 04:14:00,
2013-03-04 23:15:00,77.5,50.6,29.40,SW,225,0.0,4.0,39,0.00,,,0.00,WUHU216HW,2013-03-05 04:15:00,
2013-03-04 23:16:00,77.5,50.6,29.40,West,270,0.0,4.0,39,0.00,,,0.00,WUHU216HW,2013-03-05 04:16:00,
2013-03-04 23:17:00,39.7,20.5,29.77,SSE,158,0.0,0.0,47,0.00,,,0.00,WUHU216HW,2013-03-05 04:17:00,
2013-03-04 23:18:00,77.5,50.6,29.39,WNW,293,0.0,2.0,40,0.00,,,0.00,WUHU216HW,2013-03-05 04:18:00,
2013-03-04 23:19:00,77.5,50.6,29.39,WNW,293,0.0,0.0,40,0.00,,,0.00,WUHU216HW,2013-03-05 04:19:00,
2013-03-04 23:20:00,77.7,51.5,29.39,SSW,203,0.0,0.0,40,0.00,,,0.00,WUHU216HW,2013-03-05 04:20:00,
2013-03-04 23:21:00,77.7,51.5,29.39,SSW,203,0.0,0.0,40,0.00,,,0.00,WUHU216HW,2013-03-05 04:21:00,
2013-03-04 23:22:00,39.7,21.0,29.77,SSE,158,0.0,0.0,47,0.00,,,0.00,WUHU216HW,2013-03-05 04:22:00,
2013-03-04 23:23:00,77.9,51.7,29.39,West,270,4.4,4.4,40,0.00,,,0.00,WUHU216HW,2013-03-05 04:23:00,
2013-03-04 23:24:00,78.0,51.1,29.39,SW,225,0.0,4.4,39,0.00,,,0.00,WUHU216HW,2013-03-05 04:24:00,
2013-03-04 23:25:00,78.0,51.1,29.39,SW,225,0.0,4.4,39,0.00,,,0.00,WUHU216HW,2013-03-05 04:25:00,
2013-03-04 23:26:00,78.0,51.1,29.39,West,270,0.0,4.4,39,0.00,,,0.00,WUHU216HW,2013-03-05 04:26:00,
2013-03-04 23:27:00,39.7,21.0,29.77,SSE,158,0.0,0.0,47,0.00,,,0.00,WUHU216HW,2013-03-05 04:27:00,
2013-03-04 23:28:00,78.0,51.1,29.39,West,270,0.0,4.4,39,0.00,,,0.00,WUHU216HW,2013-03-05 04:28:00,
2013-03-04 23:29:00,78.4,51.4,29.39,WNW,293,0.0,4.4,39,0.00,,,0.00,WUHU216HW,2013-03-05 04:29:00,
2013-03-04 23:30:00,78.4,51.4,29.39,WNW,293,0.0,4.4,39,0.00,,,0.00,WUHU216HW,2013-03-05 04:30:00,
2013-03-04 23:31:00,78.4,51.4,29.39,SW,225,0.0,4.4,39,0.00,,,0.00,WUHU216HW,2013-03-05 04:31:00,
2013-03-04 23:32:00,39.7,21.0,29.77,SSE,158,0.0,0.0,47,0.00,,,0.00,WUHU216HW,2013-03-05 04:32:00,
2013-03-04 23:33:00,78.6,51.5,29.39,WSW,248,2.4,4.4,39,0.00,,,0.00,WUHU216HW,2013-03-05 04:33:00,
2013-03-04 23:34:00,78.6,51.5,29.39,WSW,248,2.4,2.4,39,0.00,,,0.00,WUHU216HW,2013-03-05 04:34:00,
2013-03-04 23:35:00,78.6,51.5,29.39,West,270,0.0,2.4,39,0.00,,,0.00,WUHU216HW,2013-03-05 04:35:00,
2013-03-04 23:36:00,78.6,51.5,29.39,West,270,0.0,2.4,39,0.00,,,0.00,WUHU216HW,2013-03-05 04:36:00,
2013-03-04 23:37:00,78.4,50.6,29.39,SSE,158,0.0,2.4,38,0.00,,,0.00,WUHU216HW,2013-03-05 04:37:00,
2013-03-04 23:38:00,39.7,20.5,29.77,South,180,0.0,0.0,46,0.00,,,0.00,WUHU216HW,2013-03-05 04:38:00,
2013-03-04 23:39:00,78.4,50.6,29.40,SW,225,1.7,2.4,39,0.00,,,0.00,WUHU216HW,2013-03-05 04:39:00,
2013-03-04 23:40:00,78.4,50.6,29.39,SW,225,1.7,2.4,39,0.00,,,0.00,WUHU216HW,2013-03-05 04:40:00,
2013-03-04 23:41:00,78.4,50.6,29.40,SW,225,1.7,2.4,39,0.00,,,0.00,WUHU216HW,2013-03-05 04:41:00,
2013-03-04 23:42:00,78.2,52.0,29.40,SW,225,0.0,2.4,40,0.00,,,0.00,WUHU216HW,2013-03-05 04:42:00,
2013-03-04 23:43:00,39.7,20.5,29.77,South,180,0.0,0.0,46,0.00,,,0.00,WUHU216HW,2013-03-05 04:43:00,
2013-03-04 23:44:00,78.2,52.0,29.40,SW,225,0.0,2.4,40,0.00,,,0.00,WUHU216HW,2013-03-05 04:44:00,
2013-03-04 23:45:00,78.2,52.0,29.40,SW,225,0.0,1.7,40,0.00,,,0.00,WUHU216HW,2013-03-05 04:45:00,
2013-03-04 23:46:00,78.0,50.3,29.40,SW,225,0.0,1.7,38,0.00,,,0.00,WUHU216HW,2013-03-05 04:46:00,
2013-03-04 23:47:00,78.0,50.3,29.40,SW,225,0.0,1.7,38,0.00,,,0.00,WUHU216HW,2013-03-05 04:47:00,
2013-03-04 23:48:00,39.7,20.5,29.77,South,180,0.0,0.0,47,0.00,,,0.00,WUHU216HW,2013-03-05 04:48:00,
2013-03-04 23:49:00,77.7,50.7,29.40,NE,45,0.0,1.7,39,0.00,,,0.00,WUHU216HW,2013-03-05 04:49:00,
2013-03-04 23:50:00,77.7,50.7,29.40,NW,315,0.0,1.7,39,0.00,,,0.00,WUHU216HW,2013-03-05 04:50:00,
2013-03-04 23:51:00,77.7,50.7,29.40,NW,315,0.0,0.0,39,0.00,,,0.00,WUHU216HW,2013-03-05 04:51:00,
2013-03-04 23:52:00,77.7,50.7,29.40,SSW,203,2.6,6.4,39,0.00,,,0.00,WUHU216HW,2013-03-05 04:52:00,
2013-03-04 23:53:00,39.7,20.5,29.77,South,180,0.0,0.0,47,0.00,,,0.00,WUHU216HW,2013-03-05 04:53:00,
2013-03-04 23:54:00,77.7,50.7,29.39,SSW,203,2.6,6.4,39,0.00,,,0.00,WUHU216HW,2013-03-05 04:54:00,
2013-03-04 23:55:00,77.9,50.9,29.39,WSW,248,0.0,6.4,39,0.00,,,0.00,WUHU216HW,2013-03-05 04:55:00,
2013-03-04 23:56:00,77.9,50.9,29.39,WSW,248,0.0,6.4,39,0.00,,,0.00,WUHU216HW,2013-03-05 04:56:00,
2013-03-04 23:57:00,78.0,51.1,29.39,WNW,293,2.6,6.4,39,0.00,,,0.00,WUHU216HW,2013-03-05 04:57:00,
2013-03-04 23:58:00,39.7,20.5,29.77,South,180,0.0,0.0,47,0.00,,,0.00,WUHU216HW,2013-03-05 04:58:00,
2013-03-04 23:59:00,77.9,50.9,29.40,SW,225,4.0,6.4,39,0.00,,,0.00,WUHU216HW,2013-03-05 04:59:00,